TB1572 / OO-JEM 7700 Squawk Report (5th of October, 2021)

Time Lat Lon Altitude Heading Speed Vertical Rate
2021-10-05 07:03:48 GMT 50.473660 4.500980 1,200 246 132 -704
2021-10-05 07:03:38 GMT 50.476128 4.509442 1,325 246 133 -704
2021-10-05 07:03:29 GMT 50.478470 4.517549 1,450 246 126 -768
2021-10-05 07:03:18 GMT 50.481354 4.527451 1,575 246 126 -768
2021-10-05 07:03:08 GMT 50.483459 4.534462 1,675 245 118 -512
2021-10-05 07:03:05 GMT 50.484180 4.536834 1,700 246 116 -640
2021-10-05 07:02:57 GMT 50.486069 4.543136 1,800 246 116 -640
2021-10-05 07:02:46 GMT 50.488861 4.552893 1,925 246 120 -640
2021-10-05 07:02:37 GMT 50.490559 4.558881 2,000 247 125 -768
2021-10-05 07:02:33 GMT 50.491905 4.563632 2,050 246 132 -768
2021-10-05 07:02:27 GMT 50.493164 4.568000 2,125 247 133 -704
2021-10-05 07:02:24 GMT 50.493862 4.570535 2,450 246 140 -704
2021-10-05 07:02:16 GMT 50.495865 4.577513 2,250 247 138 -704
2021-10-05 07:02:09 GMT 50.498379 4.586495 2,425 247 144 -832
2021-10-05 07:02:06 GMT 50.498379 4.586495 2,375 247 145 -896
2021-10-05 07:02:00 GMT 50.500397 4.593586 2,525 247 145 -896
2021-10-05 07:01:56 GMT 50.501129 4.596333 2,525 247 146 -832
2021-10-05 07:01:48 GMT 50.503326 4.604139 2,650 247 150 -640
2021-10-05 07:01:44 GMT 50.504944 4.609952 2,675 247 154 -448
2021-10-05 07:01:40 GMT 50.505638 4.612476 2,675 247 158 -192
2021-10-05 07:01:33 GMT 50.507767 4.620257 2,700 247 160 -128
2021-10-05 07:01:30 GMT 50.508667 4.623463 2,700 247 159 128
2021-10-05 07:01:23 GMT 50.510742 4.630882 2,700 247 159 128
2021-10-05 07:01:16 GMT 50.512985 4.638905 2,675 246 159 0
2021-10-05 07:01:08 GMT 50.515137 4.645988 2,675 242 157 -128
2021-10-05 07:01:05 GMT 50.516190 4.649241 2,700 238 156 64
2021-10-05 07:01:02 GMT 50.517197 4.651987 2,700 235 154 64
2021-10-05 07:00:57 GMT 50.519512 4.657461 2,700 232 153 128
2021-10-05 07:00:53 GMT 50.521748 4.661469 2,675 218 149 64
2021-10-05 07:00:45 GMT 50.525333 4.666146 2,675 215 148 0
2021-10-05 07:00:42 GMT 50.527084 4.668033 2,675 213 148 -64
2021-10-05 07:00:35 GMT 50.531433 4.672514 2,675 213 149 -64
2021-10-05 07:00:32 GMT 50.532967 4.674015 2,675 211 148 -192
2021-10-05 07:00:27 GMT 50.535873 4.676779 2,700 208 148 -128
2021-10-05 07:00:24 GMT 50.537434 4.678097 2,700 207 148 -64
2021-10-05 07:00:20 GMT 50.539715 4.679730 2,700 197 148 64
2021-10-05 07:00:17 GMT 50.542191 4.680754 2,700 187 148 128
2021-10-05 07:00:11 GMT 50.546467 4.680473 2,675 156 154 -128
2021-10-05 07:00:07 GMT 50.549633 4.678543 2,700 153 155 -64
2021-10-05 07:00:03 GMT 50.551353 4.677058 2,700 150 156 64
2021-10-05 06:59:59 GMT 50.553543 4.675189 2,675 150 156 128
2021-10-05 06:59:56 GMT 50.555683 4.673272 2,675 150 156 128
2021-10-05 06:59:53 GMT 50.557571 4.671575 2,675 150 156 64
2021-10-05 06:59:50 GMT 50.559586 4.669768 2,675 150 156 0
2021-10-05 06:59:47 GMT 50.561600 4.667961 2,675 150 158 0
2021-10-05 06:59:43 GMT 50.563889 4.665937 2,675 150 160 64
2021-10-05 06:59:40 GMT 50.565552 4.664439 2,675 150 162 64
2021-10-05 06:59:36 GMT 50.568207 4.662137 2,675 150 176 -64
2021-10-05 06:59:32 GMT 50.571232 4.659465 2,675 150 170 64
2021-10-05 06:59:28 GMT 50.574257 4.656718 2,675 150 173 0
2021-10-05 06:59:25 GMT 50.576065 4.655095 2,675 150 176 -64
2021-10-05 06:59:22 GMT 50.578125 4.653216 2,700 148 181 -192
2021-10-05 06:59:18 GMT 50.581707 4.649666 2,700 144 188 64
2021-10-05 06:59:14 GMT 50.583942 4.646994 2,700 135 198 -64
2021-10-05 06:59:11 GMT 50.586781 4.642466 2,700 129 204 -64
2021-10-05 06:59:08 GMT 50.587666 4.640684 2,700 124 210 64
2021-10-05 06:59:05 GMT 50.588970 4.637418 2,725 112 224 0
2021-10-05 06:59:00 GMT 50.591202 4.629030 2,700 99 247 -832
2021-10-05 06:58:56 GMT 50.592178 4.621992 2,725 99 243 -256
2021-10-05 06:58:52 GMT 50.592972 4.614629 2,775 99 247 -832
2021-10-05 06:58:49 GMT 50.593483 4.609655 2,750 99 247 -832
2021-10-05 06:58:45 GMT 50.594135 4.603346 2,825 99 249 -1344
2021-10-05 06:58:39 GMT 50.595245 4.592863 2,950 99 249 -1408
2021-10-05 06:58:35 GMT 50.596069 4.584985 3,050 99 250 -1280
2021-10-05 06:58:30 GMT 50.597206 4.574469 3,175 99 252 -1024
2021-10-05 06:58:27 GMT 50.597580 4.570906 3,200 99 253 -896
2021-10-05 06:58:24 GMT 50.598232 4.565042 3,225 99 255 -768
2021-10-05 06:58:21 GMT 50.598816 4.559543 3,275 99 260 -384
2021-10-05 06:58:18 GMT 50.599640 4.552098 3,275 99 263 -512
2021-10-05 06:58:15 GMT 50.600048 4.548043 3,325 100 264 -512
2021-10-05 06:58:11 GMT 50.600876 4.540751 3,350 99 266 -768
2021-10-05 06:58:07 GMT 50.601746 4.533089 3,400 100 269 -1152
2021-10-05 06:58:04 GMT 50.602249 4.528463 3,450 100 270 -1408
2021-10-05 06:58:01 GMT 50.603119 4.521097 3,550 100 270 -1472
2021-10-05 06:57:58 GMT 50.603668 4.516176 3,625 100 271 -1600
2021-10-05 06:57:54 GMT 50.604656 4.507883 3,725 100 271 -1664
2021-10-05 06:57:51 GMT 50.605682 4.499347 3,850 101 272 -1600
2021-10-05 06:57:47 GMT 50.606239 4.494670 3,925 100 271 -1600
2021-10-05 06:57:44 GMT 50.607330 4.485747 4,050 101 272 -1600
2021-10-05 06:57:40 GMT 50.607964 4.480715 4,125 101 272 -1600
2021-10-05 06:57:37 GMT 50.608658 4.474905 4,200 101 272 -1664
2021-10-05 06:57:34 GMT 50.609528 4.467966 4,275 101 272 -1664
2021-10-05 06:57:31 GMT 50.610008 4.464384 4,350 101 272 -1664
2021-10-05 06:57:28 GMT 50.610989 4.456663 4,525 101 273 -1728
2021-10-05 06:57:25 GMT 50.611687 4.451170 4,575 101 273 -1728
2021-10-05 06:57:22 GMT 50.612411 4.445271 4,625 101 273 -1728
2021-10-05 06:57:19 GMT 50.613174 4.439442 4,900 101 273 -1792
2021-10-05 06:57:16 GMT 50.614014 4.432839 4,850 101 273 -1600
2021-10-05 06:57:13 GMT 50.614853 4.426228 4,875 101 273 -1792
2021-10-05 06:57:08 GMT 50.615936 4.418022 5,075 101 274 -2048
2021-10-05 06:57:05 GMT 50.616669 4.412124 5,175 101 274 -2048
2021-10-05 06:57:02 GMT 50.617599 4.405072 5,300 101 275 -2048
2021-10-05 06:56:58 GMT 50.618454 4.398434 5,375 101 276 -1984
2021-10-05 06:56:55 GMT 50.619186 4.392941 5,450 101 277 -1920
2021-10-05 06:56:51 GMT 50.620159 4.385401 5,575 101 278 -1920
2021-10-05 06:56:48 GMT 50.621155 4.377835 5,700 101 280 -1920
2021-10-05 06:56:44 GMT 50.622620 4.365764 5,875 100 282 -1920
2021-10-05 06:56:41 GMT 50.622620 4.365764 5,900 100 282 -1920
2021-10-05 06:56:37 GMT 50.623627 4.356874 6,275 98 284 -1920
2021-10-05 06:56:34 GMT 50.624302 4.349918 6,150 96 286 -1856
2021-10-05 06:56:31 GMT 50.624634 4.344515 6,225 94 287 -1856
2021-10-05 06:56:27 GMT 50.624813 4.335740 6,425 83 294 -1856
2021-10-05 06:56:24 GMT 50.624626 4.330692 6,500 83 294 -1856
2021-10-05 06:56:21 GMT 50.624115 4.322972 6,525 83 295 -1856
2021-10-05 06:56:16 GMT 50.623306 4.312278 6,700 83 295 -1856
2021-10-05 06:56:13 GMT 50.622860 4.305824 6,775 84 297 -1664
2021-10-05 06:56:10 GMT 50.621834 4.290532 6,900 84 299 -1664
2021-10-05 06:56:07 GMT 50.621834 4.290532 6,975 84 298 -1600
2021-10-05 06:56:04 GMT 50.621567 4.286547 7,075 84 298 -1600
2021-10-05 06:56:01 GMT 50.621181 4.280066 7,100 84 298 -1536
2021-10-05 06:55:57 GMT 50.620514 4.269345 7,350 84 299 -1920
2021-10-05 06:55:54 GMT 50.620285 4.264936 7,775 83 298 -1920
2021-10-05 06:55:51 GMT 50.619873 4.257925 7,500 84 299 -1920
2021-10-05 06:55:46 GMT 50.619232 4.247589 7,575 84 299 -1920
2021-10-05 06:55:43 GMT 50.618855 4.241910 7,700 83 299 -2112
2021-10-05 06:55:40 GMT 50.617783 4.228177 7,775 82 298 -2112
2021-10-05 06:55:37 GMT 50.617783 4.228177 7,900 80 299 -2048
2021-10-05 06:55:34 GMT 50.617180 4.222090 8,000 78 300 -1984
2021-10-05 06:55:31 GMT 50.616341 4.215261 8,050 77 300 -1920
2021-10-05 06:55:27 GMT 50.615177 4.207764 8,250 75 302 -1536
2021-10-05 06:55:24 GMT 50.613281 4.196055 8,300 75 302 -1536
2021-10-05 06:55:21 GMT 50.612991 4.194105 8,325 75 302 -1664
2021-10-05 06:55:17 GMT 50.611591 4.185643 8,475 75 303 -1792
2021-10-05 06:55:14 GMT 50.610428 4.178591 8,550 75 303 -1792
2021-10-05 06:55:11 GMT 50.609776 4.174359 8,650 75 304 -1600
2021-10-05 06:55:08 GMT 50.608337 4.165336 8,750 75 305 -1408
2021-10-05 06:55:05 GMT 50.607403 4.159736 8,775 75 306 -1280
2021-10-05 06:55:02 GMT 50.606613 4.154614 8,825 75 310 -896
2021-10-05 06:54:59 GMT 50.605545 4.148134 8,850 75 308 -1024
2021-10-05 06:54:55 GMT 50.603912 4.138060 8,925 75 313 -640
2021-10-05 06:54:52 GMT 50.602890 4.131438 8,975 75 315 -512
2021-10-05 06:54:49 GMT 50.601955 4.125663 8,975 75 317 -448
2021-10-05 06:54:45 GMT 50.600281 4.115320 9,000 75 325 -320
2021-10-05 06:54:42 GMT 50.599274 4.108959 9,000 75 325 -320
2021-10-05 06:54:39 GMT 50.598278 4.102948 9,025 75 329 -320
2021-10-05 06:54:36 GMT 50.596985 4.095009 9,050 75 341 -1408
2021-10-05 06:54:33 GMT 50.595997 4.088918 9,050 75 335 -576
2021-10-05 06:54:30 GMT 50.594788 4.081347 9,125 75 339 -1088
2021-10-05 06:54:27 GMT 50.593460 4.073181 9,350 75 342 -1536
2021-10-05 06:54:23 GMT 50.591812 4.063568 9,275 74 342 -2112
2021-10-05 06:54:20 GMT 50.590321 4.055440 9,425 72 344 -2368
2021-10-05 06:54:13 GMT 50.586639 4.040742 9,850 60 347 -2432
2021-10-05 06:54:09 GMT 50.583801 4.032576 9,825 58 348 -2368
2021-10-05 06:54:05 GMT 50.580460 4.024465 10,050 56 348 -2432
2021-10-05 06:54:02 GMT 50.577209 4.016876 10,150 56 350 -2304
2021-10-05 06:53:59 GMT 50.574955 4.011494 10,275 56 374 -2688
2021-10-05 06:53:55 GMT 50.570480 4.000975 10,875 56 374 -2688
2021-10-05 06:53:52 GMT 50.568237 3.995771 11,250 56 350 -2304
2021-10-05 06:53:49 GMT 50.565720 3.989844 10,575 56 350 -2304
2021-10-05 06:53:45 GMT 50.561920 3.980985 10,950 56 351 -2304
2021-10-05 06:53:42 GMT 50.559540 3.975461 10,950 56 351 -2304
2021-10-05 06:53:39 GMT 50.556477 3.968366 10,950 56 353 -1984
2021-10-05 06:53:36 GMT 50.554138 3.962740 11,075 56 355 -1792
2021-10-05 06:53:33 GMT 50.546722 3.945465 11,325 56 357 -1408
2021-10-05 06:53:29 GMT 50.546722 3.945465 11,250 56 360 -1280
2021-10-05 06:53:26 GMT 50.544525 3.940333 11,300 55 364 -1472
2021-10-05 06:53:22 GMT 50.540726 3.931515 11,400 55 364 -1536
2021-10-05 06:53:19 GMT 50.537994 3.925088 11,550 55 368 -1984
2021-10-05 06:53:15 GMT 50.534500 3.916997 11,600 55 368 -1984
2021-10-05 06:53:12 GMT 50.531429 3.909945 11,725 55 369 -2048
2021-10-05 06:53:09 GMT 50.525482 3.896171 11,975 55 372 -1728
2021-10-05 06:53:06 GMT 50.525482 3.896171 12,100 55 372 -1728
2021-10-05 06:53:01 GMT 50.520676 3.884929 12,200 56 374 -2048
2021-10-05 06:52:58 GMT 50.517838 3.878318 12,200 56 374 -2752
2021-10-05 06:52:55 GMT 50.515091 3.871886 14,425 56 374 -2688
2021-10-05 06:52:52 GMT 50.512024 3.864730 12,425 56 374 -2688
2021-10-05 06:52:48 GMT 50.507355 3.853816 12,625 56 374 -2752
2021-10-05 06:52:43 GMT 50.503685 3.845289 12,925 56 374 -2624
2021-10-05 06:52:40 GMT 50.497913 3.831779 13,150 55 375 -2496
2021-10-05 06:52:37 GMT 50.497913 3.831779 13,150 55 375 -2432
2021-10-05 06:52:34 GMT 50.494995 3.825049 13,225 55 375 -2432
2021-10-05 06:52:31 GMT 50.492046 3.818194 13,350 56 377 -2368
2021-10-05 06:52:28 GMT 50.488930 3.810994 13,650 56 378 -2432
2021-10-05 06:52:25 GMT 50.486435 3.805173 13,650 56 378 -2432
2021-10-05 06:52:22 GMT 50.482319 3.795628 13,700 56 377 -2368
2021-10-05 06:52:18 GMT 50.479019 3.787970 13,875 55 378 -2496
2021-10-05 06:52:15 GMT 50.476498 3.782043 14,050 55 383 -2432
2021-10-05 06:52:11 GMT 50.472218 3.772171 14,175 55 379 -2432
2021-10-05 06:52:08 GMT 50.469177 3.765130 14,250 55 379 -2432
2021-10-05 06:52:04 GMT 50.464722 3.754800 14,425 55 380 -2368
2021-10-05 06:52:01 GMT 50.461136 3.746561 14,500 55 380 -2368
2021-10-05 06:51:59 GMT 50.461136 3.746561 14,675 55 381 -2368
2021-10-05 06:51:56 GMT 50.457554 3.738247 14,825 55 381 -2368
2021-10-05 06:51:53 GMT 50.454803 3.731788 14,825 55 382 -2432
2021-10-05 06:51:50 GMT 50.450848 3.722658 14,975 55 383 -2432
2021-10-05 06:51:47 GMT 50.448425 3.717091 15,075 55 383 -2432
2021-10-05 06:51:44 GMT 50.445465 3.710199 15,200 55 383 -2432
2021-10-05 06:51:41 GMT 50.439148 3.695598 15,425 55 383 -2368
2021-10-05 06:51:37 GMT 50.439148 3.695598 15,450 56 384 -2368
2021-10-05 06:51:34 GMT 50.435944 3.688154 15,725 55 385 -2432
2021-10-05 06:51:31 GMT 50.432327 3.679842 15,750 55 386 -2432
2021-10-05 06:51:28 GMT 50.429947 3.674276 15,950 55 386 -2432
2021-10-05 06:51:24 GMT 50.425709 3.664460 16,075 55 386 -2304
2021-10-05 06:51:21 GMT 50.419659 3.650579 16,150 55 390 -2112
2021-10-05 06:51:18 GMT 50.419659 3.650579 16,300 55 391 -2112
2021-10-05 06:51:15 GMT 50.416763 3.643847 16,300 55 391 -2112
2021-10-05 06:51:11 GMT 50.412186 3.633294 16,475 55 391 -2112
2021-10-05 06:51:07 GMT 50.409348 3.626717 16,600 55 393 -2048
2021-10-05 06:51:04 GMT 50.404861 3.616381 16,750 55 395 -2176
2021-10-05 06:51:00 GMT 50.401566 3.608792 16,800 55 395 -2176
2021-10-05 06:50:57 GMT 50.398361 3.601420 16,950 55 396 -2176
2021-10-05 06:50:54 GMT 50.394798 3.593197 17,100 55 397 -2304
2021-10-05 06:50:51 GMT 50.391029 3.584586 17,200 55 398 -2432
2021-10-05 06:50:48 GMT 50.389572 3.581182 17,375 55 398 -2688
2021-10-05 06:50:45 GMT 50.385628 3.572190 17,500 55 398 -2688
2021-10-05 06:50:42 GMT 50.383579 3.567365 17,825 55 398 -2752
2021-10-05 06:50:39 GMT 50.379810 3.558828 17,875 55 398 -2688
2021-10-05 06:50:36 GMT 50.376179 3.550440 17,825 55 398 -2752
2021-10-05 06:50:33 GMT 50.373619 3.544501 18,075 55 398 -2816
2021-10-05 06:50:30 GMT 50.370071 3.536369 18,125 55 398 -2816
2021-10-05 06:50:27 GMT 50.366962 3.529284 18,250 55 400 -2368
2021-10-05 06:50:25 GMT 50.365425 3.525646 18,300 55 398 -2816
2021-10-05 06:50:22 GMT 50.361832 3.517360 18,550 55 399 -2880
2021-10-05 06:50:19 GMT 50.358490 3.509698 18,775 55 398 -2624
2021-10-05 06:50:16 GMT 50.356384 3.504928 18,875 55 398 -2432
2021-10-05 06:50:12 GMT 50.351395 3.493508 18,925 55 398 -2432
2021-10-05 06:50:09 GMT 50.348804 3.487491 19,025 55 398 -2432
2021-10-05 06:50:07 GMT 50.346710 3.482740 19,125 55 401 -2368
2021-10-05 06:50:03 GMT 50.342846 3.473832 19,350 55 403 -2304
2021-10-05 06:50:00 GMT 50.338074 3.462862 19,475 55 401 -2432
2021-10-05 06:49:57 GMT 50.335968 3.458019 20,500 55 411 -2496
2021-10-05 06:49:52 GMT 50.330933 3.446527 19,800 55 404 -2176
2021-10-05 06:49:49 GMT 50.327812 3.439315 19,800 55 404 -2048
2021-10-05 06:49:46 GMT 50.324615 3.431999 20,375 55 408 -1984
2021-10-05 06:49:42 GMT 50.320175 3.421796 20,375 55 411 -2432
2021-10-05 06:49:37 GMT 50.314407 3.408653 20,300 55 410 -2432
2021-10-05 06:49:33 GMT 50.310772 3.400343 20,825 55 413 -2752
2021-10-05 06:49:30 GMT 50.307541 3.392968 20,625 55 412 -2560
2021-10-05 06:49:26 GMT 50.303696 3.384150 20,875 55 412 -2688
2021-10-05 06:49:23 GMT 50.300064 3.375772 21,800 55 415 -2304
2021-10-05 06:49:20 GMT 50.296509 3.367599 21,025 55 413 -2752
2021-10-05 06:49:16 GMT 50.292618 3.358708 21,200 55 413 -2432
2021-10-05 06:49:13 GMT 50.289917 3.352637 21,225 55 413 -2560
2021-10-05 06:49:10 GMT 50.285614 3.342735 21,400 55 413 -2432
2021-10-05 06:49:08 GMT 50.283463 3.337820 21,475 55 415 -2368
2021-10-05 06:49:05 GMT 50.281357 3.332905 21,550 55 415 -2368
2021-10-05 06:49:01 GMT 50.275021 3.318465 21,850 55 417 -2048
2021-10-05 06:48:58 GMT 50.272881 3.313491 21,850 55 417 -2048
2021-10-05 06:48:54 GMT 50.265701 3.297055 22,050 55 418 -2048
2021-10-05 06:48:52 GMT 50.265701 3.297055 23,725 55 418 -1984
2021-10-05 06:48:49 GMT 50.263504 3.292068 22,200 55 421 -1920
2021-10-05 06:48:45 GMT 50.259155 3.282093 22,375 55 424 -1216
2021-10-05 06:48:42 GMT 50.255375 3.273480 22,350 55 424 -1344
2021-10-05 06:48:39 GMT 50.252350 3.266577 22,450 55 426 -1024
2021-10-05 06:48:36 GMT 50.248489 3.257808 22,550 55 426 -1024
2021-10-05 06:48:33 GMT 50.245132 3.250246 22,500 55 426 -1024
2021-10-05 06:48:30 GMT 50.242435 3.244159 22,650 54 427 -960
2021-10-05 06:48:27 GMT 50.237408 3.233098 22,650 54 427 -960
2021-10-05 06:48:24 GMT 50.230701 3.219662 22,725 50 428 -1024
2021-10-05 06:48:21 GMT 50.227535 3.213798 22,750 47 428 -896
2021-10-05 06:48:18 GMT 50.227535 3.213798 22,725 49 428 -1024
2021-10-05 06:48:14 GMT 50.222836 3.205707 22,850 40 429 -1024
2021-10-05 06:48:11 GMT 50.218365 3.198506 22,900 43 429 -960
2021-10-05 06:48:09 GMT 50.214363 3.192493 22,900 43 429 -960
2021-10-05 06:48:04 GMT 50.209057 3.184996 23,025 40 429 -1024
2021-10-05 06:48:01 GMT 50.203903 3.178229 23,050 38 430 -1024
2021-10-05 06:47:58 GMT 50.199280 3.172599 23,075 35 430 -960
2021-10-05 06:47:54 GMT 50.193413 3.165918 23,175 35 430 -960
2021-10-05 06:47:51 GMT 50.186462 3.158786 23,200 31 431 -1088
2021-10-05 06:47:47 GMT 50.179310 3.151963 23,400 30 433 -1088
2021-10-05 06:47:43 GMT 50.173164 3.146247 23,325 30 432 -1024
2021-10-05 06:47:41 GMT 50.166595 3.140138 23,350 30 434 -1024
2021-10-05 06:47:39 GMT 50.162476 3.136308 23,425 30 433 -1088
2021-10-05 06:47:33 GMT 50.155563 3.129875 23,575 30 435 -1024
2021-10-05 06:47:30 GMT 50.146637 3.121490 23,575 30 435 -1024
2021-10-05 06:47:27 GMT 50.146637 3.121490 23,675 30 435 -1024
2021-10-05 06:47:24 GMT 50.135513 3.111155 23,650 30 435 -960
2021-10-05 06:47:21 GMT 50.135513 3.111155 23,675 30 435 -960
2021-10-05 06:47:18 GMT 50.131733 3.107646 23,800 30 435 -1024
2021-10-05 06:47:14 GMT 50.122700 3.099258 23,850 30 435 -960
2021-10-05 06:47:11 GMT 50.113018 3.090202 23,900 30 434 -960
2021-10-05 06:47:08 GMT 50.108551 3.086074 23,950 30 433 -832
2021-10-05 06:47:05 GMT 50.108551 3.086074 23,950 30 430 -512
2021-10-05 06:47:02 GMT 50.102730 3.080700 23,950 30 427 -320
2021-10-05 06:47:00 GMT 50.100029 3.078176 23,975 30 426 -320
2021-10-05 06:46:57 GMT 50.095421 3.073871 24,000 30 422 -256
2021-10-05 06:46:54 GMT 50.089275 3.068155 24,000 30 421 0
2021-10-05 06:46:51 GMT 50.084717 3.063924 24,000 30 421 -64
2021-10-05 06:46:48 GMT 50.079922 3.059470 24,000 30 421 -64
2021-10-05 06:46:46 GMT 50.076569 3.056352 24,000 30 417 -64
2021-10-05 06:46:43 GMT 50.071518 3.051742 24,000 30 420 64
2021-10-05 06:46:40 GMT 50.065018 3.045670 24,000 30 420 -64
2021-10-05 06:46:37 GMT 50.060852 3.041767 24,000 30 420 -64
2021-10-05 06:46:34 GMT 50.054855 3.036202 24,000 30 419 0
2021-10-05 06:46:31 GMT 50.051849 3.033414 24,000 30 419 64
2021-10-05 06:46:28 GMT 50.046543 3.028515 24,000 30 419 0
2021-10-05 06:46:25 GMT 50.041328 3.023690 24,000 30 418 -64
2021-10-05 06:46:22 GMT 50.037231 3.019904 24,000 30 418 -64
2021-10-05 06:46:19 GMT 50.031555 3.014663 24,000 30 417 -64
2021-10-05 06:46:16 GMT 50.026619 3.010031 24,000 30 417 -64
2021-10-05 06:46:13 GMT 50.020981 3.004833 24,000 30 417 0
2021-10-05 06:46:10 GMT 50.015625 2.999846 24,000 30 417 -64
2021-10-05 06:46:08 GMT 50.012970 2.997388 24,000 30 417 -64
2021-10-05 06:46:05 GMT 50.008694 2.993477 24,000 30 417 0
2021-10-05 06:46:00 GMT 50.000034 2.985460 24,000 30 416 64
2021-10-05 06:45:57 GMT 49.995804 2.981487 24,000 30 416 -64
2021-10-05 06:45:55 GMT 49.991776 2.977801 24,000 30 416 -64
2021-10-05 06:45:52 GMT 49.986603 2.972958 24,000 30 416 -64
2021-10-05 06:45:49 GMT 49.981201 2.967971 24,000 30 417 0
2021-10-05 06:45:46 GMT 49.976669 2.963779 24,000 30 417 -64
2021-10-05 06:45:43 GMT 49.970078 2.957707 24,000 30 417 -64
2021-10-05 06:45:40 GMT 49.966003 2.953949 24,000 30 417 64
2021-10-05 06:45:37 GMT 49.962708 2.950913 24,000 30 417 0
2021-10-05 06:45:34 GMT 49.957993 2.946577 24,000 30 418 -64
2021-10-05 06:45:31 GMT 49.949669 2.938917 24,000 30 418 -64
2021-10-05 06:45:28 GMT 49.941010 2.930900 24,000 30 420 64
2021-10-05 06:45:24 GMT 49.934143 2.924604 24,000 30 420 64
2021-10-05 06:45:21 GMT 49.934143 2.924604 24,000 30 420 64
2021-10-05 06:45:18 GMT 49.930664 2.921351 24,000 30 420 64
2021-10-05 06:45:14 GMT 49.923645 2.914940 24,000 30 419 -64
2021-10-05 06:45:10 GMT 49.916988 2.908779 24,000 30 418 64
2021-10-05 06:45:08 GMT 49.913635 2.905661 24,000 30 418 64
2021-10-05 06:45:05 GMT 49.908600 2.901041 24,000 30 418 -64
2021-10-05 06:45:02 GMT 49.903976 2.896777 24,000 30 418 -64
2021-10-05 06:44:58 GMT 49.896969 2.890369 24,000 30 417 0
2021-10-05 06:44:55 GMT 49.892670 2.886369 24,000 30 418 0
2021-10-05 06:44:52 GMT 49.887009 2.881165 24,000 30 418 0
2021-10-05 06:44:49 GMT 49.882351 2.876933 24,000 30 418 -64
2021-10-05 06:44:47 GMT 49.878708 2.873575 24,000 30 417 0
2021-10-05 06:44:43 GMT 49.871384 2.866853 24,000 30 417 64
2021-10-05 06:44:40 GMT 49.867085 2.862903 24,000 30 417 64
2021-10-05 06:44:38 GMT 49.864429 2.860454 24,000 30 417 64
2021-10-05 06:44:35 GMT 49.854465 2.851323 24,000 30 417 64
2021-10-05 06:44:32 GMT 49.848648 2.845904 24,000 30 417 64
2021-10-05 06:44:29 GMT 49.848648 2.845904 24,000 30 418 -64
2021-10-05 06:44:26 GMT 49.844505 2.842193 24,000 30 418 64
2021-10-05 06:44:23 GMT 49.830540 2.829351 24,000 30 419 0
2021-10-05 06:44:19 GMT 49.830540 2.829351 24,000 30 419 -64
2021-10-05 06:44:15 GMT 49.825516 2.824715 24,000 30 421 0
2021-10-05 06:44:12 GMT 49.820847 2.820451 24,000 30 421 0
2021-10-05 06:44:09 GMT 49.813782 2.813985 24,000 30 421 64
2021-10-05 06:44:06 GMT 49.809448 2.809970 24,000 30 421 0
2021-10-05 06:44:03 GMT 49.803864 2.804854 24,000 30 421 0
2021-10-05 06:44:00 GMT 49.798370 2.799881 24,000 30 421 64
2021-10-05 06:43:57 GMT 49.795811 2.797505 24,000 30 421 64
2021-10-05 06:43:54 GMT 49.789352 2.791539 24,000 30 421 64
2021-10-05 06:43:50 GMT 49.783310 2.786046 24,000 30 421 0
2021-10-05 06:43:47 GMT 49.776958 2.780209 24,000 30 421 0
2021-10-05 06:43:44 GMT 49.768906 2.772860 24,000 30 421 -64
2021-10-05 06:43:41 GMT 49.768906 2.772860 24,000 30 421 128
2021-10-05 06:43:37 GMT 49.762245 2.766773 23,925 30 420 640
2021-10-05 06:43:32 GMT 49.753189 2.758508 23,925 30 419 1216
2021-10-05 06:43:29 GMT 49.748234 2.753931 23,925 30 419 1216
2021-10-05 06:43:26 GMT 49.744278 2.750368 23,625 30 418 1536
2021-10-05 06:43:23 GMT 49.732872 2.739901 23,700 30 417 2112
2021-10-05 06:43:20 GMT 49.732872 2.739901 23,650 30 417 2240
2021-10-05 06:43:18 GMT 49.729660 2.737006 23,425 30 417 2176
2021-10-05 06:43:14 GMT 49.722958 2.730845 23,025 30 416 2176
2021-10-05 06:43:11 GMT 49.717392 2.725838 23,025 30 416 2112
2021-10-05 06:43:07 GMT 49.712296 2.721120 23,100 30 414 1664
2021-10-05 06:43:04 GMT 49.707962 2.717237 22,975 30 414 1600
2021-10-05 06:43:01 GMT 49.703033 2.712658 22,800 30 415 1664
2021-10-05 06:42:58 GMT 49.695724 2.706051 22,875 30 413 1600
2021-10-05 06:42:55 GMT 49.691814 2.702488 22,800 30 412 1536
2021-10-05 06:42:52 GMT 49.682735 2.694174 22,600 30 403 2048
2021-10-05 06:42:46 GMT 49.677155 2.689193 22,575 30 408 1728
2021-10-05 06:42:42 GMT 49.671158 2.683700 22,525 30 408 1792
2021-10-05 06:42:38 GMT 49.665047 2.678140 22,400 30 407 1856
2021-10-05 06:42:35 GMT 49.659832 2.673389 22,275 30 406 2112
2021-10-05 06:42:32 GMT 49.654404 2.668449 22,125 30 405 2112
2021-10-05 06:42:29 GMT 49.650421 2.664907 22,100 30 405 2112
2021-10-05 06:42:27 GMT 49.646240 2.661067 22,050 30 405 2112
2021-10-05 06:42:24 GMT 49.642467 2.657652 21,925 30 405 2112
2021-10-05 06:42:21 GMT 49.638199 2.653704 21,850 30 404 2048
2021-10-05 06:42:19 GMT 49.634090 2.650006 21,750 30 403 2048
2021-10-05 06:42:17 GMT 49.630783 2.647037 21,625 30 402 1984
2021-10-05 06:42:14 GMT 49.623802 2.640727 21,525 30 399 2240
2021-10-05 06:42:11 GMT 49.620541 2.637758 21,475 30 400 2112
2021-10-05 06:42:08 GMT 49.616726 2.634269 21,375 30 400 2112
2021-10-05 06:42:06 GMT 49.612564 2.630503 21,300 30 399 2176
2021-10-05 06:42:02 GMT 49.607529 2.625949 21,075 30 398 2240
2021-10-05 06:41:59 GMT 49.601120 2.620167 21,025 30 398 2176
2021-10-05 06:41:57 GMT 49.595730 2.615266 20,800 30 396 2304
2021-10-05 06:41:52 GMT 49.591003 2.610988 20,800 30 396 2304
2021-10-05 06:41:48 GMT 49.579010 2.600074 20,550 30 395 2304
2021-10-05 06:41:44 GMT 49.573975 2.595520 20,375 30 394 2240
2021-10-05 06:41:41 GMT 49.573975 2.595520 20,375 30 394 2240
2021-10-05 06:41:39 GMT 49.569717 2.591617 20,250 30 393 1920
2021-10-05 06:41:36 GMT 49.565781 2.588148 20,000 30 392 2112
2021-10-05 06:41:31 GMT 49.557323 2.580451 20,025 30 392 2112
2021-10-05 06:41:28 GMT 49.552780 2.576294 19,925 30 391 2112
2021-10-05 06:41:26 GMT 49.548889 2.572825 19,125 30 390 1984
2021-10-05 06:41:23 GMT 49.543991 2.568416 19,500 30 388 2176
2021-10-05 06:41:20 GMT 49.541382 2.566030 19,475 30 387 2368
2021-10-05 06:41:17 GMT 49.536144 2.561299 19,500 30 387 2304
2021-10-05 06:41:14 GMT 49.532135 2.557646 19,475 30 387 2368
2021-10-05 06:41:11 GMT 49.525955 2.552081 19,275 30 386 2624
2021-10-05 06:41:08 GMT 49.521946 2.548457 19,100 30 386 2624
2021-10-05 06:41:05 GMT 49.518269 2.545117 18,725 30 385 2624
2021-10-05 06:41:01 GMT 49.511517 2.539030 18,850 30 385 2688
2021-10-05 06:40:59 GMT 49.506866 2.534878 18,600 30 381 2368
2021-10-05 06:40:55 GMT 49.503159 2.531481 18,650 30 385 2560
2021-10-05 06:40:52 GMT 49.497925 2.526781 18,500 30 385 2432
2021-10-05 06:40:50 GMT 49.489964 2.519581 18,375 30 384 2432
2021-10-05 06:40:47 GMT 49.489964 2.519581 18,225 30 384 2432
2021-10-05 06:40:44 GMT 49.485352 2.515435 18,175 30 383 2432
2021-10-05 06:40:40 GMT 49.479218 2.509870 17,800 30 382 2432
2021-10-05 06:40:36 GMT 49.472225 2.503547 17,825 30 382 2432
2021-10-05 06:40:31 GMT 49.464615 2.496643 17,450 30 381 2496
2021-10-05 06:40:27 GMT 49.459213 2.491800 17,450 30 381 2496
2021-10-05 06:40:24 GMT 49.455746 2.488700 16,950 30 381 2368
2021-10-05 06:40:21 GMT 49.448391 2.482094 17,200 30 381 2304
2021-10-05 06:40:18 GMT 49.445972 2.479867 17,150 30 380 2240
2021-10-05 06:40:14 GMT 49.440216 2.474670 17,000 30 380 2240
2021-10-05 06:40:11 GMT 49.435730 2.470588 16,900 30 379 2304
2021-10-05 06:40:09 GMT 49.432659 2.467841 16,775 30 378 2368
2021-10-05 06:40:06 GMT 49.426003 2.461805 16,575 30 378 2496
2021-10-05 06:40:03 GMT 49.422684 2.458825 16,400 30 376 2496
2021-10-05 06:39:59 GMT 49.416363 2.453131 16,375 30 376 2368
2021-10-05 06:39:55 GMT 49.410500 2.447855 16,225 30 376 2496
2021-10-05 06:39:52 GMT 49.406525 2.444247 15,925 30 375 2496
2021-10-05 06:39:48 GMT 49.401123 2.439317 15,950 30 373 2432
2021-10-05 06:39:45 GMT 49.396069 2.434773 15,800 30 372 2304
2021-10-05 06:39:42 GMT 49.392483 2.431592 15,675 29 369 2240
2021-10-05 06:39:39 GMT 49.387436 2.427133 15,525 29 370 2240
2021-10-05 06:39:34 GMT 49.380611 2.421184 15,375 29 368 2368
2021-10-05 06:39:30 GMT 49.373489 2.415185 15,225 28 366 2624
2021-10-05 06:39:24 GMT 49.364914 2.408048 14,950 27 365 2816
2021-10-05 06:39:20 GMT 49.358276 2.402766 14,750 27 365 2880
2021-10-05 06:39:15 GMT 49.350449 2.396639 14,475 26 364 2944
2021-10-05 06:39:12 GMT 49.347336 2.394386 14,250 25 364 2944
2021-10-05 06:39:09 GMT 49.342903 2.391044 14,250 25 364 3008
2021-10-05 06:39:06 GMT 49.336807 2.386563 14,050 25 364 2944
2021-10-05 06:39:03 GMT 49.333969 2.384526 13,850 25 364 2880
2021-10-05 06:38:59 GMT 49.327423 2.379667 13,775 25 364 2688
2021-10-05 06:38:56 GMT 49.322144 2.375793 13,575 25 363 2688
2021-10-05 06:38:53 GMT 49.317905 2.372685 13,575 25 363 2688
2021-10-05 06:38:49 GMT 49.312462 2.368782 13,350 25 361 2624
2021-10-05 06:38:44 GMT 49.305153 2.363506 13,075 25 361 2624
2021-10-05 06:38:41 GMT 49.300049 2.359807 13,075 25 361 2624
2021-10-05 06:38:37 GMT 49.294601 2.355934 12,825 24 359 2752
2021-10-05 06:38:34 GMT 49.288857 2.351942 12,650 24 358 2752
2021-10-05 06:38:28 GMT 49.281036 2.346521 12,400 24 355 2624
2021-10-05 06:38:25 GMT 49.275124 2.342473 12,250 23 355 2496
2021-10-05 06:38:22 GMT 49.271118 2.339806 11,900 21 352 2368
2021-10-05 06:38:19 GMT 49.266815 2.337060 11,925 21 352 2368
2021-10-05 06:38:16 GMT 49.261066 2.333655 11,875 20 352 2368
2021-10-05 06:38:13 GMT 49.257660 2.331778 11,800 18 350 2304
2021-10-05 06:38:08 GMT 49.249100 2.327975 11,575 14 347 2304
2021-10-05 06:38:03 GMT 49.241982 2.325271 11,425 12 342 2176
2021-10-05 06:38:00 GMT 49.234997 2.322596 11,250 13 344 2304
2021-10-05 06:37:57 GMT 49.233444 2.322059 11,175 12 343 2240
2021-10-05 06:37:53 GMT 49.227081 2.320067 11,050 7 340 1856
2021-10-05 06:37:47 GMT 49.217541 2.319055 10,775 351 323 1472
2021-10-05 06:37:43 GMT 49.211395 2.319778 10,800 352 325 1408
2021-10-05 06:37:39 GMT 49.204971 2.321729 10,675 346 318 1792
2021-10-05 06:37:36 GMT 49.199848 2.323898 10,525 344 313 2816
2021-10-05 06:37:33 GMT 49.197102 2.325126 10,100 345 312 3712
2021-10-05 06:37:30 GMT 49.192726 2.326933 10,200 345 312 3584
2021-10-05 06:37:27 GMT 49.188816 2.328668 10,100 345 312 3712
2021-10-05 06:37:23 GMT 49.182579 2.331198 9,825 345 312 3520
2021-10-05 06:37:20 GMT 49.178513 2.332905 9,625 345 312 2816
2021-10-05 06:37:17 GMT 49.174530 2.334524 9,375 346 308 1088
2021-10-05 06:37:14 GMT 49.169731 2.336474 9,425 346 309 1280
2021-10-05 06:37:11 GMT 49.165356 2.338281 9,375 346 308 1088
2021-10-05 06:37:07 GMT 49.160614 2.340158 9,325 346 307 1024
2021-10-05 06:37:04 GMT 49.156509 2.341823 9,000 346 305 1984
2021-10-05 06:37:01 GMT 49.152924 2.343327 9,000 346 305 1984
2021-10-05 06:36:56 GMT 49.146332 2.345933 9,050 346 305 1984
2021-10-05 06:36:53 GMT 49.140171 2.348328 8,900 346 305 2048
2021-10-05 06:36:49 GMT 49.135654 2.350062 8,800 346 305 1920
2021-10-05 06:36:45 GMT 49.130539 2.352060 8,625 346 304 2112
2021-10-05 06:36:42 GMT 49.127041 2.353387 8,600 346 304 2112
2021-10-05 06:36:37 GMT 49.119003 2.356427 8,375 347 302 1984
2021-10-05 06:36:33 GMT 49.113308 2.358591 8,225 347 302 1920
2021-10-05 06:36:30 GMT 49.109493 2.360037 8,075 347 301 2112
2021-10-05 06:36:27 GMT 49.105453 2.361568 8,050 347 301 1984
2021-10-05 06:36:23 GMT 49.101059 2.363187 7,900 346 300 2560
2021-10-05 06:36:20 GMT 49.096207 2.365089 7,675 346 299 3200
2021-10-05 06:36:17 GMT 49.092175 2.366614 7,625 346 299 3200
2021-10-05 06:36:14 GMT 49.087891 2.368276 7,425 346 297 3712
2021-10-05 06:36:11 GMT 49.085194 2.369361 6,350 340 295 2688
2021-10-05 06:36:08 GMT 49.080688 2.371145 7,075 346 297 4480
2021-10-05 06:36:05 GMT 49.072128 2.374737 6,750 345 299 4032
2021-10-05 06:36:02 GMT 49.072128 2.374737 6,625 345 300 3584
2021-10-05 06:35:58 GMT 49.067547 2.376733 6,350 342 298 2880
2021-10-05 06:35:55 GMT 49.062607 2.379244 6,200 340 295 2688
2021-10-05 06:35:52 GMT 49.059036 2.381357 6,125 338 293 2624
2021-10-05 06:35:46 GMT 49.052513 2.386057 5,875 332 285 2880
2021-10-05 06:35:42 GMT 49.047272 2.390724 5,650 329 279 2496
2021-10-05 06:35:39 GMT 49.043201 2.394586 5,500 329 276 2432
2021-10-05 06:35:36 GMT 49.041550 2.396076 5,450 329 276 2496
2021-10-05 06:35:32 GMT 49.035873 2.401358 5,250 329 270 2240
2021-10-05 06:35:27 GMT 49.031662 2.405442 5,125 327 266 1728
2021-10-05 06:35:24 GMT 49.028770 2.408680 4,975 317 251 1344
2021-10-05 06:35:21 GMT 49.026302 2.412005 4,975 315 248 1344
2021-10-05 06:35:16 GMT 49.022671 2.418871 4,850 303 233 1536
2021-10-05 06:35:11 GMT 49.020355 2.425936 4,700 290 216 1664
2021-10-05 06:35:06 GMT 49.019119 2.433401 4,475 275 198 1664
2021-10-05 06:35:02 GMT 49.018845 2.438965 4,450 269 189 1216
2021-10-05 06:34:59 GMT 49.018902 2.442868 4,375 265 181 960
2021-10-05 06:34:56 GMT 49.019119 2.446712 4,375 264 177 896
2021-10-05 06:34:52 GMT 49.019459 2.451686 4,300 267 166 1088
2021-10-05 06:34:49 GMT 49.019577 2.455233 4,225 268 160 1344
2021-10-05 06:34:46 GMT 49.019691 2.458191 4,200 268 158 1408
2021-10-05 06:34:43 GMT 49.019833 2.461805 4,125 268 148 1536
2021-10-05 06:34:40 GMT 49.019897 2.464529 3,875 268 141 1792
2021-10-05 06:34:37 GMT 49.020020 2.467659 4,000 268 144 1600
2021-10-05 06:34:34 GMT 49.020126 2.471220 3,800 268 139 1920
2021-10-05 06:34:31 GMT 49.020252 2.474526 3,800 268 137 2112
2021-10-05 06:34:28 GMT 49.020298 2.477272 3,675 269 136 2624
2021-10-05 06:34:24 GMT 49.020390 2.480742 3,300 270 137 3520
2021-10-05 06:34:21 GMT 49.020390 2.484500 3,300 270 139 3584
2021-10-05 06:34:16 GMT 49.020447 2.488685 3,025 269 142 3840
2021-10-05 06:34:10 GMT 49.020622 2.494547 2,675 268 149 3456
2021-10-05 06:34:06 GMT 49.020718 2.499245 2,450 269 151 2752
2021-10-05 06:34:00 GMT 49.020855 2.505100 2,025 268 148 2688
2021-10-05 06:33:57 GMT 49.020950 2.508756 2,050 268 146 2880
2021-10-05 06:33:54 GMT 49.021042 2.511460 1,950 267 147 2624
2021-10-05 06:33:51 GMT 49.021137 2.513918 1,725 269 147 2880
2021-10-05 06:33:47 GMT 49.021225 2.518686 1,600 269 147 3072
2021-10-05 06:33:40 GMT 49.021416 2.525916 1,225 268 149 3072
2021-10-05 06:33:11 GMT 49.022812 2.553815 600 266 83 -64
2021-10-05 06:33:08 GMT 49.022903 2.555839 600 266 83 -64
2021-10-05 06:32:59 GMT 49.023113 2.559525 0 264 30
2021-10-05 06:32:46 GMT 49.023163 2.560483 0 264 4
2021-10-05 06:32:39 GMT 49.023170 2.560628 0 264 3
2021-10-05 06:32:28 GMT 49.023197 2.560935 0 272 8
2021-10-05 06:32:16 GMT 49.023022 2.561646 0 306 11
2021-10-05 06:32:08 GMT 49.022812 2.562127 0 300 12
2021-10-05 06:31:58 GMT 49.022495 2.562719 0 326 8
2021-10-05 06:31:27 GMT 49.022240 2.562940 0 340 0
2021-10-05 06:30:57 GMT 49.022243 2.562948 0 340 0
2021-10-05 06:30:27 GMT 49.022240 2.562940 0 340 0
2021-10-05 06:30:16 GMT 49.022243 2.562948 0 340 0
2021-10-05 06:29:56 GMT 49.022240 2.562940 0 340 0
2021-10-05 06:29:41 GMT 49.022243 2.562948 0 340 0
2021-10-05 06:29:16 GMT 49.022240 2.562940 0 340 1
2021-10-05 06:29:06 GMT 49.022049 2.563019 0 351 8
2021-10-05 06:28:53 GMT 49.021500 2.562931 0 28 11
2021-10-05 06:27:48 GMT 49.020802 2.558494 0 84 7
2021-10-05 06:27:44 GMT 49.020786 2.558279 0 84 9
2021-10-05 06:27:30 GMT 49.020699 2.556610 0 87 24
2021-10-05 06:27:21 GMT 49.020618 2.555237 0 84 21
2021-10-05 06:27:14 GMT 49.020565 2.554213 0 87 20
2021-10-05 06:27:05 GMT 49.020508 2.552894 0 84 19
2021-10-05 06:26:53 GMT 49.020424 2.551487 0 87 18
We lost coverage of the aircraft here for a total of 139 minutes
2021-10-05 04:08:05 GMT 49.006760 2.561082 0 354 2 0
2021-10-05 04:07:58 GMT 49.006634 2.561100 0 354 6 0
2021-10-05 04:07:48 GMT 49.006336 2.561135 0 2 9 0
2021-10-05 04:07:30 GMT 49.005878 2.560122 0 70 17 0
2021-10-05 04:07:28 GMT 49.005833 2.559905 0 73 16 0
2021-10-05 04:07:14 GMT 49.005672 2.558247 0 87 22 0
2021-10-05 04:07:03 GMT 49.005577 2.556417 0 84 24 0
2021-10-05 04:06:58 GMT 49.005527 2.555532 0 84 22 0
2021-10-05 04:06:47 GMT 49.005409 2.554128 0 67 17 0
2021-10-05 04:06:35 GMT 49.004654 2.553318 0 0 17 0
2021-10-05 04:06:28 GMT 49.004082 2.553459 0 343 20 0
2021-10-05 04:06:17 GMT 49.003014 2.553924 0 343 22 0
2021-10-05 04:06:07 GMT 49.002113 2.554321 0 343 24 0
2021-10-05 04:05:57 GMT 49.000877 2.554849 0 343 24 0
2021-10-05 04:05:46 GMT 48.999954 2.555261 0 343 20 0
2021-10-05 04:05:35 GMT 48.999058 2.555767 0 326 17 0
2021-10-05 04:05:26 GMT 48.998604 2.556417 0 303 17 0
2021-10-05 04:05:14 GMT 48.998245 2.557899 0 284 22 0
2021-10-05 04:05:07 GMT 48.998062 2.558934 0 284 19 0
2021-10-05 04:04:57 GMT 48.997990 2.560194 0 267 19 0
2021-10-05 04:04:46 GMT 48.998058 2.561531 0 264 17 0
2021-10-05 04:04:36 GMT 48.997929 2.562561 0 320 13 0
2021-10-05 04:04:26 GMT 48.997444 2.562948 0 317 11 0
2021-10-05 04:04:16 GMT 48.997215 2.563635 0 286 18 0
2021-10-05 04:04:06 GMT 48.996929 2.565199 0 284 26 0
2021-10-05 04:03:26 GMT 48.996815 2.573653 0 264 49 0
2021-10-05 04:03:23 GMT 48.996883 2.574704 0 266 50 0
2021-10-05 04:03:16 GMT 48.997009 2.577773 475 266 72 64
2021-10-05 04:03:04 GMT 48.997330 2.583900 475 266 99 64
2021-10-05 04:02:42 GMT 48.998234 2.600074 475 266 126 -512
2021-10-05 04:02:36 GMT 48.998512 2.605784 550 265 129 -640
2021-10-05 04:02:26 GMT 48.999023 2.615028 650 266 128 -704
2021-10-05 04:02:19 GMT 48.999348 2.621323 775 266 126 -576
2021-10-05 04:02:15 GMT 48.999527 2.624324 775 267 125 -640
2021-10-05 04:02:10 GMT 48.999722 2.629057 850 266 125 -640
2021-10-05 04:02:06 GMT 48.999908 2.632888 900 266 124 -704
2021-10-05 04:01:58 GMT 49.000214 2.638972 975 266 124 -704
2021-10-05 04:01:55 GMT 49.000374 2.641923 1,025 266 126 -640
2021-10-05 04:01:50 GMT 49.000607 2.646187 1,100 265 119 -512
2021-10-05 04:01:45 GMT 49.000839 2.650235 1,100 266 115 -640
2021-10-05 04:01:39 GMT 49.001118 2.655367 1,225 266 114 -768
2021-10-05 04:01:35 GMT 49.001259 2.658836 1,200 266 114 -640
2021-10-05 04:01:29 GMT 49.001495 2.662917 1,325 266 115 -640
2021-10-05 04:01:25 GMT 49.001678 2.666509 1,325 266 117 -512
2021-10-05 04:01:18 GMT 49.002003 2.672207 1,375 266 115 -640
2021-10-05 04:01:15 GMT 49.002136 2.674960 1,425 265 113 -640
2021-10-05 04:01:10 GMT 49.002411 2.679326 1,475 266 112 -576
2021-10-05 04:01:04 GMT 49.002609 2.682977 1,525 266 111 -576
2021-10-05 04:00:59 GMT 49.002842 2.687314 1,575 266 111 -704
2021-10-05 04:00:55 GMT 49.003006 2.690664 1,625 266 113 -512
2021-10-05 04:00:51 GMT 49.003143 2.693481 1,675 266 113 -576
2021-10-05 04:00:48 GMT 49.003307 2.696493 1,675 266 112 -640
2021-10-05 04:00:45 GMT 49.003418 2.698552 1,700 266 112 -640
2021-10-05 04:00:41 GMT 49.003647 2.702707 1,750 266 114 -640
2021-10-05 04:00:37 GMT 49.003773 2.704805 1,775 266 114 -704
2021-10-05 04:00:34 GMT 49.003864 2.706684 1,800 266 115 -640
2021-10-05 04:00:30 GMT 49.004105 2.711088 1,875 265 114 -768
2021-10-05 04:00:27 GMT 49.004196 2.712989 1,900 266 115 -768
2021-10-05 04:00:24 GMT 49.004333 2.714961 1,925 266 116 -576
2021-10-05 04:00:19 GMT 49.004562 2.719333 1,975 266 116 -448
2021-10-05 04:00:14 GMT 49.004791 2.723060 2,000 266 114 -640
2021-10-05 04:00:09 GMT 49.005028 2.727717 2,075 266 117 -704
2021-10-05 04:00:05 GMT 49.005215 2.731404 2,125 266 121 -768
2021-10-05 03:59:58 GMT 49.005478 2.736441 2,175 266 126 -576
2021-10-05 03:59:54 GMT 49.005615 2.739962 2,225 266 130 -768
2021-10-05 03:59:48 GMT 49.005913 2.745426 2,350 266 153 0
2021-10-05 03:59:44 GMT 49.006100 2.749618 2,350 266 140 -768
2021-10-05 03:59:38 GMT 49.006424 2.755906 2,450 266 143 -960
2021-10-05 03:59:34 GMT 49.006622 2.759822 2,500 266 146 -832
2021-10-05 03:59:31 GMT 49.006798 2.763278 2,550 266 149 -768
2021-10-05 03:59:27 GMT 49.006985 2.767109 2,675 266 156 -896
2021-10-05 03:59:24 GMT 49.007126 2.770145 2,625 266 155 -896
2021-10-05 03:59:20 GMT 49.007401 2.775597 2,700 266 157 -832
2021-10-05 03:59:17 GMT 49.007538 2.777780 2,725 266 158 -832
2021-10-05 03:59:14 GMT 49.007729 2.781565 2,775 266 159 -896
2021-10-05 03:59:09 GMT 49.007961 2.786986 2,850 266 161 -896
2021-10-05 03:59:06 GMT 49.008148 2.790166 2,875 266 163 -832
2021-10-05 03:59:03 GMT 49.008270 2.793133 2,925 266 165 -704
2021-10-05 03:58:57 GMT 49.008659 2.800719 3,000 266 165 -896
2021-10-05 03:58:54 GMT 49.008846 2.804477 3,050 266 167 -960
2021-10-05 03:58:49 GMT 49.009125 2.810693 3,125 267 172 -1024
2021-10-05 03:58:46 GMT 49.009277 2.813838 3,175 267 175 -1024
2021-10-05 03:58:43 GMT 49.009415 2.816796 3,225 266 178 -1024
2021-10-05 03:58:39 GMT 49.009686 2.823197 3,300 267 184 -1024
2021-10-05 03:58:36 GMT 49.009823 2.825799 3,350 267 186 -1024
2021-10-05 03:58:33 GMT 49.010010 2.829847 3,400 267 190 -1024
2021-10-05 03:58:27 GMT 49.010384 2.839098 3,500 267 199 -960
2021-10-05 03:58:21 GMT 49.010742 2.847994 3,600 267 201 -960
2021-10-05 03:58:18 GMT 49.010849 2.851675 3,675 267 202 -1024
2021-10-05 03:58:14 GMT 49.011063 2.857572 3,725 268 202 -960
2021-10-05 03:58:08 GMT 49.011337 2.866094 3,800 268 204 -960
2021-10-05 03:58:03 GMT 49.011566 2.872432 4,000 267 204 -960
2021-10-05 03:57:57 GMT 49.012012 2.882538 4,000 264 205 -832
2021-10-05 03:57:53 GMT 49.012344 2.886728 4,025 263 205 -704
2021-10-05 03:57:49 GMT 49.012897 2.892223 4,075 261 206 -704
2021-10-05 03:57:46 GMT 49.013397 2.896517 4,100 260 207 -576
2021-10-05 03:57:41 GMT 49.014359 2.904053 4,150 260 212 -384
2021-10-05 03:57:36 GMT 49.015137 2.911588 4,150 264 216 128
2021-10-05 03:57:33 GMT 49.015411 2.915884 4,150 269 218 192
2021-10-05 03:57:30 GMT 49.015228 2.922152 4,150 304 236 -64
2021-10-05 03:57:27 GMT 49.014805 2.925399 4,125 286 226 256
2021-10-05 03:57:23 GMT 49.013260 2.931237 4,125 299 233 -192
2021-10-05 03:57:20 GMT 49.011475 2.935744 4,125 306 236 0
2021-10-05 03:57:16 GMT 49.008865 2.941167 4,125 307 237 64
2021-10-05 03:57:13 GMT 49.007080 2.944970 4,125 307 236 64
2021-10-05 03:57:10 GMT 49.005066 2.949125 4,125 307 236 -64
2021-10-05 03:57:06 GMT 49.002792 2.953804 4,125 307 235 0
2021-10-05 03:57:02 GMT 49.000351 2.958914 4,125 307 235 -64
2021-10-05 03:56:58 GMT 48.995392 2.969200 4,125 307 234 64
2021-10-05 03:56:55 GMT 48.995392 2.969200 4,125 307 234 64
2021-10-05 03:56:52 GMT 48.993809 2.972525 4,125 307 234 64
2021-10-05 03:56:49 GMT 48.991249 2.977801 4,125 307 234 0
2021-10-05 03:56:46 GMT 48.989594 2.981239 4,125 307 235 -64
2021-10-05 03:56:42 GMT 48.986984 2.986591 4,125 307 235 -64
2021-10-05 03:56:36 GMT 48.983429 2.993702 4,125 308 237 -64
2021-10-05 03:56:33 GMT 48.980774 2.998834 4,125 310 238 -128
2021-10-05 03:56:26 GMT 48.975746 3.007507 4,150 317 243 0
2021-10-05 03:56:22 GMT 48.972675 3.011555 4,150 323 246 -64
2021-10-05 03:56:16 GMT 48.966110 3.017367 4,150 338 253 64
2021-10-05 03:56:13 GMT 48.962711 3.019216 4,150 345 256 192
2021-10-05 03:56:06 GMT 48.953979 3.021522 4,125 358 262 -64
2021-10-05 03:56:02 GMT 48.950375 3.021529 4,125 1 264 0
2021-10-05 03:55:55 GMT 48.941998 3.021168 4,125 1 271 0
2021-10-05 03:55:52 GMT 48.937946 3.020951 4,125 1 274 0
2021-10-05 03:55:45 GMT 48.928940 3.020466 4,125 2 283 -128
2021-10-05 03:55:42 GMT 48.925007 3.020301 4,125 2 286 -192
2021-10-05 03:55:35 GMT 48.915665 3.019761 4,175 2 293 -1024
2021-10-05 03:55:32 GMT 48.911598 3.019433 4,225 3 294 -1344
2021-10-05 03:55:25 GMT 48.901821 3.018060 4,425 9 296 -1792
2021-10-05 03:55:22 GMT 48.897812 3.016874 4,500 14 298 -1792
2021-10-05 03:55:15 GMT 48.888931 3.011944 4,725 26 300 -1856
2021-10-05 03:55:12 GMT 48.885132 3.008775 4,800 32 301 -1856
2021-10-05 03:55:05 GMT 48.877213 2.999479 5,025 43 299 -1856
2021-10-05 03:55:02 GMT 48.874310 2.994786 5,125 49 298 -2240
2021-10-05 03:54:55 GMT 48.869110 2.983492 5,400 60 296 -2240
2021-10-05 03:54:51 GMT 48.866684 2.976943 5,525 60 296 -2240
2021-10-05 03:54:47 GMT 48.863708 2.968985 5,700 60 296 -2304
2021-10-05 03:54:44 GMT 48.861694 2.963490 5,800 60 297 -2304
2021-10-05 03:54:39 GMT 48.858154 2.954094 6,475 60 297 -2688
2021-10-05 03:54:35 GMT 48.855881 2.947928 6,475 60 297 -2240
2021-10-05 03:54:29 GMT 48.851406 2.935952 6,400 60 297 -2624
2021-10-05 03:54:25 GMT 48.848938 2.929374 6,600 60 297 -2752
2021-10-05 03:54:22 GMT 48.846237 2.922146 6,725 60 297 -2624
2021-10-05 03:54:19 GMT 48.845032 2.918842 6,825 60 298 -2560
2021-10-05 03:54:15 GMT 48.841629 2.909715 7,025 60 299 -2432
2021-10-05 03:54:11 GMT 48.839630 2.904264 7,150 61 299 -2496
2021-10-05 03:54:07 GMT 48.836426 2.895390 7,400 61 300 -2560
2021-10-05 03:54:04 GMT 48.834824 2.890954 7,450 61 301 -2496
2021-10-05 03:54:00 GMT 48.831436 2.881446 7,650 61 302 -2496
2021-10-05 03:53:54 GMT 48.828129 2.871913 7,900 62 302 -2880
2021-10-05 03:53:49 GMT 48.825012 2.862878 8,125 62 301 -3136
2021-10-05 03:53:44 GMT 48.821823 2.853558 8,400 62 301 -3072
2021-10-05 03:53:41 GMT 48.819763 2.847572 8,550 62 302 -2816
2021-10-05 03:53:37 GMT 48.817097 2.839677 8,850 63 301 -2752
2021-10-05 03:53:34 GMT 48.815281 2.834328 9,125 63 302 -2688
2021-10-05 03:53:29 GMT 48.811935 2.824331 9,125 63 302 -2688
2021-10-05 03:53:24 GMT 48.809372 2.816585 9,375 63 301 -2560
2021-10-05 03:53:21 GMT 48.806995 2.809320 9,475 63 302 -2432
2021-10-05 03:53:17 GMT 48.804249 2.801008 9,675 63 304 -1920
2021-10-05 03:53:14 GMT 48.802689 2.796161 9,725 64 303 -1792
2021-10-05 03:53:09 GMT 48.799713 2.786795 9,850 64 305 -1600
2021-10-05 03:53:04 GMT 48.796509 2.776794 10,000 64 312 -64
2021-10-05 03:52:59 GMT 48.793495 2.767109 10,000 64 312 -64
2021-10-05 03:52:56 GMT 48.791656 2.761230 10,000 64 314 -64
2021-10-05 03:52:53 GMT 48.790146 2.756442 10,000 64 316 0
2021-10-05 03:52:50 GMT 48.788235 2.750413 10,000 64 319 64
2021-10-05 03:52:47 GMT 48.786186 2.743763 10,000 64 325 -64
2021-10-05 03:52:44 GMT 48.783905 2.736608 10,000 64 329 0
2021-10-05 03:52:40 GMT 48.781631 2.729257 10,000 64 333 0
2021-10-05 03:52:37 GMT 48.779575 2.722875 10,000 64 339 -64
2021-10-05 03:52:34 GMT 48.777157 2.715141 10,000 64 342 64
2021-10-05 03:52:30 GMT 48.774857 2.707919 10,000 64 350 0
2021-10-05 03:52:27 GMT 48.772686 2.701191 10,000 64 356 64
2021-10-05 03:52:24 GMT 48.770279 2.693552 10,000 64 358 0
2021-10-05 03:52:21 GMT 48.767845 2.685868 10,000 64 361 -64
2021-10-05 03:52:17 GMT 48.765427 2.678058 10,000 64 366 64
2021-10-05 03:52:14 GMT 48.762630 2.669316 10,000 64 367 64
2021-10-05 03:52:10 GMT 48.760437 2.662354 10,000 64 368 0
2021-10-05 03:52:06 GMT 48.757233 2.652071 10,000 64 368 -64
2021-10-05 03:52:03 GMT 48.755173 2.645592 10,000 64 368 64
2021-10-05 03:52:00 GMT 48.753273 2.639538 10,000 64 367 0
2021-10-05 03:51:56 GMT 48.749550 2.627612 10,000 64 368 64
2021-10-05 03:51:53 GMT 48.748169 2.623268 10,000 64 368 0
2021-10-05 03:51:49 GMT 48.744755 2.612650 10,000 64 367 0
2021-10-05 03:51:46 GMT 48.742985 2.607085 10,000 64 367 0
2021-10-05 03:51:43 GMT 48.740704 2.599857 10,000 64 367 -64
2021-10-05 03:51:40 GMT 48.737274 2.588970 10,000 64 366 -64
2021-10-05 03:51:37 GMT 48.735958 2.584823 10,000 64 366 -64
2021-10-05 03:51:33 GMT 48.733025 2.575571 10,000 64 366 0
2021-10-05 03:51:29 GMT 48.730137 2.566464 10,000 64 365 64
2021-10-05 03:51:26 GMT 48.727890 2.559392 10,000 64 365 0
2021-10-05 03:51:23 GMT 48.725994 2.553454 10,000 64 365 0
2021-10-05 03:51:19 GMT 48.722992 2.543969 10,000 64 365 0
2021-10-05 03:51:16 GMT 48.720840 2.537349 10,000 63 364 -64
2021-10-05 03:51:13 GMT 48.718460 2.529954 10,000 63 364 0
2021-10-05 03:51:09 GMT 48.714775 2.518543 10,000 64 365 64
2021-10-05 03:51:06 GMT 48.713333 2.513918 10,000 64 364 0
2021-10-05 03:51:03 GMT 48.711182 2.507207 10,000 64 364 0
2021-10-05 03:51:00 GMT 48.708958 2.500329 10,000 64 364 -64
2021-10-05 03:50:57 GMT 48.706100 2.491432 10,000 64 365 -64
2021-10-05 03:50:53 GMT 48.703648 2.483705 10,000 64 364 -64
2021-10-05 03:50:48 GMT 48.699787 2.471707 10,000 64 364 0
2021-10-05 03:50:45 GMT 48.696121 2.460233 10,000 64 364 64
2021-10-05 03:50:42 GMT 48.696121 2.460233 10,000 64 364 64
2021-10-05 03:50:39 GMT 48.693741 2.452909 10,000 64 365 -64
2021-10-05 03:50:36 GMT 48.691086 2.444599 10,000 64 365 -64
2021-10-05 03:50:33 GMT 48.688614 2.436796 10,000 64 365 0
2021-10-05 03:50:29 GMT 48.685959 2.428484 10,000 64 364 -64
2021-10-05 03:50:25 GMT 48.683121 2.419739 10,000 64 364 -64
2021-10-05 03:50:22 GMT 48.681210 2.413812 10,000 64 364 -64
2021-10-05 03:50:18 GMT 48.677765 2.402970 10,000 64 364 0
2021-10-05 03:50:15 GMT 48.675671 2.396537 10,000 64 363 -64
2021-10-05 03:50:12 GMT 48.673855 2.390900 10,000 64 363 0
2021-10-05 03:50:08 GMT 48.670921 2.381793 10,000 64 362 0
2021-10-05 03:50:05 GMT 48.668083 2.372758 10,000 64 362 0
2021-10-05 03:50:02 GMT 48.666412 2.367624 10,000 64 362 0
2021-10-05 03:49:58 GMT 48.663483 2.358539 10,000 64 360 -64
2021-10-05 03:49:55 GMT 48.661335 2.351725 10,000 64 360 -64
2021-10-05 03:49:52 GMT 48.658958 2.344497 10,000 64 360 -64
2021-10-05 03:49:48 GMT 48.656399 2.336474 10,000 64 361 -64
2021-10-05 03:49:45 GMT 48.653641 2.327834 10,000 64 361 -64
2021-10-05 03:49:42 GMT 48.651695 2.321729 10,000 64 362 -64
2021-10-05 03:49:39 GMT 48.649338 2.314171 10,000 64 363 -64
2021-10-05 03:49:35 GMT 48.646530 2.305394 10,025 64 365 -256
2021-10-05 03:49:32 GMT 48.644394 2.298467 10,025 64 365 -384
2021-10-05 03:49:26 GMT 48.639828 2.284144 10,100 64 370 -1280
2021-10-05 03:49:22 GMT 48.636894 2.274893 10,200 64 373 -1664
2021-10-05 03:49:18 GMT 48.634277 2.266705 10,300 64 377 -1600
2021-10-05 03:49:15 GMT 48.632217 2.260155 10,375 64 379 -1664
2021-10-05 03:49:12 GMT 48.629425 2.251423 10,475 64 382 -1984
2021-10-05 03:49:06 GMT 48.624802 2.236915 10,775 64 385 -2688
2021-10-05 03:49:03 GMT 48.622375 2.229309 10,850 64 386 -2880
2021-10-05 03:48:59 GMT 48.618576 2.217478 11,100 63 387 -2816
2021-10-05 03:48:54 GMT 48.615620 2.208252 11,275 63 388 -2816
2021-10-05 03:48:51 GMT 48.613632 2.202125 11,400 63 389 -2880
2021-10-05 03:48:48 GMT 48.610825 2.193652 11,550 63 389 -3008
2021-10-05 03:48:44 GMT 48.607285 2.182954 11,825 63 390 -3072
2021-10-05 03:48:41 GMT 48.605705 2.178256 11,900 63 391 -3072
2021-10-05 03:48:38 GMT 48.602444 2.168571 12,100 62 391 -3200
2021-10-05 03:48:35 GMT 48.599533 2.160081 12,300 62 390 -3392
2021-10-05 03:48:32 GMT 48.597046 2.152814 12,450 62 390 -3520
2021-10-05 03:48:28 GMT 48.594482 2.145370 12,650 62 390 -3584
2021-10-05 03:48:24 GMT 48.588711 2.128746 12,950 62 389 -3584
2021-10-05 03:48:21 GMT 48.588711 2.128746 13,050 62 389 -3520
2021-10-05 03:48:17 GMT 48.584564 2.116840 13,425 62 389 -3200
2021-10-05 03:48:14 GMT 48.582428 2.110676 13,550 62 390 -3072
2021-10-05 03:48:11 GMT 48.580334 2.104677 13,600 62 390 -3008
2021-10-05 03:48:07 GMT 48.577194 2.095501 13,825 62 391 -2752
2021-10-05 03:48:04 GMT 48.574047 2.086246 14,000 62 392 -2752
2021-10-05 03:48:01 GMT 48.571930 2.080149 14,075 62 393 -2752
2021-10-05 03:47:58 GMT 48.569439 2.072802 14,200 62 393 -2752
2021-10-05 03:47:54 GMT 48.566208 2.063317 14,950 62 399 -3008
2021-10-05 03:47:51 GMT 48.563599 2.055781 14,725 62 397 -2880
2021-10-05 03:47:48 GMT 48.560593 2.047143 14,700 62 397 -2880
2021-10-05 03:47:44 GMT 48.557522 2.038325 14,875 62 398 -3008
2021-10-05 03:47:41 GMT 48.554821 2.030664 15,025 61 399 -2944
2021-10-05 03:47:40 GMT 48.554077 2.028495 15,075 61 399 -2880
2021-10-05 03:47:38 GMT 48.551468 2.021132 15,200 61 400 -2816
2021-10-05 03:47:35 GMT 48.549774 2.016414 15,300 61 400 -3072
2021-10-05 03:47:33 GMT 48.548492 2.012739 15,350 61 400 -3520
2021-10-05 03:47:30 GMT 48.545418 2.004138 15,600 61 402 -3776
2021-10-05 03:47:28 GMT 48.543777 1.999441 15,800 62 403 -3840
2021-10-05 03:47:25 GMT 48.541351 1.992540 15,900 62 403 -3840
2021-10-05 03:47:23 GMT 48.539612 1.987539 16,025 62 403 -3840
2021-10-05 03:47:20 GMT 48.536819 1.979581 16,325 62 404 -4032
2021-10-05 03:47:17 GMT 48.534199 1.972118 16,425 62 404 -4288
2021-10-05 03:47:16 GMT 48.533340 1.969651 16,500 62 404 -4288
2021-10-05 03:47:15 GMT 48.532478 1.967131 16,550 62 404 -4288
2021-10-05 03:47:13 GMT 48.530754 1.962144 16,700 62 404 -4480
2021-10-05 03:47:11 GMT 48.529125 1.957373 16,850 62 404 -4480
2021-10-05 03:47:10 GMT 48.528214 1.954792 16,925 62 403 -4544
2021-10-05 03:47:09 GMT 48.525585 1.947110 17,175 62 403 -4736
2021-10-05 03:47:07 GMT 48.525585 1.947110 17,175 62 403 -4800
2021-10-05 03:47:04 GMT 48.522888 1.939159 17,450 62 400 -5184
2021-10-05 03:47:01 GMT 48.520111 1.930918 17,950 62 398 -5312
2021-10-05 03:46:58 GMT 48.518097 1.925002 17,950 62 398 -5312
2021-10-05 03:46:57 GMT 48.517208 1.922318 18,050 62 396 -5312
2021-10-05 03:46:56 GMT 48.516357 1.919861 18,125 62 395 -5248
2021-10-05 03:46:53 GMT 48.513855 1.912488 18,375 62 394 -4928
2021-10-05 03:46:52 GMT 48.513062 1.910213 18,450 62 394 -4608
2021-10-05 03:46:51 GMT 48.512180 1.907573 18,525 62 394 -4544
2021-10-05 03:46:50 GMT 48.511322 1.905142 18,600 62 394 -4160
2021-10-05 03:46:48 GMT 48.509480 1.899767 18,725 62 394 -3840
2021-10-05 03:46:47 GMT 48.508667 1.897395 18,825 62 394 -3520
2021-10-05 03:46:46 GMT 48.507805 1.894925 18,875 62 394 -3456
2021-10-05 03:46:45 GMT 48.506828 1.892034 18,925 62 394 -3264
2021-10-05 03:46:43 GMT 48.505478 1.888131 19,000 62 395 -3136
2021-10-05 03:46:42 GMT 48.504639 1.885634 19,075 62 395 -3072
2021-10-05 03:46:41 GMT 48.503799 1.883216 19,125 62 396 -3072
2021-10-05 03:46:39 GMT 48.501751 1.877361 19,225 62 397 -3008
2021-10-05 03:46:36 GMT 48.500122 1.872591 19,350 62 397 -3008
2021-10-05 03:46:35 GMT 48.498356 1.867531 19,425 62 397 -2944
2021-10-05 03:46:34 GMT 48.498356 1.867531 19,450 62 398 -2944
2021-10-05 03:46:33 GMT 48.497543 1.865070 19,575 62 400 -2688
2021-10-05 03:46:31 GMT 48.495327 1.858713 19,625 62 400 -2688
2021-10-05 03:46:29 GMT 48.492783 1.851267 19,750 62 402 -2560
2021-10-05 03:46:26 GMT 48.490723 1.845281 19,825 62 404 -2496
2021-10-05 03:46:25 GMT 48.489883 1.842740 19,875 62 404 -2496
2021-10-05 03:46:23 GMT 48.488159 1.837680 19,950 62 405 -2624
2021-10-05 03:46:21 GMT 48.486485 1.832765 20,050 63 406 -2624
2021-10-05 03:46:20 GMT 48.485641 1.830350 20,125 63 406 -2624
2021-10-05 03:46:19 GMT 48.484909 1.828097 20,150 63 408 -2624
2021-10-05 03:46:17 GMT 48.483086 1.822719 20,225 63 409 -2624
2021-10-05 03:46:16 GMT 48.482388 1.820622 20,275 63 410 -2688
2021-10-05 03:46:15 GMT 48.481567 1.818167 20,325 63 410 -2688
2021-10-05 03:46:14 GMT 48.480663 1.815563 20,350 62 411 -2752
2021-10-05 03:46:12 GMT 48.478943 1.810504 20,425 62 411 -2816
2021-10-05 03:46:09 GMT 48.476475 1.803203 20,575 62 413 -2944
2021-10-05 03:46:07 GMT 48.474751 1.798216 20,675 62 414 -3072
2021-10-05 03:46:06 GMT 48.473877 1.795631 20,725 62 414 -3072
2021-10-05 03:46:05 GMT 48.473145 1.793448 20,875 62 415 -3136
2021-10-05 03:46:03 GMT 48.471405 1.788307 20,875 62 416 -3136
2021-10-05 03:46:02 GMT 48.470516 1.785712 20,925 62 416 -3136
2021-10-05 03:46:01 GMT 48.469120 1.781592 21,100 62 417 -3072
2021-10-05 03:45:59 GMT 48.467194 1.775912 21,125 63 418 -3072
2021-10-05 03:45:57 GMT 48.465302 1.770461 21,225 63 419 -3072
2021-10-05 03:45:56 GMT 48.464355 1.767602 21,275 63 419 -3072
2021-10-05 03:45:55 GMT 48.462418 1.761860 21,375 63 420 -3072
2021-10-05 03:45:53 GMT 48.462418 1.761860 21,450 63 421 -3072
2021-10-05 03:45:52 GMT 48.461437 1.758969 21,475 63 421 -3008
2021-10-05 03:45:48 GMT 48.458405 1.749854 21,625 63 422 -2944
2021-10-05 03:45:47 GMT 48.457153 1.746176 21,750 63 423 -2944
2021-10-05 03:45:45 GMT 48.451767 1.729783 21,825 63 423 -2944
2021-10-05 03:45:42 GMT 48.451767 1.729783 22,075 64 428 -2880
2021-10-05 03:45:39 GMT 48.449940 1.724058 22,075 63 428 -2880
2021-10-05 03:45:37 GMT 48.448334 1.719079 22,175 64 429 -2944
2021-10-05 03:45:35 GMT 48.446594 1.713797 22,275 64 430 -3008
2021-10-05 03:45:33 GMT 48.444901 1.708515 22,375 64 431 -2944
2021-10-05 03:45:31 GMT 48.443069 1.702951 22,475 64 432 -2880
2021-10-05 03:45:30 GMT 48.442261 1.700423 22,525 64 432 -2880
2021-10-05 03:45:29 GMT 48.440536 1.695075 22,625 64 433 -2880
2021-10-05 03:45:26 GMT 48.438858 1.689923 22,675 64 434 -2880
2021-10-05 03:45:25 GMT 48.437649 1.686112 22,775 64 435 -2944
2021-10-05 03:45:24 GMT 48.436752 1.683373 22,825 64 435 -2944
2021-10-05 03:45:23 GMT 48.435883 1.680619 22,875 64 436 -3008
2021-10-05 03:45:22 GMT 48.435013 1.677880 22,925 64 436 -3072
2021-10-05 03:45:20 GMT 48.433132 1.672090 23,025 64 437 -3072
2021-10-05 03:45:18 GMT 48.431534 1.666964 23,125 64 438 -3072
2021-10-05 03:45:16 GMT 48.429886 1.661753 23,200 64 438 -3072
2021-10-05 03:45:15 GMT 48.428898 1.658719 23,275 64 439 -3200
2021-10-05 03:45:14 GMT 48.427921 1.655611 23,350 64 440 -3200
2021-10-05 03:45:13 GMT 48.427128 1.653153 23,400 64 440 -3200
2021-10-05 03:45:11 GMT 48.425732 1.648744 23,475 64 441 -3008
2021-10-05 03:45:10 GMT 48.423111 1.640414 23,575 64 444 -2368
2021-10-05 03:45:08 GMT 48.423111 1.640414 23,675 64 444 -2368
2021-10-05 03:45:06 GMT 48.421005 1.633723 23,700 64 445 -2368
2021-10-05 03:45:04 GMT 48.419678 1.629568 23,750 64 445 -2368
2021-10-05 03:45:03 GMT 48.418854 1.627033 23,775 64 446 -2368
2021-10-05 03:45:02 GMT 48.417801 1.623723 23,875 64 446 -2368
2021-10-05 03:45:00 GMT 48.414467 1.613039 23,975 64 448 -2432
2021-10-05 03:44:57 GMT 48.413223 1.609075 24,050 64 449 -2624
2021-10-05 03:44:56 GMT 48.412125 1.605694 24,075 64 449 -2752
2021-10-05 03:44:55 GMT 48.411346 1.603137 24,125 64 450 -2752
2021-10-05 03:44:54 GMT 48.409206 1.596415 24,250 64 450 -2688
2021-10-05 03:44:52 GMT 48.408325 1.593581 24,275 64 451 -2624
2021-10-05 03:44:51 GMT 48.407501 1.590975 24,325 64 451 -2560
2021-10-05 03:44:50 GMT 48.406971 1.589331 24,350 64 452 -2496
2021-10-05 03:44:49 GMT 48.405949 1.586079 24,400 64 452 -2432
2021-10-05 03:44:47 GMT 48.403976 1.579848 24,475 64 453 -2432
2021-10-05 03:44:46 GMT 48.403156 1.577116 24,525 64 453 -2432
2021-10-05 03:44:45 GMT 48.402317 1.574514 24,550 64 454 -2432
2021-10-05 03:44:43 GMT 48.400547 1.568804 24,625 64 455 -2432
2021-10-05 03:44:41 GMT 48.399197 1.564540 24,700 64 455 -2432
2021-10-05 03:44:39 GMT 48.396835 1.557030 24,800 64 456 -2432
2021-10-05 03:44:37 GMT 48.395279 1.552241 24,975 64 458 -2752
2021-10-05 03:44:35 GMT 48.393127 1.545340 24,975 64 458 -2752
2021-10-05 03:44:33 GMT 48.391842 1.541266 25,050 64 458 -2816
2021-10-05 03:44:32 GMT 48.390400 1.536713 25,125 64 458 -3072
2021-10-05 03:44:30 GMT 48.388584 1.530930 25,225 64 458 -3264
2021-10-05 03:44:28 GMT 48.387680 1.528015 25,275 64 459 -3328
2021-10-05 03:44:27 GMT 48.386768 1.525148 25,475 64 459 -3328
2021-10-05 03:44:25 GMT 48.384579 1.518209 25,475 64 459 -3264
2021-10-05 03:44:24 GMT 48.383602 1.515101 25,525 64 459 -3328
2021-10-05 03:44:21 GMT 48.381321 1.507874 25,700 64 459 -3392
2021-10-05 03:44:20 GMT 48.380768 1.506113 25,700 64 459 -3456
2021-10-05 03:44:19 GMT 48.379440 1.501817 25,800 64 459 -3456
2021-10-05 03:44:18 GMT 48.378983 1.500338 25,825 64 459 -3456
2021-10-05 03:44:17 GMT 48.377518 1.495760 25,900 64 459 -3520
2021-10-05 03:44:16 GMT 48.375000 1.487662 26,050 64 459 -3520
2021-10-05 03:44:14 GMT 48.375000 1.487662 26,300 64 458 -3648
2021-10-05 03:44:11 GMT 48.371796 1.477450 26,300 64 458 -3648
2021-10-05 03:44:09 GMT 48.370010 1.471816 26,425 64 458 -3648
2021-10-05 03:44:07 GMT 48.367401 1.463506 26,550 64 458 -3648
2021-10-05 03:44:05 GMT 48.366470 1.460603 26,650 64 458 -3584
2021-10-05 03:44:03 GMT 48.365204 1.456604 26,750 64 457 -3520
2021-10-05 03:44:01 GMT 48.363052 1.449702 26,875 64 457 -3392
2021-10-05 03:44:00 GMT 48.360626 1.441956 27,075 64 457 -3392
2021-10-05 03:43:58 GMT 48.360626 1.441956 27,075 64 458 -3328
2021-10-05 03:43:56 GMT 48.358749 1.435899 27,125 64 458 -3200
2021-10-05 03:43:55 GMT 48.357861 1.432993 27,200 64 458 -3200
2021-10-05 03:43:52 GMT 48.355019 1.424031 27,350 64 458 -3072
2021-10-05 03:43:51 GMT 48.354229 1.421501 27,375 64 459 -3072
2021-10-05 03:43:48 GMT 48.351105 1.411743 27,550 63 460 -3072
2021-10-05 03:43:46 GMT 48.349274 1.405968 27,675 63 460 -3072
2021-10-05 03:43:45 GMT 48.348316 1.403142 27,725 63 460 -3008
2021-10-05 03:43:43 GMT 48.346455 1.397432 27,825 63 461 -2816
2021-10-05 03:43:41 GMT 48.344593 1.391650 27,900 63 462 -2496
2021-10-05 03:43:39 GMT 48.342682 1.385940 28,000 63 463 -2432
2021-10-05 03:43:37 GMT 48.340988 1.380897 28,075 62 464 -2304
2021-10-05 03:43:35 GMT 48.335724 1.365896 28,175 61 465 -2176
2021-10-05 03:43:32 GMT 48.335724 1.365896 28,250 59 466 -2304
2021-10-05 03:43:30 GMT 48.333984 1.361389 28,450 58 467 -2432
2021-10-05 03:43:27 GMT 48.330162 1.352258 28,450 55 468 -3008
2021-10-05 03:43:26 GMT 48.328812 1.349417 28,500 54 468 -3200
2021-10-05 03:43:23 GMT 48.322338 1.336429 29,025 52 469 -3392
2021-10-05 03:43:21 GMT 48.322338 1.336429 29,025 49 468 -3520
2021-10-05 03:43:17 GMT 48.313683 1.321901 29,350 44 466 -3712
2021-10-05 03:43:15 GMT 48.313683 1.321901 29,350 44 466 -3712
2021-10-05 03:43:12 GMT 48.308746 1.314673 29,350 43 466 -3712
2021-10-05 03:43:10 GMT 48.305580 1.310336 29,475 39 464 -3712
2021-10-05 03:43:08 GMT 48.302368 1.306289 29,600 39 463 -3584
2021-10-05 03:43:07 GMT 48.298923 1.302169 29,700 37 463 -3520
2021-10-05 03:43:05 GMT 48.297272 1.300260 29,775 35 461 -3392
2021-10-05 03:43:02 GMT 48.288498 1.291038 30,050 32 460 -3456
2021-10-05 03:43:00 GMT 48.288498 1.291038 30,050 32 460 -3456
2021-10-05 03:42:58 GMT 48.284912 1.287641 30,175 30 459 -3328
2021-10-05 03:42:55 GMT 48.279373 1.282865 30,500 28 459 -3264
2021-10-05 03:42:52 GMT 48.273376 1.278076 30,500 27 459 -3264
2021-10-05 03:42:51 GMT 48.271866 1.276949 30,550 26 459 -3200
2021-10-05 03:42:50 GMT 48.270107 1.275643 30,600 26 459 -3136
2021-10-05 03:42:48 GMT 48.266556 1.272935 30,650 26 460 -3136
2021-10-05 03:42:46 GMT 48.263126 1.270366 30,800 26 460 -3136
2021-10-05 03:42:45 GMT 48.259735 1.267794 30,975 26 460 -3136
2021-10-05 03:42:42 GMT 48.255157 1.264343 31,275 26 460 -3136
2021-10-05 03:42:39 GMT 48.245670 1.257212 31,275 26 461 -3072
2021-10-05 03:42:36 GMT 48.243759 1.255751 31,325 26 461 -3072
2021-10-05 03:42:35 GMT 48.240692 1.253498 31,400 26 461 -3200
2021-10-05 03:42:33 GMT 48.236893 1.250610 31,500 26 462 -3200
2021-10-05 03:42:32 GMT 48.235706 1.249767 31,525 26 462 -3200
2021-10-05 03:42:31 GMT 48.233047 1.247723 31,600 26 463 -3200
2021-10-05 03:42:29 GMT 48.229607 1.245141 31,725 26 463 -3136
2021-10-05 03:42:26 GMT 48.224998 1.241744 31,850 26 464 -2944
2021-10-05 03:42:24 GMT 48.221695 1.239201 31,925 26 465 -2944
2021-10-05 03:42:23 GMT 48.215130 1.234300 32,100 26 465 -3008
2021-10-05 03:42:21 GMT 48.211311 1.231408 32,175 26 465 -3328
2021-10-05 03:42:19 GMT 48.211311 1.231408 32,200 26 465 -3392
2021-10-05 03:42:17 GMT 48.207779 1.228708 32,300 26 465 -3776
2021-10-05 03:42:14 GMT 48.203110 1.225257 32,475 26 465 -3968
2021-10-05 03:42:13 GMT 48.200134 1.223004 32,700 26 464 -4096
2021-10-05 03:42:11 GMT 48.196976 1.220680 32,700 26 464 -4224
2021-10-05 03:42:10 GMT 48.194824 1.219060 32,825 26 463 -4480
2021-10-05 03:42:09 GMT 48.192738 1.217531 32,875 26 463 -4480
2021-10-05 03:42:08 GMT 48.189014 1.214712 33,000 26 462 -4800
2021-10-05 03:42:06 GMT 48.186996 1.213215 33,175 26 461 -4928
2021-10-05 03:42:05 GMT 48.185440 1.212088 33,175 26 461 -4992
2021-10-05 03:42:04 GMT 48.183567 1.210664 33,300 26 460 -5120
2021-10-05 03:42:02 GMT 48.179352 1.207510 33,500 26 459 -5120
2021-10-05 03:42:00 GMT 48.175735 1.204834 33,650 26 457 -5056
2021-10-05 03:41:58 GMT 48.172211 1.202208 33,800 26 456 -4992
2021-10-05 03:41:57 GMT 48.170288 1.200749 33,900 26 455 -4992
2021-10-05 03:41:56 GMT 48.168392 1.199389 33,925 26 455 -5056
2021-10-05 03:41:55 GMT 48.166489 1.198003 34,000 26 454 -5120
2021-10-05 03:41:54 GMT 48.162434 1.194908 34,125 26 453 -4928
2021-10-05 03:41:51 GMT 48.159363 1.192650 34,300 26 452 -4800
2021-10-05 03:41:50 GMT 48.156738 1.190712 34,425 26 452 -4544
2021-10-05 03:41:48 GMT 48.152798 1.187791 34,525 26 451 -4416
2021-10-05 03:41:46 GMT 48.149323 1.185150 34,700 26 451 -4160
2021-10-05 03:41:45 GMT 48.147396 1.183777 34,775 26 450 -4032
2021-10-05 03:41:44 GMT 48.145569 1.182404 34,850 26 450 -3904
2021-10-05 03:41:42 GMT 48.141815 1.179588 34,925 26 450 -3648
2021-10-05 03:41:41 GMT 48.139950 1.178213 35,025 26 450 -3520
2021-10-05 03:41:40 GMT 48.138107 1.176842 35,100 26 450 -3456
2021-10-05 03:41:39 GMT 48.136364 1.175537 35,125 26 450 -3264
2021-10-05 03:41:38 GMT 48.132156 1.172379 35,225 26 450 -3136
2021-10-05 03:41:36 GMT 48.130451 1.171171 35,275 26 451 -3072
2021-10-05 03:41:35 GMT 48.128403 1.169632 35,375 26 451 -2944
2021-10-05 03:41:34 GMT 48.126682 1.168283 35,425 26 451 -2752
2021-10-05 03:41:33 GMT 48.124649 1.166817 35,450 26 452 -2688
2021-10-05 03:41:31 GMT 48.120895 1.164001 35,500 26 452 -2432
2021-10-05 03:41:30 GMT 48.119385 1.162903 35,550 26 453 -2240
2021-10-05 03:41:29 GMT 48.117512 1.161452 35,675 26 453 -2304
2021-10-05 03:41:27 GMT 48.112995 1.158142 35,675 26 455 -2304
2021-10-05 03:41:25 GMT 48.110016 1.155888 35,775 26 455 -2240
2021-10-05 03:41:24 GMT 48.107391 1.153908 35,800 26 456 -2112
2021-10-05 03:41:23 GMT 48.104370 1.151642 35,825 26 456 -1984
2021-10-05 03:41:21 GMT 48.101730 1.149691 35,900 26 457 -1856
2021-10-05 03:41:19 GMT 48.097733 1.146698 35,975 26 458 -1728
2021-10-05 03:41:17 GMT 48.094528 1.144295 36,000 26 459 -1536
2021-10-05 03:41:16 GMT 48.092651 1.142860 36,025 26 459 -1408
2021-10-05 03:41:15 GMT 48.090729 1.141479 36,075 26 460 -1344
2021-10-05 03:41:14 GMT 48.088833 1.140043 36,075 26 460 -1216
2021-10-05 03:41:12 GMT 48.085018 1.137155 36,125 26 461 -1024
2021-10-05 03:41:10 GMT 48.081200 1.134338 36,150 26 461 -1024
2021-10-05 03:41:09 GMT 48.077381 1.131521 36,175 26 462 -960
2021-10-05 03:41:07 GMT 48.075485 1.130081 36,200 26 462 -960
2021-10-05 03:41:05 GMT 48.071777 1.127335 36,225 26 462 -960
2021-10-05 03:41:04 GMT 48.065552 1.122734 36,250 26 462 -960
2021-10-05 03:41:02 GMT 48.065552 1.122734 36,250 26 462 -960
2021-10-05 03:41:01 GMT 48.063602 1.121310 36,275 26 462 -960
2021-10-05 03:41:00 GMT 48.061707 1.119850 36,300 26 462 -960
2021-10-05 03:40:58 GMT 48.058640 1.117584 36,325 26 462 -960
2021-10-05 03:40:57 GMT 48.056351 1.115868 36,350 26 462 -960
2021-10-05 03:40:56 GMT 48.054432 1.114478 36,350 26 462 -960
2021-10-05 03:40:55 GMT 48.052505 1.113052 36,375 26 462 -960
2021-10-05 03:40:53 GMT 48.048706 1.110168 36,400 26 462 -1024
2021-10-05 03:40:52 GMT 48.046799 1.108774 36,425 26 462 -1024
2021-10-05 03:40:50 GMT 48.043121 1.106098 36,450 26 462 -1024
2021-10-05 03:40:49 GMT 48.041061 1.104538 36,475 26 463 -960
2021-10-05 03:40:48 GMT 48.039116 1.103070 36,500 26 463 -960
2021-10-05 03:40:47 GMT 48.037216 1.101654 36,500 26 463 -960
2021-10-05 03:40:45 GMT 48.032639 1.098289 36,525 26 463 -960
2021-10-05 03:40:44 GMT 48.031670 1.097576 36,575 26 463 -960
2021-10-05 03:40:43 GMT 48.029572 1.096024 36,575 26 463 -960
2021-10-05 03:40:41 GMT 48.025726 1.093140 36,600 26 463 -960
2021-10-05 03:40:40 GMT 48.023800 1.091731 36,625 26 463 -960
2021-10-05 03:40:38 GMT 48.019592 1.088608 36,650 26 463 -960
2021-10-05 03:40:37 GMT 48.017796 1.087294 36,675 26 463 -960
2021-10-05 03:40:36 GMT 48.015747 1.085793 36,700 26 463 -960
2021-10-05 03:40:35 GMT 48.013840 1.084407 36,700 26 463 -960
2021-10-05 03:40:34 GMT 48.010391 1.081810 36,725 26 464 -960
2021-10-05 03:40:32 GMT 48.008438 1.080393 36,750 26 464 -960
2021-10-05 03:40:31 GMT 48.006546 1.078995 36,775 26 464 -960
2021-10-05 03:40:30 GMT 48.004620 1.077576 36,800 26 464 -960
2021-10-05 03:40:28 GMT 48.000366 1.074463 36,800 26 464 -960
2021-10-05 03:40:27 GMT 47.998474 1.073068 36,825 26 464 -960
2021-10-05 03:40:25 GMT 47.995403 1.070744 36,850 26 464 -960
2021-10-05 03:40:24 GMT 47.992722 1.068764 36,875 26 464 -960
2021-10-05 03:40:22 GMT 47.988968 1.066017 36,900 26 464 -960
2021-10-05 03:40:21 GMT 47.986977 1.064547 36,925 26 463 -960
2021-10-05 03:40:19 GMT 47.982834 1.061485 36,950 26 463 -1024
2021-10-05 03:40:18 GMT 47.981186 1.060249 36,950 26 463 -1024
2021-10-05 03:40:17 GMT 47.979298 1.058843 37,000 26 463 -1024
2021-10-05 03:40:14 GMT 47.973541 1.054550 37,025 26 464 -1024
2021-10-05 03:40:13 GMT 47.971390 1.052971 37,050 26 464 -1024
2021-10-05 03:40:11 GMT 47.967407 1.050018 37,100 26 464 -1024
2021-10-05 03:40:09 GMT 47.963562 1.047134 37,125 26 464 -1024
2021-10-05 03:40:08 GMT 47.961655 1.045673 37,150 26 464 -960
2021-10-05 03:40:07 GMT 47.959854 1.044388 37,150 26 464 -960
2021-10-05 03:40:05 GMT 47.954407 1.040199 37,175 27 464 -960
2021-10-05 03:40:04 GMT 47.954407 1.040199 37,225 28 464 -960
2021-10-05 03:40:03 GMT 47.952484 1.038701 37,225 28 464 -896
2021-10-05 03:40:02 GMT 47.948711 1.035673 37,250 29 464 -960
2021-10-05 03:39:59 GMT 47.944988 1.032504 37,275 30 465 -960
2021-10-05 03:39:58 GMT 47.941261 1.029264 37,300 31 465 -960
2021-10-05 03:39:54 GMT 47.936890 1.025250 37,350 32 465 -960
2021-10-05 03:39:53 GMT 47.934357 1.022827 37,375 32 465 -960
2021-10-05 03:39:52 GMT 47.931812 1.020390 37,425 33 466 -960
2021-10-05 03:39:50 GMT 47.928974 1.017503 37,425 33 466 -960
2021-10-05 03:39:49 GMT 47.926483 1.014931 37,475 35 467 -960
2021-10-05 03:39:47 GMT 47.922958 1.011223 37,475 36 467 -960
2021-10-05 03:39:46 GMT 47.921200 1.009334 37,475 36 467 -960
2021-10-05 03:39:45 GMT 47.919479 1.007446 37,500 36 467 -960
2021-10-05 03:39:43 GMT 47.915707 1.003136 37,525 37 468 -960
2021-10-05 03:39:41 GMT 47.909657 0.995882 37,575 39 468 -960
2021-10-05 03:39:39 GMT 47.909657 0.995882 37,600 39 468 -960
2021-10-05 03:39:37 GMT 47.905975 0.991310 37,625 40 469 -960
2021-10-05 03:39:35 GMT 47.902725 0.987053 37,650 41 468 -960
2021-10-05 03:39:34 GMT 47.901787 0.985741 37,700 42 469 -960
2021-10-05 03:39:32 GMT 47.897968 0.980530 37,700 43 469 -960
2021-10-05 03:39:31 GMT 47.896362 0.978264 37,725 44 470 -896
2021-10-05 03:39:29 GMT 47.890182 0.969063 37,750 46 471 -896
2021-10-05 03:39:27 GMT 47.890182 0.969063 37,775 46 471 -832
2021-10-05 03:39:26 GMT 47.888706 0.966726 37,800 47 471 -896
2021-10-05 03:39:25 GMT 47.887253 0.964394 37,800 47 472 -896
2021-10-05 03:39:22 GMT 47.882675 0.956703 37,850 50 472 -960
2021-10-05 03:39:20 GMT 47.879791 0.951553 37,875 51 472 -960
2021-10-05 03:39:18 GMT 47.877907 0.947993 37,925 51 473 -960
2021-10-05 03:39:16 GMT 47.874893 0.942421 37,950 51 472 -960
2021-10-05 03:39:14 GMT 47.872238 0.937408 38,000 51 472 -896
2021-10-05 03:39:12 GMT 47.869850 0.932852 38,000 51 472 -960
2021-10-05 03:39:11 GMT 47.866501 0.926584 38,025 51 472 -960
2021-10-05 03:39:10 GMT 47.866501 0.926584 38,025 51 472 -960
2021-10-05 03:39:08 GMT 47.861343 0.916946 38,100 51 471 -960
2021-10-05 03:39:06 GMT 47.861343 0.916946 38,100 51 471 -960
2021-10-05 03:39:04 GMT 47.858643 0.911865 38,125 51 471 -960
2021-10-05 03:39:03 GMT 47.857285 0.909330 38,150 51 471 -960
2021-10-05 03:39:02 GMT 47.855392 0.905754 38,150 51 471 -960
2021-10-05 03:39:00 GMT 47.851181 0.897858 38,200 51 471 -896
2021-10-05 03:38:58 GMT 47.850254 0.896090 38,225 51 471 -896
2021-10-05 03:38:57 GMT 47.848480 0.892776 38,250 51 471 -896
2021-10-05 03:38:55 GMT 47.845924 0.887991 38,250 51 471 -960
2021-10-05 03:38:54 GMT 47.844543 0.885429 38,275 51 471 -960
2021-10-05 03:38:52 GMT 47.841686 0.880033 38,325 51 471 -1024
2021-10-05 03:38:50 GMT 47.836754 0.870807 38,375 51 471 -1024
2021-10-05 03:38:48 GMT 47.836754 0.870807 38,375 51 471 -960
2021-10-05 03:38:46 GMT 47.834007 0.865596 38,425 51 471 -960
2021-10-05 03:38:44 GMT 47.831039 0.860023 38,425 51 471 -960
2021-10-05 03:38:43 GMT 47.829678 0.857497 38,450 51 471 -960
2021-10-05 03:38:42 GMT 47.828339 0.854942 38,500 51 471 -960
2021-10-05 03:38:40 GMT 47.823441 0.845879 38,525 51 472 -1088
2021-10-05 03:38:37 GMT 47.821529 0.842285 38,550 51 472 -1088
2021-10-05 03:38:36 GMT 47.820145 0.839767 38,575 51 472 -1088
2021-10-05 03:38:35 GMT 47.817444 0.834755 38,625 50 472 -1024
2021-10-05 03:38:32 GMT 47.814922 0.830242 38,650 50 472 -960
2021-10-05 03:38:31 GMT 47.813290 0.827285 38,675 49 471 -960
2021-10-05 03:38:29 GMT 47.811447 0.823975 38,700 49 471 -960
2021-10-05 03:38:27 GMT 47.807877 0.817932 38,700 48 471 -960
2021-10-05 03:38:26 GMT 47.807877 0.817932 38,725 48 471 -960
2021-10-05 03:38:25 GMT 47.805843 0.814538 38,750 46 470 -896
2021-10-05 03:38:23 GMT 47.802399 0.809044 38,800 45 470 -896
2021-10-05 03:38:20 GMT 47.799328 0.804396 38,800 44 470 -896
2021-10-05 03:38:19 GMT 47.797806 0.802208 38,825 44 469 -960
2021-10-05 03:38:18 GMT 47.795509 0.798903 38,850 43 469 -960
2021-10-05 03:38:17 GMT 47.793961 0.796715 38,850 41 467 -896
2021-10-05 03:38:15 GMT 47.789875 0.791227 38,900 41 467 -896
2021-10-05 03:38:14 GMT 47.788147 0.789024 38,925 39 466 -896
2021-10-05 03:38:13 GMT 47.785828 0.786156 38,950 39 466 -896
2021-10-05 03:38:11 GMT 47.783478 0.783325 38,950 37 465 -896
2021-10-05 03:38:10 GMT 47.779865 0.779114 38,975 36 464 -832
2021-10-05 03:38:07 GMT 47.775284 0.774055 39,000 36 464 -832
2021-10-05 03:38:06 GMT 47.774235 0.772987 39,025 34 462 -896
2021-10-05 03:38:04 GMT 47.770695 0.769325 39,075 33 462 -960
2021-10-05 03:38:02 GMT 47.766506 0.765240 39,075 32 462 -960
2021-10-05 03:37:59 GMT 47.762131 0.761226 39,125 31 459 -960
2021-10-05 03:37:57 GMT 47.760406 0.759636 39,125 31 459 -960
2021-10-05 03:37:55 GMT 47.754913 0.754747 39,200 30 459 -960
2021-10-05 03:37:52 GMT 47.749748 0.750099 39,250 31 459 -960
2021-10-05 03:37:50 GMT 47.745712 0.746521 39,275 31 458 -960
2021-10-05 03:37:49 GMT 47.744293 0.745216 39,275 31 458 -960
2021-10-05 03:37:47 GMT 47.740631 0.741989 39,325 30 458 -960
2021-10-05 03:37:45 GMT 47.737015 0.738762 39,350 30 458 -960
2021-10-05 03:37:44 GMT 47.735222 0.737211 39,350 30 458 -1024
2021-10-05 03:37:43 GMT 47.733780 0.735873 39,375 30 458 -1024
2021-10-05 03:37:41 GMT 47.728317 0.731003 39,425 30 458 -1024
2021-10-05 03:37:38 GMT 47.724285 0.727422 39,450 31 458 -960
2021-10-05 03:37:36 GMT 47.718559 0.722351 39,500 31 458 -960
2021-10-05 03:37:34 GMT 47.716782 0.720703 39,525 31 458 -896
2021-10-05 03:37:33 GMT 47.714882 0.719041 39,550 31 458 -896
2021-10-05 03:37:32 GMT 47.713390 0.717703 39,550 31 459 -896
2021-10-05 03:37:31 GMT 47.709759 0.714463 39,575 31 459 -960
2021-10-05 03:37:29 GMT 47.707569 0.712562 39,600 31 459 -960
2021-10-05 03:37:28 GMT 47.706482 0.711571 39,625 31 459 -960
2021-10-05 03:37:27 GMT 47.704124 0.709463 39,625 31 459 -960
2021-10-05 03:37:26 GMT 47.700668 0.706352 39,650 31 459 -896
2021-10-05 03:37:24 GMT 47.698818 0.704745 39,675 31 459 -896
2021-10-05 03:37:23 GMT 47.696632 0.702773 39,700 30 460 -896
2021-10-05 03:37:21 GMT 47.693001 0.699533 39,750 30 460 -960
2021-10-05 03:37:18 GMT 47.687321 0.694463 39,800 31 461 -960
2021-10-05 03:37:15 GMT 47.682156 0.689885 39,800 31 461 -960
2021-10-05 03:37:12 GMT 47.676891 0.685237 39,850 31 461 -960
2021-10-05 03:37:09 GMT 47.669220 0.678337 39,925 31 462 -960
2021-10-05 03:37:06 GMT 47.666290 0.675728 40,000 30 461 -320
2021-10-05 03:37:03 GMT 47.660477 0.670578 40,000 30 461 -512
2021-10-05 03:37:00 GMT 47.654755 0.665497 40,000 30 461 0
2021-10-05 03:36:57 GMT 47.649490 0.660828 40,000 30 461 0
2021-10-05 03:36:55 GMT 47.645828 0.657600 40,000 31 462 0
2021-10-05 03:36:52 GMT 47.640350 0.652701 40,000 31 462 0
2021-10-05 03:36:49 GMT 47.635975 0.648827 40,000 30 461 64
2021-10-05 03:36:45 GMT 47.627174 0.641010 40,000 31 462 -64
2021-10-05 03:36:42 GMT 47.617310 0.632263 40,000 31 462 -64
2021-10-05 03:36:39 GMT 47.617310 0.632263 40,000 31 461 0
2021-10-05 03:36:35 GMT 47.610031 0.625740 40,000 30 461 0
2021-10-05 03:36:33 GMT 47.604904 0.621208 40,000 30 461 0
2021-10-05 03:36:30 GMT 47.595009 0.612417 40,000 30 461 64
2021-10-05 03:36:27 GMT 47.595009 0.612417 40,000 30 461 64
2021-10-05 03:36:23 GMT 47.586639 0.605003 40,000 30 461 0
2021-10-05 03:36:20 GMT 47.580437 0.599459 40,000 31 462 0
2021-10-05 03:36:17 GMT 47.576759 0.596220 40,000 31 462 0
2021-10-05 03:36:13 GMT 47.563980 0.584885 40,000 31 462 -64
2021-10-05 03:36:10 GMT 47.563980 0.584885 40,000 30 461 64
2021-10-05 03:36:07 GMT 47.558464 0.580022 40,000 31 462 0
2021-10-05 03:36:02 GMT 47.549332 0.571907 40,000 31 461 128
2021-10-05 03:35:59 GMT 47.543846 0.567064 40,000 31 461 128
2021-10-05 03:35:56 GMT 47.538345 0.562157 40,000 31 461 128
2021-10-05 03:35:53 GMT 47.531464 0.556007 40,000 31 461 -64
2021-10-05 03:35:50 GMT 47.521919 0.547556 40,000 30 460 -64
2021-10-05 03:35:47 GMT 47.521919 0.547556 40,000 30 459 64
2021-10-05 03:35:42 GMT 47.512424 0.539316 40,000 29 459 -64
2021-10-05 03:35:39 GMT 47.506851 0.534691 40,000 29 458 -64
2021-10-05 03:35:36 GMT 47.502090 0.530724 40,000 28 457 -64
2021-10-05 03:35:31 GMT 47.493530 0.523979 40,000 27 456 -64
2021-10-05 03:35:29 GMT 47.488266 0.519928 40,000 27 454 64
2021-10-05 03:35:26 GMT 47.482361 0.515465 40,000 26 453 64
2021-10-05 03:35:22 GMT 47.469269 0.506075 40,000 25 453 0
2021-10-05 03:35:19 GMT 47.469269 0.506075 40,000 25 451 64
2021-10-05 03:35:16 GMT 47.465500 0.503470 40,000 24 450 64
2021-10-05 03:35:12 GMT 47.456238 0.497343 40,000 23 448 -64
2021-10-05 03:35:09 GMT 47.450684 0.493767 40,000 22 448 -64
2021-10-05 03:35:06 GMT 47.445969 0.490814 40,000 22 446 64
2021-10-05 03:35:02 GMT 47.435661 0.484666 40,000 21 445 64
2021-10-05 03:34:58 GMT 47.429516 0.481145 40,000 20 445 0
2021-10-05 03:34:55 GMT 47.423721 0.477905 40,000 20 444 0
2021-10-05 03:34:52 GMT 47.418110 0.474736 40,000 20 444 0
2021-10-05 03:34:49 GMT 47.411221 0.470863 40,000 20 444 0
2021-10-05 03:34:46 GMT 47.405682 0.467764 40,000 20 444 0
2021-10-05 03:34:42 GMT 47.398407 0.463623 40,000 20 444 0
2021-10-05 03:34:39 GMT 47.393051 0.460602 40,000 20 444 64
2021-10-05 03:34:36 GMT 47.387054 0.457237 40,000 20 444 64
2021-10-05 03:34:32 GMT 47.379612 0.453045 40,000 20 444 -64
2021-10-05 03:34:28 GMT 47.372723 0.449172 40,000 20 444 -64
2021-10-05 03:34:25 GMT 47.358490 0.441238 40,000 20 444 0
2021-10-05 03:34:21 GMT 47.358490 0.441238 40,000 20 444 0
2021-10-05 03:34:18 GMT 47.352749 0.437974 40,000 20 444 -64
2021-10-05 03:34:15 GMT 47.347000 0.434784 40,000 20 444 -64
2021-10-05 03:34:11 GMT 47.339355 0.430458 40,000 20 444 0
2021-10-05 03:34:08 GMT 47.332966 0.426917 40,000 20 444 0
2021-10-05 03:34:05 GMT 47.327866 0.424004 40,000 20 443 64
2021-10-05 03:34:02 GMT 47.320999 0.420158 40,000 20 443 64
2021-10-05 03:33:58 GMT 47.313694 0.416072 40,000 20 443 128
2021-10-05 03:33:55 GMT 47.308731 0.413292 40,000 20 443 0
2021-10-05 03:33:52 GMT 47.302986 0.410086 40,000 20 443 -64
2021-10-05 03:33:49 GMT 47.296234 0.406283 40,000 20 442 -64
2021-10-05 03:33:46 GMT 47.290695 0.403255 40,000 20 442 -64
2021-10-05 03:33:42 GMT 47.283463 0.399147 40,000 20 443 64
2021-10-05 03:33:39 GMT 47.277706 0.395930 40,000 20 443 64
2021-10-05 03:33:36 GMT 47.271332 0.392418 40,000 20 443 0
2021-10-05 03:33:32 GMT 47.264671 0.388677 40,000 20 443 -64
2021-10-05 03:33:29 GMT 47.258194 0.385002 40,000 20 443 0
2021-10-05 03:33:26 GMT 47.252243 0.381706 40,000 20 443 64
2021-10-05 03:33:24 GMT 47.248611 0.379662 40,000 20 444 64
2021-10-05 03:33:21 GMT 47.243637 0.376900 40,000 20 444 64
2021-10-05 03:33:18 GMT 47.235577 0.372408 40,000 20 444 0
2021-10-05 03:33:15 GMT 47.232147 0.370445 40,000 20 442 64
2021-10-05 03:33:11 GMT 47.222729 0.365155 40,000 20 444 64
2021-10-05 03:33:08 GMT 47.219101 0.363167 40,000 20 442 64
2021-10-05 03:33:05 GMT 47.212967 0.359734 40,000 20 442 64
2021-10-05 03:33:01 GMT 47.205132 0.355365 40,000 20 442 64
2021-10-05 03:32:58 GMT 47.199780 0.352408 40,000 20 442 0
2021-10-05 03:32:55 GMT 47.194984 0.349731 40,000 20 442 -64
2021-10-05 03:32:52 GMT 47.187351 0.345436 40,000 20 441 -64
2021-10-05 03:32:48 GMT 47.180695 0.341703 40,000 20 441 -64
2021-10-05 03:32:45 GMT 47.174362 0.338252 40,000 20 441 -64
2021-10-05 03:32:42 GMT 47.168262 0.334801 40,000 20 441 0
2021-10-05 03:32:40 GMT 47.166367 0.333778 40,000 20 441 0
2021-10-05 03:32:37 GMT 47.159500 0.329933 40,000 20 441 0
2021-10-05 03:32:34 GMT 47.149178 0.324167 40,000 20 444 -64
2021-10-05 03:32:31 GMT 47.149178 0.324167 40,000 20 442 0
2021-10-05 03:32:28 GMT 47.142700 0.320595 40,000 20 442 0
2021-10-05 03:32:25 GMT 47.135788 0.316750 40,000 20 443 0
2021-10-05 03:32:22 GMT 47.131165 0.314140 40,000 20 444 -64
2021-10-05 03:32:20 GMT 47.121231 0.308647 40,000 20 443 -64
2021-10-05 03:32:17 GMT 47.121231 0.308647 40,000 20 443 -64
2021-10-05 03:32:12 GMT 47.110817 0.302828 40,000 20 443 -64
2021-10-05 03:32:09 GMT 47.106953 0.300716 40,000 20 443 64
2021-10-05 03:32:06 GMT 47.100494 0.297112 40,000 20 443 64
2021-10-05 03:32:02 GMT 47.092758 0.292854 40,000 20 443 64
2021-10-05 03:32:00 GMT 47.086330 0.289307 40,000 20 443 64
2021-10-05 03:31:55 GMT 47.079350 0.285433 40,000 20 444 64
2021-10-05 03:31:52 GMT 47.073204 0.281982 40,000 20 444 -64
2021-10-05 03:31:49 GMT 47.068596 0.279447 40,000 20 443 0
2021-10-05 03:31:46 GMT 47.062866 0.276237 40,000 20 444 64
2021-10-05 03:31:42 GMT 47.052933 0.270744 40,000 20 444 -64
2021-10-05 03:31:39 GMT 47.048264 0.268135 40,000 20 444 -64
2021-10-05 03:31:35 GMT 47.041782 0.264517 40,000 20 444 -64
2021-10-05 03:31:32 GMT 47.035217 0.260857 40,000 20 444 0
2021-10-05 03:31:29 GMT 47.029446 0.257686 40,000 20 444 0
2021-10-05 03:31:26 GMT 47.024090 0.254728 40,000 20 444 0
2021-10-05 03:31:23 GMT 47.017296 0.250925 40,000 20 444 0
2021-10-05 03:31:19 GMT 47.009949 0.246849 40,000 20 444 -64
2021-10-05 03:31:16 GMT 47.004166 0.243671 40,000 20 444 -64
2021-10-05 03:31:12 GMT 46.996391 0.239375 40,000 20 444 0
2021-10-05 03:31:09 GMT 46.991783 0.236840 40,000 20 444 64
2021-10-05 03:31:06 GMT 46.985321 0.233185 40,000 20 444 64
2021-10-05 03:31:01 GMT 46.973785 0.226868 40,000 20 443 64
2021-10-05 03:30:57 GMT 46.962688 0.220713 40,000 20 443 -64
2021-10-05 03:30:54 GMT 46.962688 0.220713 40,000 20 443 -64
2021-10-05 03:30:51 GMT 46.956497 0.217262 40,000 20 443 -64
2021-10-05 03:30:48 GMT 46.950760 0.214096 40,000 20 442 0
2021-10-05 03:30:44 GMT 46.941322 0.208881 40,000 20 441 -64
2021-10-05 03:30:39 GMT 46.934292 0.205078 40,000 20 441 -64
2021-10-05 03:30:36 GMT 46.928940 0.202120 40,000 20 441 0
2021-10-05 03:30:33 GMT 46.922840 0.198740 40,000 20 441 -64
2021-10-05 03:30:31 GMT 46.916740 0.195359 40,000 20 441 64
2021-10-05 03:30:28 GMT 46.912182 0.192895 40,000 20 440 64
2021-10-05 03:30:24 GMT 46.904846 0.188828 40,000 20 440 64
2021-10-05 03:30:20 GMT 46.897247 0.184639 40,000 20 440 0
2021-10-05 03:30:17 GMT 46.890766 0.181063 40,000 20 440 -64
2021-10-05 03:30:14 GMT 46.885803 0.178322 40,000 20 440 -64
2021-10-05 03:30:09 GMT 46.868317 0.168709 40,000 20 440 -64
2021-10-05 03:30:06 GMT 46.868317 0.168709 40,000 20 441 0
2021-10-05 03:30:03 GMT 46.864700 0.166671 40,000 20 441 64
2021-10-05 03:30:00 GMT 46.859161 0.163656 40,000 20 441 64
2021-10-05 03:29:57 GMT 46.854176 0.160950 40,000 20 441 64
2021-10-05 03:29:54 GMT 46.847855 0.157426 40,000 20 441 64
2021-10-05 03:29:52 GMT 46.844833 0.155751 40,000 20 441 0
2021-10-05 03:29:49 GMT 46.837921 0.152000 40,000 20 441 -64
2021-10-05 03:29:46 GMT 46.832474 0.148985 40,000 20 441 -64
2021-10-05 03:29:43 GMT 46.826756 0.145844 40,000 20 441 -64
2021-10-05 03:29:40 GMT 46.820660 0.142479 40,000 20 441 -64
2021-10-05 03:29:37 GMT 46.814651 0.139183 40,000 20 441 0
2021-10-05 03:29:33 GMT 46.807297 0.135118 40,000 20 441 0
2021-10-05 03:29:30 GMT 46.800781 0.131561 40,000 20 440 64
2021-10-05 03:29:26 GMT 46.794125 0.127922 40,000 20 440 64
2021-10-05 03:29:24 GMT 46.790497 0.125941 40,000 20 440 64
2021-10-05 03:29:20 GMT 46.782898 0.121787 40,000 20 439 -64
2021-10-05 03:29:17 GMT 46.776810 0.118438 40,000 20 440 -64
2021-10-05 03:29:15 GMT 46.773010 0.116361 40,000 20 438 64
2021-10-05 03:29:12 GMT 46.768192 0.113708 40,000 20 438 64
2021-10-05 03:29:08 GMT 46.759907 0.109177 40,000 20 438 128
2021-10-05 03:29:05 GMT 46.754013 0.105911 40,000 20 436 -64
2021-10-05 03:29:02 GMT 46.748703 0.103030 40,000 20 437 0
2021-10-05 03:28:58 GMT 46.741104 0.098944 40,000 20 437 -64
2021-10-05 03:28:55 GMT 46.735466 0.095787 40,000 20 437 -64
2021-10-05 03:28:52 GMT 46.729935 0.092781 40,000 20 437 -64
2021-10-05 03:28:48 GMT 46.721828 0.088371 40,000 20 436 -64
2021-10-05 03:28:43 GMT 46.712540 0.083335 40,000 20 436 -64
2021-10-05 03:28:40 GMT 46.706314 0.079919 40,000 20 436 0
2021-10-05 03:28:36 GMT 46.699539 0.076234 40,000 20 435 0
2021-10-05 03:28:34 GMT 46.695740 0.074225 40,000 20 435 0
2021-10-05 03:28:30 GMT 46.687099 0.069489 40,000 20 435 0
2021-10-05 03:28:27 GMT 46.681549 0.066521 40,000 20 435 0
2021-10-05 03:28:25 GMT 46.676720 0.063927 40,000 20 434 64
2021-10-05 03:28:21 GMT 46.671021 0.060827 40,000 20 434 64
2021-10-05 03:28:18 GMT 46.665710 0.057946 40,000 20 434 128
2021-10-05 03:28:15 GMT 46.659962 0.054863 40,000 20 434 64
2021-10-05 03:28:11 GMT 46.650650 0.049840 40,000 20 434 -64
2021-10-05 03:28:07 GMT 46.643478 0.046005 40,000 20 434 -64
2021-10-05 03:28:03 GMT 46.638474 0.043275 40,000 20 434 -64
2021-10-05 03:27:59 GMT 46.627945 0.037447 40,000 21 436 64
2021-10-05 03:27:56 GMT 46.624580 0.035568 40,000 21 436 0
2021-10-05 03:27:53 GMT 46.618576 0.032066 40,000 22 436 64
2021-10-05 03:27:50 GMT 46.606247 0.024853 40,000 22 436 0
2021-10-05 03:27:47 GMT 46.606247 0.024853 40,000 22 436 64
2021-10-05 03:27:43 GMT 46.600651 0.021492 40,000 22 436 0
2021-10-05 03:27:40 GMT 46.593521 0.017350 40,000 21 437 0
2021-10-05 03:27:37 GMT 46.587898 0.014008 40,000 22 438 -64
2021-10-05 03:27:34 GMT 46.582260 0.010718 40,000 22 439 -64
2021-10-05 03:27:31 GMT 46.577774 0.008039 40,000 21 438 -64
2021-10-05 03:27:28 GMT 46.570312 0.003751 40,000 22 439 64
2021-10-05 03:27:23 GMT 46.563129 -0.000481 40,000 22 440 64
2021-10-05 03:27:20 GMT 46.556671 -0.004287 40,000 22 440 0
2021-10-05 03:27:17 GMT 46.549118 -0.008709 40,000 22 440 64
2021-10-05 03:27:13 GMT 46.544231 -0.011604 40,000 22 440 64
2021-10-05 03:27:09 GMT 46.528496 -0.020805 40,000 21 441 0
2021-10-05 03:27:06 GMT 46.528496 -0.020805 40,000 21 441 -64
2021-10-05 03:27:03 GMT 46.524586 -0.023140 40,000 21 441 -64
2021-10-05 03:26:59 GMT 46.511738 -0.030624 40,000 21 441 -64
2021-10-05 03:26:56 GMT 46.511738 -0.030624 40,000 21 441 -64
2021-10-05 03:26:54 GMT 46.505733 -0.034126 40,000 21 439 -64
2021-10-05 03:26:51 GMT 46.501740 -0.036442 40,000 21 439 -64
2021-10-05 03:26:47 GMT 46.492538 -0.041802 40,000 21 438 -64
2021-10-05 03:26:44 GMT 46.489902 -0.043396 40,000 21 438 -64
2021-10-05 03:26:40 GMT 46.482365 -0.047791 40,000 21 438 64
2021-10-05 03:26:37 GMT 46.474915 -0.052116 40,000 21 437 128
2021-10-05 03:26:34 GMT 46.471096 -0.054314 40,000 21 437 0
2021-10-05 03:26:31 GMT 46.463974 -0.058482 40,000 21 437 -64
2021-10-05 03:26:27 GMT 46.455917 -0.063238 40,000 22 436 0
2021-10-05 03:26:24 GMT 46.450150 -0.066605 40,000 22 436 0
2021-10-05 03:26:21 GMT 46.445251 -0.069401 40,000 21 436 64
2021-10-05 03:26:17 GMT 46.436371 -0.074627 40,000 21 436 128
2021-10-05 03:26:14 GMT 46.432526 -0.076837 40,000 21 436 128
2021-10-05 03:26:07 GMT 46.418728 -0.084938 40,000 21 436 -64
2021-10-05 03:26:02 GMT 46.402588 -0.094322 40,000 21 436 -128
2021-10-05 03:25:58 GMT 46.402588 -0.094322 40,000 21 436 -128
2021-10-05 03:25:56 GMT 46.398834 -0.096532 40,000 21 436 -128
2021-10-05 03:25:54 GMT 46.395451 -0.098465 40,000 21 436 64
2021-10-05 03:25:50 GMT 46.387711 -0.102963 40,000 21 436 0
2021-10-05 03:25:47 GMT 46.380112 -0.107385 40,000 21 436 0
2021-10-05 03:25:44 GMT 46.376495 -0.109528 40,000 21 436 64
2021-10-05 03:25:40 GMT 46.369034 -0.113816 40,000 21 436 0
2021-10-05 03:25:37 GMT 46.362492 -0.117622 40,000 21 436 0
2021-10-05 03:25:33 GMT 46.356903 -0.120917 40,000 21 437 64
2021-10-05 03:25:30 GMT 46.348248 -0.125931 40,000 21 439 64
2021-10-05 03:25:26 GMT 46.342621 -0.129223 40,000 21 438 0
2021-10-05 03:25:23 GMT 46.338089 -0.131836 40,000 21 438 -64
2021-10-05 03:25:19 GMT 46.328693 -0.137329 40,000 21 439 -64
2021-10-05 03:25:16 GMT 46.324924 -0.139526 40,000 21 439 -64
2021-10-05 03:25:13 GMT 46.319275 -0.142822 40,000 21 439 -64
2021-10-05 03:25:10 GMT 46.312122 -0.146942 40,000 21 439 64
2021-10-05 03:25:07 GMT 46.300415 -0.153742 40,000 21 439 128
2021-10-05 03:25:04 GMT 46.300415 -0.153742 40,000 21 439 64
2021-10-05 03:25:00 GMT 46.294373 -0.157225 40,000 21 439 -64
2021-10-05 03:24:56 GMT 46.282700 -0.164040 40,000 21 439 -64
2021-10-05 03:24:53 GMT 46.282700 -0.164040 40,000 21 439 -64
2021-10-05 03:24:51 GMT 46.277023 -0.167274 40,000 21 439 64
2021-10-05 03:24:46 GMT 46.267410 -0.172901 40,000 21 438 64
2021-10-05 03:24:43 GMT 46.262146 -0.175915 40,000 21 438 -64
2021-10-05 03:24:38 GMT 46.252167 -0.181676 40,000 21 438 -64
2021-10-05 03:24:35 GMT 46.247635 -0.184289 40,000 21 437 -64
2021-10-05 03:24:32 GMT 46.242016 -0.187592 40,000 21 437 -64
2021-10-05 03:24:28 GMT 46.233536 -0.192462 40,000 21 437 -64
2021-10-05 03:24:25 GMT 46.227909 -0.195763 40,000 21 437 -64
2021-10-05 03:24:22 GMT 46.221855 -0.199196 40,000 21 438 -64
2021-10-05 03:24:19 GMT 46.217995 -0.201462 40,000 21 438 0
2021-10-05 03:24:16 GMT 46.210545 -0.205788 40,000 21 438 0
2021-10-05 03:24:13 GMT 46.199184 -0.212311 40,000 21 437 0
2021-10-05 03:24:10 GMT 46.199184 -0.212311 40,000 21 438 -64
2021-10-05 03:24:06 GMT 46.191422 -0.216779 40,000 21 438 0
2021-10-05 03:24:02 GMT 46.184895 -0.220551 40,000 21 437 0
2021-10-05 03:23:58 GMT 46.176655 -0.225357 40,000 21 437 64
2021-10-05 03:23:55 GMT 46.165390 -0.231812 40,000 21 437 0
2021-10-05 03:23:52 GMT 46.165390 -0.231812 40,000 21 437 0
2021-10-05 03:23:47 GMT 46.156036 -0.237278 40,000 21 436 128
2021-10-05 03:23:44 GMT 46.150772 -0.240292 40,000 21 436 64
2021-10-05 03:23:41 GMT 46.146286 -0.242905 40,000 21 436 -64
2021-10-05 03:23:38 GMT 46.139225 -0.246986 40,000 21 436 0
2021-10-05 03:23:35 GMT 46.134430 -0.249738 40,000 21 437 -192
2021-10-05 03:23:32 GMT 46.127472 -0.253757 40,000 21 437 -192
2021-10-05 03:23:29 GMT 46.122608 -0.256531 40,000 21 437 64
2021-10-05 03:23:25 GMT 46.115112 -0.260857 40,000 21 436 128
2021-10-05 03:23:21 GMT 46.108749 -0.264543 40,000 21 436 -64
2021-10-05 03:23:16 GMT 46.097488 -0.270974 40,000 21 436 0
2021-10-05 03:23:13 GMT 46.092628 -0.273766 40,000 21 436 -64
2021-10-05 03:23:09 GMT 46.085274 -0.278023 40,000 21 435 64
2021-10-05 03:23:05 GMT 46.078430 -0.282005 40,000 21 435 128
2021-10-05 03:23:03 GMT 46.075790 -0.283501 40,000 21 435 128
2021-10-05 03:23:01 GMT 46.070190 -0.286674 40,000 21 434 64
2021-10-05 03:22:56 GMT 46.060867 -0.292076 40,000 21 435 -64
2021-10-05 03:22:53 GMT 46.055054 -0.295358 40,000 21 435 -64
2021-10-05 03:22:49 GMT 46.040348 -0.303841 40,000 21 435 64
2021-10-05 03:22:45 GMT 46.040348 -0.303841 40,000 21 435 64
2021-10-05 03:22:42 GMT 46.035507 -0.306612 40,000 21 435 -64
2021-10-05 03:22:39 GMT 46.024616 -0.312904 40,000 21 435 -128
2021-10-05 03:22:36 GMT 46.024616 -0.312904 40,000 21 434 -128
2021-10-05 03:22:33 GMT 46.018295 -0.316527 40,000 21 434 192
2021-10-05 03:22:30 GMT 46.012253 -0.319943 40,000 21 435 128
2021-10-05 03:22:26 GMT 46.004791 -0.324231 39,975 21 435 64
2021-10-05 03:22:23 GMT 45.999336 -0.327393 40,000 21 435 -128
2021-10-05 03:22:20 GMT 45.993759 -0.330595 40,000 21 434 -128
2021-10-05 03:22:16 GMT 45.986160 -0.334949 40,000 21 434 128
2021-10-05 03:22:13 GMT 45.980530 -0.338173 40,000 21 436 128
2021-10-05 03:22:10 GMT 45.974991 -0.341380 40,000 21 436 -64
2021-10-05 03:22:06 GMT 45.968567 -0.345039 40,000 21 436 -64
2021-10-05 03:22:02 GMT 45.961163 -0.349228 40,000 21 436 64
2021-10-05 03:21:59 GMT 45.955067 -0.352730 40,000 21 437 -64
2021-10-05 03:21:56 GMT 45.948360 -0.356575 40,000 21 437 0
2021-10-05 03:21:53 GMT 45.943150 -0.359596 40,000 21 438 0
2021-10-05 03:21:50 GMT 45.936676 -0.363286 40,000 21 438 0
2021-10-05 03:21:47 GMT 45.931931 -0.365982 40,000 21 438 0
2021-10-05 03:21:44 GMT 45.920525 -0.372505 40,000 21 438 64
2021-10-05 03:21:41 GMT 45.920525 -0.372505 40,000 21 438 -64
2021-10-05 03:21:38 GMT 45.915619 -0.375344 40,000 21 438 -64
2021-10-05 03:21:35 GMT 45.909760 -0.378693 40,000 21 438 64
2021-10-05 03:21:32 GMT 45.903347 -0.382324 40,000 21 438 -128
2021-10-05 03:21:29 GMT 45.897720 -0.385526 40,000 21 438 -64
2021-10-05 03:21:26 GMT 45.892273 -0.388608 40,000 21 438 -64
2021-10-05 03:21:22 GMT 45.885284 -0.392624 40,000 21 437 64
2021-10-05 03:21:19 GMT 45.874020 -0.399010 40,000 21 437 64
2021-10-05 03:21:16 GMT 45.874020 -0.399010 40,000 21 437 0
2021-10-05 03:21:14 GMT 45.869503 -0.401619 40,000 21 435 0
2021-10-05 03:21:11 GMT 45.856655 -0.408966 40,000 21 435 0
2021-10-05 03:21:07 GMT 45.856655 -0.408966 40,000 21 435 64
2021-10-05 03:21:04 GMT 45.851440 -0.411919 40,000 21 435 64
2021-10-05 03:21:02 GMT 45.847458 -0.414198 40,000 21 435 64
2021-10-05 03:20:59 GMT 45.840965 -0.417892 40,000 21 435 0
2021-10-05 03:20:56 GMT 45.836243 -0.420562 40,000 21 435 0
2021-10-05 03:20:54 GMT 45.832352 -0.422773 40,000 21 434 -64
2021-10-05 03:20:51 GMT 45.828598 -0.424916 40,000 21 433 -128
2021-10-05 03:20:48 GMT 45.820904 -0.429359 40,000 21 434 -64
2021-10-05 03:20:45 GMT 45.812943 -0.433893 40,000 21 434 64
2021-10-05 03:20:43 GMT 45.807262 -0.437119 40,000 21 433 -128
2021-10-05 03:20:40 GMT 45.807262 -0.437119 40,000 21 431 64
2021-10-05 03:20:37 GMT 45.800697 -0.440826 40,000 21 433 -64
2021-10-05 03:20:34 GMT 45.793625 -0.444879 40,000 21 433 0
2021-10-05 03:20:31 GMT 45.789917 -0.446956 40,000 21 433 64
2021-10-05 03:20:28 GMT 45.783829 -0.450439 40,000 21 432 128
2021-10-05 03:20:25 GMT 45.779099 -0.453117 40,000 21 432 64
2021-10-05 03:20:21 GMT 45.770905 -0.457718 40,000 21 432 -64
2021-10-05 03:20:18 GMT 45.765244 -0.460957 40,000 21 431 64
2021-10-05 03:20:15 GMT 45.760025 -0.463904 40,000 21 431 64
2021-10-05 03:20:13 GMT 45.752239 -0.468361 40,000 21 431 64
2021-10-05 03:20:10 GMT 45.752239 -0.468361 40,000 21 431 64
2021-10-05 03:20:06 GMT 45.743580 -0.473305 40,000 21 431 64
2021-10-05 03:20:03 GMT 45.738178 -0.476326 40,000 21 431 -64
2021-10-05 03:20:00 GMT 45.733383 -0.479111 40,000 21 431 -64
2021-10-05 03:19:56 GMT 45.719700 -0.486832 40,000 21 430 -64
2021-10-05 03:19:53 GMT 45.719700 -0.486832 40,000 21 430 0
2021-10-05 03:19:50 GMT 45.713924 -0.490128 40,000 21 430 64
2021-10-05 03:19:45 GMT 45.704895 -0.495277 40,000 21 430 0
2021-10-05 03:19:43 GMT 45.699726 -0.498161 40,000 21 430 -64
2021-10-05 03:19:37 GMT 45.684921 -0.506538 40,000 21 429 -64
2021-10-05 03:19:32 GMT 45.681244 -0.508598 40,000 21 429 -64
2021-10-05 03:19:29 GMT 45.676437 -0.511333 40,000 21 429 64
2021-10-05 03:19:26 GMT 45.668335 -0.515955 40,000 21 429 64
2021-10-05 03:19:23 GMT 45.663895 -0.518434 40,000 21 429 0
2021-10-05 03:19:19 GMT 45.657257 -0.522186 40,000 21 429 64
2021-10-05 03:19:15 GMT 45.649887 -0.526406 40,000 21 430 -64
2021-10-05 03:19:10 GMT 45.640095 -0.531944 40,000 21 430 -64
2021-10-05 03:19:07 GMT 45.632904 -0.535985 40,000 21 425 0
2021-10-05 03:19:04 GMT 45.629333 -0.537995 40,000 21 425 0
2021-10-05 03:19:02 GMT 45.619423 -0.543617 40,000 21 425 0
2021-10-05 03:18:59 GMT 45.619423 -0.543617 40,000 21 429 -64
2021-10-05 03:18:55 GMT 45.612167 -0.547709 40,000 21 429 -64
2021-10-05 03:18:52 GMT 45.604797 -0.551862 40,000 21 429 -64
2021-10-05 03:18:48 GMT 45.599407 -0.554947 40,000 21 428 128
2021-10-05 03:18:45 GMT 45.594635 -0.557623 40,000 21 428 128
2021-10-05 03:18:42 GMT 45.588978 -0.560783 40,000 21 428 0
2021-10-05 03:18:36 GMT 45.576096 -0.568074 40,000 21 426 64
2021-10-05 03:18:32 GMT 45.570969 -0.570954 40,000 21 425 0
2021-10-05 03:18:28 GMT 45.563599 -0.575107 40,000 21 426 -64
2021-10-05 03:18:25 GMT 45.557465 -0.578568 40,000 21 425 64
2021-10-05 03:18:22 GMT 45.549683 -0.582945 40,000 21 425 0
2021-10-05 03:18:18 GMT 45.545288 -0.585414 40,000 21 425 0
2021-10-05 03:18:15 GMT 45.538330 -0.589376 40,000 21 425 0
2021-10-05 03:18:11 GMT 45.531765 -0.593061 40,000 21 425 0
2021-10-05 03:18:08 GMT 45.520081 -0.599626 40,000 21 425 64
2021-10-05 03:18:05 GMT 45.520081 -0.599626 40,000 21 425 64
2021-10-05 03:18:01 GMT 45.513062 -0.603529 40,000 21 426 0
2021-10-05 03:17:57 GMT 45.506561 -0.607191 40,000 21 426 -64
2021-10-05 03:17:54 GMT 45.501343 -0.610134 40,000 21 426 0
2021-10-05 03:17:51 GMT 45.494019 -0.614253 40,000 21 426 0
2021-10-05 03:17:48 GMT 45.488892 -0.617131 40,000 21 426 0
2021-10-05 03:17:45 GMT 45.483032 -0.620466 40,000 21 426 0
2021-10-05 03:17:41 GMT 45.476440 -0.624128 40,000 21 426 64
2021-10-05 03:17:37 GMT 45.470177 -0.627627 40,000 21 425 64
2021-10-05 03:17:34 GMT 45.463615 -0.631312 40,000 21 425 64
2021-10-05 03:17:30 GMT 45.457397 -0.634853 40,000 21 425 0
2021-10-05 03:17:27 GMT 45.450943 -0.638450 40,000 21 426 0
2021-10-05 03:17:24 GMT 45.445271 -0.641628 40,000 21 426 0
2021-10-05 03:17:20 GMT 45.438309 -0.645578 40,000 21 426 0
2021-10-05 03:17:16 GMT 45.430702 -0.649868 40,000 21 426 -64
2021-10-05 03:17:13 GMT 45.425995 -0.652509 40,000 21 426 0
2021-10-05 03:17:10 GMT 45.419716 -0.656031 40,000 21 426 -64
2021-10-05 03:17:04 GMT 45.407238 -0.662998 40,000 21 426 -64
2021-10-05 03:17:00 GMT 45.395004 -0.669839 40,000 21 425 -64
2021-10-05 03:16:56 GMT 45.395004 -0.669839 40,000 21 424 64
2021-10-05 03:16:53 GMT 45.389503 -0.672913 40,000 21 425 64
2021-10-05 03:16:50 GMT 45.383286 -0.676379 40,000 21 424 64
2021-10-05 03:16:47 GMT 45.378563 -0.679076 40,000 21 424 0
2021-10-05 03:16:44 GMT 45.371750 -0.682853 40,000 21 424 0
2021-10-05 03:16:41 GMT 45.364689 -0.686846 40,000 21 423 0
2021-10-05 03:16:38 GMT 45.360313 -0.689258 40,000 21 423 64
2021-10-05 03:16:34 GMT 45.353748 -0.692943 40,000 21 423 0
2021-10-05 03:16:31 GMT 45.346626 -0.696962 40,000 21 423 -64
2021-10-05 03:16:24 GMT 45.334061 -0.703929 40,000 21 423 0
2021-10-05 03:16:20 GMT 45.328285 -0.707211 40,000 21 423 0
2021-10-05 03:16:15 GMT 45.319885 -0.711888 40,000 21 423 0
2021-10-05 03:16:13 GMT 45.314209 -0.715027 40,000 21 423 0
2021-10-05 03:16:10 GMT 45.311279 -0.716662 40,000 21 423 0
2021-10-05 03:16:05 GMT 45.300774 -0.722552 40,000 21 423 0
2021-10-05 03:16:01 GMT 45.293373 -0.726705 40,000 21 422 0
2021-10-05 03:15:58 GMT 45.283176 -0.732400 40,000 21 422 64
2021-10-05 03:15:55 GMT 45.283176 -0.732400 40,000 21 422 64
2021-10-05 03:15:51 GMT 45.276398 -0.736149 40,000 21 423 0
2021-10-05 03:15:48 GMT 45.269714 -0.739877 40,000 21 423 64
2021-10-05 03:15:45 GMT 45.264278 -0.742917 40,000 21 423 64
2021-10-05 03:15:42 GMT 45.258911 -0.745893 40,000 21 423 0
2021-10-05 03:15:39 GMT 45.250900 -0.750340 40,000 21 423 -64
2021-10-05 03:15:36 GMT 45.247471 -0.752296 40,000 21 423 0
2021-10-05 03:15:31 GMT 45.239090 -0.756945 40,000 21 423 0
2021-10-05 03:15:28 GMT 45.233646 -0.759932 40,000 21 423 0
2021-10-05 03:15:24 GMT 45.227417 -0.763419 40,000 21 424 0
2021-10-05 03:15:20 GMT 45.219028 -0.768105 40,000 21 424 0
2021-10-05 03:15:16 GMT 45.211021 -0.772593 40,000 21 424 0
2021-10-05 03:15:14 GMT 45.208229 -0.774134 40,000 21 424 0
2021-10-05 03:15:10 GMT 45.199081 -0.779179 40,000 21 424 0
2021-10-05 03:15:05 GMT 45.191025 -0.783691 40,000 21 424 0
2021-10-05 03:15:03 GMT 45.186676 -0.786111 40,000 21 424 -64
2021-10-05 03:15:00 GMT 45.183060 -0.788073 40,000 21 424 -64
2021-10-05 03:14:56 GMT 45.174572 -0.792824 40,000 21 424 -64
2021-10-05 03:14:52 GMT 45.168659 -0.796107 40,000 21 425 -64
2021-10-05 03:14:48 GMT 45.160263 -0.800759 40,000 21 425 64
2021-10-05 03:14:44 GMT 45.153297 -0.804615 40,000 21 425 0
2021-10-05 03:14:40 GMT 45.145988 -0.808701 40,000 21 425 0
2021-10-05 03:14:36 GMT 45.139801 -0.812138 40,000 21 425 64
2021-10-05 03:14:33 GMT 45.134628 -0.814950 40,000 21 425 0
2021-10-05 03:14:29 GMT 45.126202 -0.819687 40,000 21 425 -64
2021-10-05 03:14:25 GMT 45.112331 -0.827324 40,000 21 425 64
2021-10-05 03:14:22 GMT 45.112331 -0.827324 40,000 21 425 0
2021-10-05 03:14:19 GMT 45.108654 -0.829401 40,000 21 425 0
2021-10-05 03:14:16 GMT 45.101299 -0.833420 40,000 21 426 0
2021-10-05 03:14:13 GMT 45.096588 -0.836073 40,000 21 426 0
2021-10-05 03:14:09 GMT 45.089264 -0.840127 40,000 21 426 0
2021-10-05 03:14:05 GMT 45.082256 -0.844005 40,000 21 425 64
2021-10-05 03:14:02 GMT 45.075302 -0.847844 40,000 21 426 0
2021-10-05 03:13:59 GMT 45.070908 -0.850263 40,000 21 426 0
2021-10-05 03:13:55 GMT 45.063583 -0.854318 40,000 21 425 64
2021-10-05 03:13:51 GMT 45.056259 -0.858372 40,000 21 426 -64
2021-10-05 03:13:48 GMT 45.051819 -0.860792 40,000 21 426 -64
2021-10-05 03:13:45 GMT 45.046505 -0.863767 40,000 21 425 0
2021-10-05 03:13:42 GMT 45.038406 -0.868255 40,000 21 425 0
2021-10-05 03:13:37 GMT 45.030579 -0.872563 40,000 21 425 -64
2021-10-05 03:13:34 GMT 45.025883 -0.875155 40,000 21 425 -64
2021-10-05 03:13:31 GMT 45.020279 -0.878252 40,000 21 425 64
2021-10-05 03:13:27 GMT 45.012360 -0.882634 40,000 21 425 -64
2021-10-05 03:13:24 GMT 45.007828 -0.885119 40,000 21 425 -64
2021-10-05 03:13:21 GMT 45.001373 -0.888650 40,000 21 425 -64
2021-10-05 03:13:18 GMT 44.996109 -0.891593 40,000 21 425 0
2021-10-05 03:13:15 GMT 44.989155 -0.895386 40,000 21 425 64
2021-10-05 03:13:12 GMT 44.985123 -0.897609 40,000 21 424 64
2021-10-05 03:13:09 GMT 44.979309 -0.900879 40,000 21 424 0
2021-10-05 03:13:06 GMT 44.973976 -0.903759 40,000 21 424 0
2021-10-05 03:13:04 GMT 44.970520 -0.905718 40,000 21 423 64
2021-10-05 03:13:01 GMT 44.964706 -0.908922 40,000 21 423 64
2021-10-05 03:12:57 GMT 44.955589 -0.913942 40,000 21 423 -64
2021-10-05 03:12:54 GMT 44.950836 -0.916574 40,000 21 422 64
2021-10-05 03:12:51 GMT 44.946095 -0.919167 40,000 21 423 0
2021-10-05 03:12:46 GMT 44.938133 -0.923588 40,000 21 422 0
2021-10-05 03:12:42 GMT 44.930649 -0.927691 40,000 21 421 -64
2021-10-05 03:12:39 GMT 44.922501 -0.932138 40,000 21 420 -64
2021-10-05 03:12:36 GMT 44.919617 -0.933707 40,000 21 420 0
2021-10-05 03:12:33 GMT 44.913940 -0.936846 40,000 21 420 0
2021-10-05 03:12:30 GMT 44.908035 -0.940116 40,000 21 420 -64
2021-10-05 03:12:26 GMT 44.901627 -0.943582 40,000 21 419 -64
2021-10-05 03:12:23 GMT 44.889954 -0.949990 40,000 21 419 64
2021-10-05 03:12:20 GMT 44.889954 -0.949990 40,000 21 419 64
2021-10-05 03:12:17 GMT 44.885056 -0.952672 40,000 21 419 0
2021-10-05 03:12:14 GMT 44.880360 -0.955275 40,000 21 419 0
2021-10-05 03:12:11 GMT 44.872261 -0.959696 40,000 21 419 64
2021-10-05 03:12:06 GMT 44.865185 -0.963581 40,000 21 419 0
2021-10-05 03:12:04 GMT 44.862488 -0.965097 40,000 21 419 0
2021-10-05 03:12:00 GMT 44.854340 -0.969543 40,000 21 419 0
2021-10-05 03:11:57 GMT 44.849125 -0.972424 40,000 21 419 64
2021-10-05 03:11:53 GMT 44.840103 -0.977391 40,000 21 419 0
2021-10-05 03:11:50 GMT 44.836136 -0.979525 40,000 21 419 0
2021-10-05 03:11:47 GMT 44.831806 -0.981937 40,000 21 419 64
2021-10-05 03:11:44 GMT 44.826370 -0.984911 40,000 21 420 64
2021-10-05 03:11:42 GMT 44.821659 -0.987497 40,000 21 420 64
2021-10-05 03:11:38 GMT 44.808289 -0.994851 40,000 21 420 64
2021-10-05 03:11:35 GMT 44.808289 -0.994851 40,000 21 420 64
2021-10-05 03:11:32 GMT 44.803207 -0.997598 40,000 21 420 -64
2021-10-05 03:11:28 GMT 44.796661 -1.001195 40,000 21 420 -64
2021-10-05 03:11:25 GMT 44.791580 -1.003941 40,000 21 420 -64
2021-10-05 03:11:22 GMT 44.786682 -1.006622 40,000 21 421 64
2021-10-05 03:11:19 GMT 44.780731 -1.009892 40,000 21 421 -64
2021-10-05 03:11:16 GMT 44.775055 -1.013031 40,000 21 421 -64
2021-10-05 03:11:14 GMT 44.772034 -1.014666 40,000 21 420 64
2021-10-05 03:11:11 GMT 44.765842 -1.018044 40,000 21 420 0
2021-10-05 03:11:07 GMT 44.757881 -1.022398 40,000 21 420 64
2021-10-05 03:11:04 GMT 44.753311 -1.024867 40,000 21 420 64
2021-10-05 03:11:01 GMT 44.748093 -1.027745 40,000 21 420 64
2021-10-05 03:10:58 GMT 44.741913 -1.031107 40,000 21 420 0
2021-10-05 03:10:55 GMT 44.735779 -1.034481 40,000 21 420 0
2021-10-05 03:10:53 GMT 44.734699 -1.035059 40,000 21 420 0
2021-10-05 03:10:50 GMT 44.726349 -1.039647 40,000 21 420 64
2021-10-05 03:10:47 GMT 44.721619 -1.042227 40,000 21 420 0
2021-10-05 03:10:44 GMT 44.717243 -1.044639 40,000 21 421 0
2021-10-05 03:10:42 GMT 44.712868 -1.046984 40,000 21 421 64
2021-10-05 03:10:38 GMT 44.705605 -1.050936 40,000 21 421 64
2021-10-05 03:10:35 GMT 44.701229 -1.053348 40,000 21 421 0
2021-10-05 03:10:33 GMT 44.697235 -1.055538 40,000 21 423 -64
2021-10-05 03:10:29 GMT 44.689590 -1.059712 40,000 21 423 -64
2021-10-05 03:10:25 GMT 44.680840 -1.064468 40,000 21 423 0
2021-10-05 03:10:22 GMT 44.674667 -1.067832 40,000 21 423 -64
2021-10-05 03:10:18 GMT 44.668453 -1.071234 40,000 21 423 -64
2021-10-05 03:10:14 GMT 44.663040 -1.074175 40,000 21 423 64
2021-10-05 03:10:11 GMT 44.656769 -1.077598 40,000 21 423 0
2021-10-05 03:10:08 GMT 44.650997 -1.080747 40,000 21 423 0
2021-10-05 03:10:05 GMT 44.644436 -1.084297 40,000 21 424 64
2021-10-05 03:10:02 GMT 44.641800 -1.085750 40,000 21 425 -64
2021-10-05 03:09:59 GMT 44.634476 -1.089805 40,000 21 425 -64
2021-10-05 03:09:56 GMT 44.628979 -1.092805 40,000 21 424 -64
2021-10-05 03:09:50 GMT 44.616898 -1.099352 40,000 21 426 -64
2021-10-05 03:09:47 GMT 44.612919 -1.101513 40,000 21 426 0
2021-10-05 03:09:44 GMT 44.607796 -1.104327 40,000 21 426 0
2021-10-05 03:09:42 GMT 44.597900 -1.109750 40,000 21 425 0
2021-10-05 03:09:39 GMT 44.597900 -1.109750 40,000 21 424 -64
2021-10-05 03:09:35 GMT 44.589409 -1.114375 40,000 21 424 0
2021-10-05 03:09:32 GMT 44.585033 -1.116720 40,000 21 423 64
2021-10-05 03:09:29 GMT 44.578423 -1.120338 40,000 21 424 64
2021-10-05 03:09:25 GMT 44.571487 -1.124071 40,000 21 423 64
2021-10-05 03:09:21 GMT 44.564163 -1.128060 40,000 21 423 0
2021-10-05 03:09:18 GMT 44.560547 -1.130022 40,000 21 422 0
2021-10-05 03:09:15 GMT 44.553223 -1.133946 40,000 21 422 -64
2021-10-05 03:09:11 GMT 44.547234 -1.137219 40,000 21 420 -64
2021-10-05 03:09:08 GMT 44.541595 -1.140289 40,000 21 421 0
2021-10-05 03:09:05 GMT 44.534851 -1.143918 40,000 21 420 -64
2021-10-05 03:09:01 GMT 44.528938 -1.147133 40,000 21 419 64
2021-10-05 03:08:57 GMT 44.521454 -1.151145 40,000 21 419 64
2021-10-05 03:08:54 GMT 44.515160 -1.154569 40,000 21 418 64
2021-10-05 03:08:52 GMT 44.512756 -1.155853 40,000 21 418 64
2021-10-05 03:08:49 GMT 44.507244 -1.158857 40,000 21 418 64
2021-10-05 03:08:46 GMT 44.502312 -1.161536 40,000 21 416 0
2021-10-05 03:08:43 GMT 44.498680 -1.163479 40,000 21 416 0
2021-10-05 03:08:40 GMT 44.491699 -1.167297 40,000 21 416 0
2021-10-05 03:08:37 GMT 44.484512 -1.171156 40,000 21 417 64
2021-10-05 03:08:34 GMT 44.480942 -1.173118 40,000 21 417 64
2021-10-05 03:08:32 GMT 44.477123 -1.175135 40,000 21 417 64
2021-10-05 03:08:28 GMT 44.467987 -1.180115 40,000 21 416 0
2021-10-05 03:08:24 GMT 44.464417 -1.182011 40,000 21 417 64
2021-10-05 03:08:22 GMT 44.458317 -1.185318 40,000 21 417 64
2021-10-05 03:08:17 GMT 44.450180 -1.189728 40,000 21 417 -64
2021-10-05 03:08:14 GMT 44.445007 -1.192540 40,000 21 417 -128
2021-10-05 03:08:12 GMT 44.440659 -1.194894 40,000 21 418 -64
2021-10-05 03:08:09 GMT 44.435074 -1.197902 40,000 21 418 -64
2021-10-05 03:08:05 GMT 44.423492 -1.204115 40,000 21 418 64
2021-10-05 03:08:02 GMT 44.423492 -1.204115 40,000 21 423 -128
2021-10-05 03:07:59 GMT 44.418320 -1.206927 40,000 21 418 0
2021-10-05 03:07:56 GMT 44.412048 -1.210327 40,000 21 418 -64
2021-10-05 03:07:53 GMT 44.405018 -1.214123 40,000 21 418 -128
2021-10-05 03:07:49 GMT 44.399242 -1.217205 40,000 21 418 -64
2021-10-05 03:07:45 GMT 44.392727 -1.220755 40,000 21 419 128
2021-10-05 03:07:42 GMT 44.386597 -1.224060 40,000 21 420 64
2021-10-05 03:07:38 GMT 44.380234 -1.227526 40,000 21 420 -64
2021-10-05 03:07:35 GMT 44.373920 -1.230938 40,000 21 421 128
2021-10-05 03:07:32 GMT 44.368286 -1.233952 40,000 21 423 -128
2021-10-05 03:07:29 GMT 44.362015 -1.237335 40,000 21 422 -64
2021-10-05 03:07:25 GMT 44.356796 -1.240147 40,000 21 423 -128
2021-10-05 03:07:22 GMT 44.349899 -1.243867 40,000 21 423 -64
2021-10-05 03:07:18 GMT 44.343475 -1.247350 40,000 21 423 0
2021-10-05 03:07:14 GMT 44.336380 -1.251199 40,000 21 424 0
2021-10-05 03:07:11 GMT 44.330856 -1.254116 40,000 21 424 0
2021-10-05 03:07:08 GMT 44.324387 -1.257600 40,000 21 424 -64
2021-10-05 03:07:05 GMT 44.318428 -1.260815 40,000 21 424 0
2021-10-05 03:07:02 GMT 44.313034 -1.263755 40,000 21 423 64
2021-10-05 03:06:58 GMT 44.306046 -1.267514 40,000 21 423 128
2021-10-05 03:06:55 GMT 44.300583 -1.270425 40,000 21 423 64
2021-10-05 03:06:52 GMT 44.287006 -1.277697 40,000 21 421 0
2021-10-05 03:06:47 GMT 44.287006 -1.277697 40,000 21 422 -64
2021-10-05 03:06:43 GMT 44.280121 -1.281411 40,000 21 422 0
2021-10-05 03:06:41 GMT 44.276066 -1.283592 40,000 21 421 0
2021-10-05 03:06:37 GMT 44.268448 -1.287689 40,000 21 421 0
2021-10-05 03:06:34 GMT 44.257690 -1.293444 40,000 21 421 0
2021-10-05 03:06:31 GMT 44.257690 -1.293444 40,000 21 422 0
2021-10-05 03:06:28 GMT 44.249905 -1.297593 40,000 21 421 -64
2021-10-05 03:06:25 GMT 44.244507 -1.300507 40,000 21 421 -64
2021-10-05 03:06:21 GMT 44.239197 -1.303354 40,000 21 421 0
2021-10-05 03:06:17 GMT 44.231842 -1.307306 40,000 21 421 64
2021-10-05 03:06:14 GMT 44.226334 -1.310316 40,000 21 421 0
2021-10-05 03:06:11 GMT 44.220856 -1.313201 40,000 21 422 -64
2021-10-05 03:06:05 GMT 44.210220 -1.318948 40,000 21 422 -64
2021-10-05 03:06:03 GMT 44.206604 -1.320844 40,000 21 422 -64
2021-10-05 03:06:00 GMT 44.201477 -1.323591 40,000 21 422 -64
2021-10-05 03:05:57 GMT 44.195068 -1.327057 40,000 21 422 0
2021-10-05 03:05:54 GMT 44.189850 -1.329857 40,000 21 422 0
2021-10-05 03:05:51 GMT 44.184406 -1.332746 40,000 21 422 0
2021-10-05 03:05:44 GMT 44.170578 -1.340201 40,000 21 422 -64
2021-10-05 03:05:40 GMT 44.165646 -1.342817 40,000 21 422 0
2021-10-05 03:05:36 GMT 44.157806 -1.346975 40,000 21 421 64
2021-10-05 03:05:33 GMT 44.152378 -1.349945 40,000 21 421 0
2021-10-05 03:05:30 GMT 44.147827 -1.352340 40,000 21 421 -64
2021-10-05 03:05:27 GMT 44.139297 -1.356942 40,000 21 421 -128
2021-10-05 03:05:24 GMT 44.134689 -1.359366 40,000 21 420 64
2021-10-05 03:05:21 GMT 44.128403 -1.362762 40,000 21 420 64
2021-10-05 03:05:14 GMT 44.117889 -1.368373 40,000 21 420 64
2021-10-05 03:05:12 GMT 44.113495 -1.370672 40,000 21 419 0
2021-10-05 03:05:06 GMT 44.102985 -1.376299 40,000 20 418 64
2021-10-05 03:05:03 GMT 44.096146 -1.379934 40,000 21 417 64
2021-10-05 03:05:00 GMT 44.092232 -1.382054 40,000 21 416 -64
2021-10-05 03:04:54 GMT 44.079575 -1.388812 40,000 21 416 -64
2021-10-05 03:04:50 GMT 44.073807 -1.391878 40,000 21 415 64
2021-10-05 03:04:44 GMT 44.064114 -1.397029 40,000 21 415 0
2021-10-05 03:04:42 GMT 44.060165 -1.399096 40,000 21 415 -64
2021-10-05 03:04:35 GMT 44.046936 -1.406185 40,000 20 414 0
2021-10-05 03:04:30 GMT 44.038101 -1.410849 40,000 20 413 0
2021-10-05 03:04:24 GMT 44.026749 -1.416917 40,000 21 412 0
2021-10-05 03:04:22 GMT 44.022774 -1.419002 40,000 21 412 -64
2021-10-05 03:04:19 GMT 44.018398 -1.421291 40,000 21 412 0
2021-10-05 03:04:14 GMT 44.009445 -1.426115 40,000 21 412 -64
2021-10-05 03:04:11 GMT 44.005142 -1.428350 40,000 21 412 0
2021-10-05 03:04:05 GMT 43.993401 -1.434631 40,000 21 412 -64
2021-10-05 03:04:03 GMT 43.990219 -1.436335 40,000 21 412 0
2021-10-05 03:03:59 GMT 43.983078 -1.440103 40,000 21 412 -64
2021-10-05 03:03:54 GMT 43.972778 -1.445552 40,000 21 412 0
2021-10-05 03:03:50 GMT 43.967796 -1.448233 40,000 21 412 64
2021-10-05 03:03:43 GMT 43.954437 -1.455362 40,000 21 412 0
2021-10-05 03:03:40 GMT 43.950012 -1.457716 40,000 20 411 0
2021-10-05 03:03:35 GMT 43.940144 -1.462947 40,000 21 412 128
2021-10-05 03:03:33 GMT 43.936466 -1.464844 40,000 21 412 128
2021-10-05 03:03:30 GMT 43.931854 -1.467314 40,000 21 412 -64
2021-10-05 03:03:25 GMT 43.921665 -1.472757 40,000 20 411 128
2021-10-05 03:03:23 GMT 43.919037 -1.474084 40,000 20 411 128
2021-10-05 03:03:19 GMT 43.912125 -1.477789 40,000 20 411 -128
2021-10-05 03:03:14 GMT 43.902008 -1.483154 40,000 20 411 128
2021-10-05 03:03:09 GMT 43.895004 -1.486859 40,000 21 411 -64
2021-10-05 03:03:05 GMT 43.886051 -1.491590 40,000 20 410 -128
2021-10-05 03:03:03 GMT 43.883560 -1.492927 40,000 20 411 192
2021-10-05 03:03:00 GMT 43.879673 -1.494991 40,000 20 411 192
2021-10-05 03:02:54 GMT 43.867264 -1.501550 40,000 20 410 -192
2021-10-05 03:02:52 GMT 43.864079 -1.503231 40,000 20 409 64
2021-10-05 03:02:49 GMT 43.851151 -1.510045 40,000 20 410 -64
2021-10-05 03:02:45 GMT 43.851151 -1.510045 40,000 20 409 -128
2021-10-05 03:02:43 GMT 43.845646 -1.512974 40,000 20 409 -128
2021-10-05 03:02:38 GMT 43.839615 -1.516113 40,000 20 409 64
2021-10-05 03:02:34 GMT 43.830795 -1.520822 40,000 20 409 -64
2021-10-05 03:02:30 GMT 43.826385 -1.523139 40,000 20 408 -128
2021-10-05 03:02:24 GMT 43.813568 -1.529910 40,000 20 408 -128
2021-10-05 03:02:22 GMT 43.810822 -1.531379 40,000 21 409 -64
2021-10-05 03:02:18 GMT 43.804276 -1.534828 40,000 20 408 -128
2021-10-05 03:02:14 GMT 43.797558 -1.538348 40,000 20 409 64
2021-10-05 03:02:12 GMT 43.792969 -1.540769 40,000 20 409 64
2021-10-05 03:02:08 GMT 43.786789 -1.544026 40,000 20 409 -64
2021-10-05 03:02:02 GMT 43.776329 -1.549530 40,000 20 410 64
2021-10-05 03:01:59 GMT 43.769951 -1.552931 40,000 20 410 0
2021-10-05 03:01:54 GMT 43.762527 -1.556801 40,000 20 411 128
2021-10-05 03:01:51 GMT 43.755798 -1.560386 40,000 20 411 -64
2021-10-05 03:01:47 GMT 43.749374 -1.563721 40,000 20 411 -64
2021-10-05 03:01:42 GMT 43.740692 -1.568362 40,000 20 411 0
2021-10-05 03:01:39 GMT 43.735565 -1.571045 40,000 20 412 0
2021-10-05 03:01:34 GMT 43.724564 -1.576865 40,000 21 412 -64
2021-10-05 03:01:32 GMT 43.721722 -1.578369 40,000 20 412 -64
2021-10-05 03:01:27 GMT 43.713249 -1.582816 40,000 20 413 64
2021-10-05 03:01:23 GMT 43.706638 -1.586282 40,000 20 413 0
2021-10-05 03:01:20 GMT 43.702011 -1.588738 40,000 20 413 0
2021-10-05 03:01:17 GMT 43.695980 -1.591906 40,000 20 413 64
2021-10-05 03:01:14 GMT 43.690952 -1.594522 40,000 20 413 64
2021-10-05 03:01:11 GMT 43.684528 -1.597922 40,000 20 413 -64
2021-10-05 03:01:08 GMT 43.680988 -1.599819 40,000 20 413 -64
2021-10-05 03:01:04 GMT 43.673492 -1.603748 40,000 20 413 -64
2021-10-05 03:01:01 GMT 43.667038 -1.607134 40,000 20 413 0
2021-10-05 03:00:56 GMT 43.659348 -1.611158 40,000 20 413 64
2021-10-05 03:00:53 GMT 43.653488 -1.614224 40,000 20 414 0
2021-10-05 03:00:51 GMT 43.649658 -1.616233 40,000 20 413 0
2021-10-05 03:00:47 GMT 43.641792 -1.620353 40,000 20 413 -64
2021-10-05 03:00:44 GMT 43.632019 -1.625529 40,000 20 414 0
2021-10-05 03:00:42 GMT 43.632019 -1.625529 40,000 20 414 0
2021-10-05 03:00:37 GMT 43.623917 -1.629769 40,000 20 413 -64
2021-10-05 03:00:33 GMT 43.617142 -1.633322 40,000 20 413 64
2021-10-05 03:00:31 GMT 43.614166 -1.634919 40,000 20 413 128
2021-10-05 03:00:27 GMT 43.605991 -1.639186 40,000 20 413 -64
2021-10-05 03:00:24 GMT 43.601616 -1.641475 40,000 20 413 -64
2021-10-05 03:00:20 GMT 43.595192 -1.644810 40,000 20 413 128
2021-10-05 03:00:17 GMT 43.588394 -1.648396 40,000 20 413 64
2021-10-05 03:00:14 GMT 43.583405 -1.651015 40,000 20 413 -128
2021-10-05 03:00:10 GMT 43.577087 -1.654337 40,000 20 413 -128
2021-10-05 03:00:07 GMT 43.565910 -1.660178 40,000 20 413 0
2021-10-05 03:00:04 GMT 43.565910 -1.660178 40,000 20 413 64
2021-10-05 03:00:02 GMT 43.561249 -1.662640 40,000 20 413 64
2021-10-05 03:00:00 GMT 43.559097 -1.663726 40,000 20 413 64
2021-10-05 02:59:56 GMT 43.550877 -1.668025 40,000 20 413 64
2021-10-05 02:59:53 GMT 43.545685 -1.670752 40,000 20 413 -64
2021-10-05 02:59:50 GMT 43.541245 -1.673052 40,000 20 413 -64
2021-10-05 02:59:46 GMT 43.533508 -1.677140 40,000 20 413 0
2021-10-05 02:59:43 GMT 43.527740 -1.680142 40,000 20 412 0
2021-10-05 02:59:41 GMT 43.523178 -1.682543 40,000 20 411 -64
2021-10-05 02:59:36 GMT 43.515354 -1.686598 40,000 20 411 -64
2021-10-05 02:59:32 GMT 43.508839 -1.689998 40,000 20 411 64
2021-10-05 02:59:26 GMT 43.497253 -1.696046 40,000 20 410 0
2021-10-05 02:59:23 GMT 43.492264 -1.698665 40,000 20 410 -64
2021-10-05 02:59:18 GMT 43.483421 -1.703273 40,000 20 409 64
2021-10-05 02:59:13 GMT 43.474762 -1.707785 40,000 20 409 -64
2021-10-05 02:59:09 GMT 43.466290 -1.712232 40,000 20 409 -64
2021-10-05 02:59:04 GMT 43.458515 -1.716287 40,000 20 409 0
2021-10-05 02:59:02 GMT 43.456009 -1.717572 40,000 20 409 64
2021-10-05 02:58:53 GMT 43.438683 -1.726619 40,000 20 409 -64
2021-10-05 02:58:49 GMT 43.430164 -1.731066 40,000 20 409 64
2021-10-05 02:58:44 GMT 43.423088 -1.734728 40,000 20 409 64
2021-10-05 02:58:37 GMT 43.411079 -1.741006 40,000 20 409 -64
2021-10-05 02:58:33 GMT 43.403732 -1.744782 40,000 20 409 -64
2021-10-05 02:58:28 GMT 43.393528 -1.750096 40,000 20 409 128
2021-10-05 02:58:23 GMT 43.385239 -1.754427 40,000 20 409 -64
2021-10-05 02:58:17 GMT 43.375607 -1.759447 40,000 20 409 0
2021-10-05 02:58:13 GMT 43.368164 -1.763306 40,000 20 410 -64
2021-10-05 02:58:08 GMT 43.359406 -1.767883 40,000 20 410 0
2021-10-05 02:58:04 GMT 43.352188 -1.771676 40,000 20 410 0
2021-10-05 02:58:02 GMT 43.349670 -1.772951 40,000 20 410 0
2021-10-05 02:57:57 GMT 43.339920 -1.777997 40,000 20 411 0
2021-10-05 02:57:54 GMT 43.334747 -1.780679 40,000 20 411 64
2021-10-05 02:57:52 GMT 43.331177 -1.782532 40,000 20 411 64
2021-10-05 02:57:48 GMT 43.322662 -1.787003 40,000 20 411 0
2021-10-05 02:57:43 GMT 43.314835 -1.791027 40,000 20 411 -64
2021-10-05 02:57:32 GMT 43.296478 -1.800608 40,000 20 411 64
2021-10-05 02:57:28 GMT 43.288136 -1.804897 40,000 20 411 0
2021-10-05 02:57:23 GMT 43.278358 -1.809998 40,000 20 410 0
2021-10-05 02:57:14 GMT 43.259739 -1.819676 40,000 20 410 -64
2021-10-05 02:57:07 GMT 43.252258 -1.823539 40,000 20 409 64
2021-10-05 02:57:04 GMT 43.245541 -1.827000 40,000 20 409 64
2021-10-05 02:57:01 GMT 43.240219 -1.829735 40,000 20 409 64
2021-10-05 02:56:57 GMT 43.233124 -1.833439 40,000 20 409 64
2021-10-05 02:56:53 GMT 43.225708 -1.837333 40,000 20 409 64
2021-10-05 02:56:50 GMT 43.221954 -1.839252 40,000 20 409 0
2021-10-05 02:56:46 GMT 43.213303 -1.843723 40,000 20 409 0
2021-10-05 02:56:42 GMT 43.207272 -1.846880 40,000 20 409 -64
2021-10-05 02:56:40 GMT 43.204433 -1.848319 40,000 20 409 -64
2021-10-05 02:56:34 GMT 43.192375 -1.854597 40,000 20 409 -64
2021-10-05 02:56:31 GMT 43.187759 -1.857009 40,000 20 408 -64
2021-10-05 02:56:26 GMT 43.178604 -1.861799 40,000 20 408 64
2021-10-05 02:56:23 GMT 43.172546 -1.864929 40,000 20 408 64
2021-10-05 02:56:21 GMT 43.169357 -1.866590 40,000 20 408 0
2021-10-05 02:56:17 GMT 43.161327 -1.870815 40,000 20 408 -64
2021-10-05 02:56:13 GMT 43.154526 -1.874383 40,000 20 408 -64
2021-10-05 02:56:09 GMT 43.149033 -1.877257 40,000 21 407 0
2021-10-05 02:56:06 GMT 43.142937 -1.880428 40,000 21 407 0
2021-10-05 02:56:02 GMT 43.136608 -1.883828 40,000 21 407 64
2021-10-05 02:56:00 GMT 43.132465 -1.885986 40,000 21 406 0
2021-10-05 02:55:57 GMT 43.126225 -1.889321 40,000 21 406 0
2021-10-05 02:55:53 GMT 43.119102 -1.893114 40,000 21 405 0
2021-10-05 02:55:49 GMT 43.114609 -1.895525 40,000 21 405 -64
2021-10-05 02:55:46 GMT 43.107559 -1.899293 40,000 21 405 -64
2021-10-05 02:55:42 GMT 43.102707 -1.901912 40,000 21 404 64
2021-10-05 02:55:39 GMT 43.095703 -1.905617 40,000 21 403 128
2021-10-05 02:55:36 GMT 43.090519 -1.908286 40,000 20 403 128
2021-10-05 02:55:32 GMT 43.084888 -1.911098 40,000 19 401 64
2021-10-05 02:55:29 GMT 43.079590 -1.913537 40,000 18 401 64
2021-10-05 02:55:26 GMT 43.072926 -1.916526 40,000 18 400 -128
2021-10-05 02:55:22 GMT 43.066547 -1.919403 40,000 18 400 -128
2021-10-05 02:55:19 GMT 43.060913 -1.921888 40,000 18 402 64
2021-10-05 02:55:15 GMT 43.054321 -1.924907 40,000 18 402 64
2021-10-05 02:55:12 GMT 43.048203 -1.927643 40,000 18 403 -64
2021-10-05 02:55:09 GMT 43.043015 -1.929953 40,000 18 403 -128
2021-10-05 02:55:05 GMT 43.036846 -1.932744 40,000 18 403 -128
2021-10-05 02:55:02 GMT 43.030838 -1.935446 40,000 18 404 64
2021-10-05 02:54:58 GMT 43.024231 -1.938433 40,000 18 404 0
2021-10-05 02:54:53 GMT 43.013763 -1.943111 40,000 18 404 -64
2021-10-05 02:54:50 GMT 43.009148 -1.945169 40,000 18 405 -64
2021-10-05 02:54:48 GMT 43.006493 -1.946346 40,000 18 405 -64
2021-10-05 02:54:43 GMT 42.994949 -1.951577 40,000 18 405 0
2021-10-05 02:54:41 GMT 42.988525 -1.954455 40,000 18 405 0
2021-10-05 02:54:38 GMT 42.988525 -1.954455 40,000 18 405 -64
2021-10-05 02:54:33 GMT 42.977509 -1.959399 40,000 18 405 64
2021-10-05 02:54:31 GMT 42.976089 -1.960038 40,000 18 405 64
2021-10-05 02:54:26 GMT 42.965424 -1.964764 40,000 18 405 0
2021-10-05 02:54:23 GMT 42.960777 -1.966880 40,000 18 404 -64
2021-10-05 02:54:21 GMT 42.957939 -1.968122 40,000 18 404 -64
2021-10-05 02:54:15 GMT 42.946583 -1.973223 40,000 18 404 64
2021-10-05 02:54:12 GMT 42.942345 -1.975119 40,000 18 404 64
2021-10-05 02:54:09 GMT 42.936108 -1.977866 40,000 18 403 64
2021-10-05 02:54:07 GMT 42.932877 -1.979328 40,000 18 403 64
2021-10-05 02:54:03 GMT 42.924957 -1.982841 40,000 18 403 64
2021-10-05 02:53:59 GMT 42.919113 -1.985452 40,000 18 402 0
2021-10-05 02:53:56 GMT 42.914692 -1.987414 40,000 18 402 0
2021-10-05 02:53:52 GMT 42.906555 -1.991080 40,000 18 403 0
2021-10-05 02:53:50 GMT 42.903381 -1.992449 40,000 18 402 -64
2021-10-05 02:53:46 GMT 42.897003 -1.995326 40,000 18 402 -64
2021-10-05 02:53:43 GMT 42.890305 -1.998298 40,000 18 402 -64
2021-10-05 02:53:39 GMT 42.883438 -2.001428 40,000 18 401 -64
2021-10-05 02:53:37 GMT 42.879868 -2.002961 40,000 18 401 -64
2021-10-05 02:53:33 GMT 42.871586 -2.006640 40,000 18 400 -64
2021-10-05 02:53:29 GMT 42.865253 -2.009517 40,000 18 400 64
2021-10-05 02:53:27 GMT 42.862793 -2.010562 40,000 18 400 64
2021-10-05 02:53:23 GMT 42.853989 -2.014487 40,000 18 399 64
2021-10-05 02:53:18 GMT 42.846588 -2.017780 40,000 18 399 0
2021-10-05 02:53:15 GMT 42.840408 -2.020526 40,000 18 399 0
2021-10-05 02:53:12 GMT 42.835373 -2.022762 40,000 18 399 0
2021-10-05 02:53:09 GMT 42.830807 -2.024820 40,000 18 399 0
2021-10-05 02:53:03 GMT 42.818527 -2.030299 40,000 18 400 -64
2021-10-05 02:52:59 GMT 42.813953 -2.032340 40,000 18 400 0
2021-10-05 02:52:55 GMT 42.807064 -2.035409 40,000 18 400 0
2021-10-05 02:52:52 GMT 42.800995 -2.038089 40,000 18 399 0
2021-10-05 02:52:50 GMT 42.796783 -2.039961 40,000 18 399 64
2021-10-05 02:52:44 GMT 42.786579 -2.044479 40,000 18 398 0
2021-10-05 02:52:40 GMT 42.778156 -2.048248 40,000 18 398 0
2021-10-05 02:52:38 GMT 42.776550 -2.048950 40,000 18 398 64
2021-10-05 02:52:35 GMT 42.772202 -2.050885 40,000 18 398 64
2021-10-05 02:52:32 GMT 42.765884 -2.053694 40,000 18 398 0
2021-10-05 02:52:30 GMT 42.761673 -2.055567 40,000 18 398 0
2021-10-05 02:52:22 GMT 42.748779 -2.061278 40,000 18 397 -64
2021-10-05 02:52:19 GMT 42.743847 -2.063450 40,000 18 397 -64
2021-10-05 02:52:12 GMT 42.731049 -2.069175 40,000 18 397 64
2021-10-05 02:52:10 GMT 42.726700 -2.071048 40,000 18 397 0
2021-10-05 02:52:02 GMT 42.713726 -2.076799 40,000 18 398 0
2021-10-05 02:52:00 GMT 42.706837 -2.079865 40,000 18 398 0
2021-10-05 02:51:52 GMT 42.696224 -2.084592 40,000 18 399 -64
2021-10-05 02:51:50 GMT 42.691681 -2.086591 40,000 18 399 0
2021-10-05 02:51:42 GMT 42.678627 -2.092385 40,000 18 400 0
2021-10-05 02:51:40 GMT 42.671951 -2.095392 40,000 18 400 -64
2021-10-05 02:51:32 GMT 42.661514 -2.099949 40,000 17 401 -64
2021-10-05 02:51:29 GMT 42.655441 -2.102668 40,000 18 401 0
2021-10-05 02:51:22 GMT 42.642639 -2.108353 40,000 18 403 -64
2021-10-05 02:51:18 GMT 42.636265 -2.111163 40,000 18 403 -64
2021-10-05 02:51:12 GMT 42.625648 -2.115890 40,000 18 402 64
2021-10-05 02:51:08 GMT 42.619366 -2.118701 40,000 18 402 0
2021-10-05 02:51:01 GMT 42.607262 -2.124002 40,000 18 402 64
2021-10-05 02:50:58 GMT 42.601227 -2.126666 40,000 18 402 64
2021-10-05 02:50:52 GMT 42.589966 -2.131660 40,000 17 401 -64
2021-10-05 02:50:48 GMT 42.583336 -2.134605 40,000 17 401 64
2021-10-05 02:50:42 GMT 42.572628 -2.139268 40,000 18 400 -64
2021-10-05 02:50:39 GMT 42.566620 -2.141897 40,000 18 400 -64
2021-10-05 02:50:32 GMT 42.554333 -2.147316 40,000 18 399 64
2021-10-05 02:50:29 GMT 42.546249 -2.150886 40,000 18 399 64
2021-10-05 02:50:21 GMT 42.536781 -2.155045 40,000 18 398 0
2021-10-05 02:50:19 GMT 42.519230 -2.162774 40,000 17 398 64
2021-10-05 02:50:12 GMT 42.519230 -2.162774 40,000 17 398 0
2021-10-05 02:50:08 GMT 42.512650 -2.165680 40,000 18 398 -64
2021-10-05 02:50:02 GMT 42.502567 -2.170119 40,000 18 398 -64
2021-10-05 02:49:58 GMT 42.494743 -2.173632 40,000 18 398 -64
2021-10-05 02:49:51 GMT 42.483124 -2.178726 40,000 17 399 -64
2021-10-05 02:49:49 GMT 42.478592 -2.180722 40,000 18 399 0
2021-10-05 02:49:47 GMT 42.473656 -2.182894 40,000 18 399 -64
2021-10-05 02:49:42 GMT 42.466625 -2.185960 40,000 18 399 -64
2021-10-05 02:49:39 GMT 42.458900 -2.189345 40,000 18 400 64
2021-10-05 02:49:32 GMT 42.449432 -2.193520 40,000 18 400 0
2021-10-05 02:49:27 GMT 42.441055 -2.197203 40,000 18 400 64
2021-10-05 02:49:22 GMT 42.431572 -2.201354 40,000 18 400 0
2021-10-05 02:49:17 GMT 42.420864 -2.206080 40,000 18 400 0
2021-10-05 02:49:11 GMT 42.413139 -2.209466 40,000 18 400 0
2021-10-05 02:49:08 GMT 42.408203 -2.211637 40,000 18 400 0
2021-10-05 02:49:06 GMT 42.403610 -2.213620 40,000 18 400 64
2021-10-05 02:49:02 GMT 42.395874 -2.217054 40,000 18 400 64
2021-10-05 02:48:58 GMT 42.390244 -2.219488 40,000 18 400 64
2021-10-05 02:48:56 GMT 42.384975 -2.221857 40,000 18 400 64
2021-10-05 02:48:51 GMT 42.377899 -2.224923 40,000 18 400 64
2021-10-05 02:48:46 GMT 42.366585 -2.229905 40,000 18 400 0
2021-10-05 02:48:42 GMT 42.360580 -2.232472 40,000 17 401 -64
2021-10-05 02:48:38 GMT 42.355637 -2.234657 40,000 17 401 -64
2021-10-05 02:48:35 GMT 42.349319 -2.237466 40,000 17 401 -64
2021-10-05 02:48:32 GMT 42.342613 -2.240381 40,000 17 401 -64
2021-10-05 02:48:27 GMT 42.336933 -2.242872 40,000 18 401 0
2021-10-05 02:48:22 GMT 42.323711 -2.248684 40,000 18 401 64
2021-10-05 02:48:18 GMT 42.320297 -2.250200 40,000 17 401 0
2021-10-05 02:48:14 GMT 42.312168 -2.253730 40,000 17 401 -64
2021-10-05 02:48:11 GMT 42.306198 -2.256380 40,000 17 401 0
2021-10-05 02:48:08 GMT 42.302078 -2.258127 40,000 17 401 0
2021-10-05 02:48:04 GMT 42.293823 -2.261778 40,000 18 400 0
2021-10-05 02:48:01 GMT 42.288193 -2.264206 40,000 18 400 0
2021-10-05 02:47:54 GMT 42.276031 -2.269551 40,000 18 400 64
2021-10-05 02:47:51 GMT 42.270218 -2.272048 40,000 17 400 64
2021-10-05 02:47:48 GMT 42.266830 -2.273546 40,000 17 400 64
2021-10-05 02:47:44 GMT 42.257191 -2.277747 40,000 17 400 0
2021-10-05 02:47:41 GMT 42.254745 -2.278789 40,000 17 400 -64
2021-10-05 02:47:38 GMT 42.249462 -2.281132 40,000 17 400 -128
2021-10-05 02:47:35 GMT 42.243919 -2.283496 40,000 18 400 -128
2021-10-05 02:47:32 GMT 42.237450 -2.286370 40,000 17 401 -64
2021-10-05 02:47:30 GMT 42.235016 -2.287403 40,000 17 401 -64
2021-10-05 02:47:26 GMT 42.226326 -2.291224 40,000 17 401 0
2021-10-05 02:47:22 GMT 42.219452 -2.294207 40,000 18 400 64
2021-10-05 02:47:20 GMT 42.217014 -2.295312 40,000 17 400 128
2021-10-05 02:47:17 GMT 42.213474 -2.296845 40,000 17 400 192
2021-10-05 02:47:15 GMT 42.208328 -2.299076 40,000 17 400 192
2021-10-05 02:47:12 GMT 42.201141 -2.302198 40,000 18 400 -128
2021-10-05 02:47:10 GMT 42.198673 -2.303296 40,000 18 400 -128
2021-10-05 02:47:06 GMT 42.189548 -2.307257 40,000 17 399 64
2021-10-05 02:47:01 GMT 42.183357 -2.309939 40,025 17 399 0
2021-10-05 02:46:58 GMT 42.178284 -2.312175 40,000 17 399 64
2021-10-05 02:46:55 GMT 42.173035 -2.314432 40,000 17 399 64
2021-10-05 02:46:52 GMT 42.167065 -2.317029 40,000 17 398 128
2021-10-05 02:46:48 GMT 42.161133 -2.319613 40,000 17 398 64
2021-10-05 02:46:46 GMT 42.156830 -2.321486 40,000 17 398 -64
2021-10-05 02:46:41 GMT 42.148407 -2.325169 40,000 17 398 -64
2021-10-05 02:46:38 GMT 42.143181 -2.327441 40,000 17 399 -64
2021-10-05 02:46:36 GMT 42.139984 -2.328852 40,000 17 399 -64
2021-10-05 02:46:31 GMT 42.129822 -2.333253 40,000 17 399 -128
2021-10-05 02:46:29 GMT 42.122047 -2.336639 40,000 18 400 -64
2021-10-05 02:46:26 GMT 42.122047 -2.336639 40,000 18 400 -64
2021-10-05 02:46:24 GMT 42.118973 -2.337966 40,000 17 400 -64
2021-10-05 02:46:21 GMT 42.112225 -2.340918 40,000 17 400 -64
2021-10-05 02:46:18 GMT 42.108444 -2.342522 40,000 17 400 -64
2021-10-05 02:46:16 GMT 42.104095 -2.344395 40,025 17 400 -64
2021-10-05 02:46:10 GMT 42.094627 -2.348519 40,025 17 399 0
2021-10-05 02:46:06 GMT 42.086609 -2.352011 40,000 17 399 192
2021-10-05 02:46:01 GMT 42.075989 -2.356630 40,000 17 399 192
2021-10-05 02:45:58 GMT 42.072189 -2.358228 40,000 17 399 64
2021-10-05 02:45:56 GMT 42.069305 -2.359506 40,000 17 399 0
2021-10-05 02:45:52 GMT 42.062805 -2.362373 40,000 17 399 -64
2021-10-05 02:45:48 GMT 42.054688 -2.365893 40,000 17 399 -64
2021-10-05 02:45:45 GMT 42.048569 -2.368490 40,000 17 400 -64
2021-10-05 02:45:39 GMT 42.039459 -2.372485 40,000 18 400 -64
2021-10-05 02:45:36 GMT 42.033459 -2.375091 40,000 17 401 0
2021-10-05 02:45:34 GMT 42.030945 -2.376168 40,000 17 403 -64
2021-10-05 02:45:30 GMT 42.022144 -2.380009 40,000 17 401 0
2021-10-05 02:45:26 GMT 42.016113 -2.382597 40,000 17 401 64
2021-10-05 02:45:24 GMT 42.012978 -2.383969 40,000 17 401 64
2021-10-05 02:45:19 GMT 42.003757 -2.387930 40,000 17 401 64
2021-10-05 02:45:16 GMT 41.998264 -2.390293 40,000 17 401 64
2021-10-05 02:45:13 GMT 41.993546 -2.392398 40,000 17 401 0
2021-10-05 02:45:06 GMT 41.980911 -2.397829 40,000 17 402 0
2021-10-05 02:45:04 GMT 41.976292 -2.399810 40,000 17 402 -64
2021-10-05 02:44:59 GMT 41.966629 -2.404008 40,000 17 402 -64
2021-10-05 02:44:56 GMT 41.963058 -2.405569 40,000 17 402 -64
2021-10-05 02:44:52 GMT 41.955624 -2.408752 40,000 17 403 -64
2021-10-05 02:44:46 GMT 41.945389 -2.413184 40,000 17 403 0
2021-10-05 02:44:41 GMT 41.936829 -2.416930 40,000 17 402 64
2021-10-05 02:44:35 GMT 41.926208 -2.421487 40,000 17 402 64
2021-10-05 02:44:33 GMT 41.923038 -2.422869 40,000 17 402 128
2021-10-05 02:44:28 GMT 41.912422 -2.427468 40,000 17 402 64
2021-10-05 02:44:25 GMT 41.908932 -2.428937 40,000 17 403 0
2021-10-05 02:44:21 GMT 41.901760 -2.432066 40,000 17 402 -64
2021-10-05 02:44:16 GMT 41.891800 -2.436346 40,000 17 402 0
2021-10-05 02:44:12 GMT 41.884026 -2.439667 40,000 17 402 128
2021-10-05 02:44:06 GMT 41.874481 -2.443771 40,000 17 402 64
2021-10-05 02:44:03 GMT 41.870224 -2.445644 40,000 17 402 64
2021-10-05 02:44:00 GMT 41.864941 -2.447907 40,000 17 402 64
2021-10-05 02:43:55 GMT 41.855675 -2.451867 40,000 17 402 0
2021-10-05 02:43:51 GMT 41.848740 -2.454869 40,000 17 402 -64
2021-10-05 02:43:45 GMT 41.837723 -2.459627 40,000 17 402 -64
2021-10-05 02:43:43 GMT 41.833328 -2.461499 40,000 17 403 -64
2021-10-05 02:43:40 GMT 41.829071 -2.463372 40,000 17 403 0
2021-10-05 02:43:36 GMT 41.820202 -2.467197 40,000 17 404 -64
2021-10-05 02:43:33 GMT 41.815704 -2.469115 40,000 17 404 -64
2021-10-05 02:43:30 GMT 41.811310 -2.470987 40,000 17 404 -64
2021-10-05 02:43:25 GMT 41.801674 -2.475181 40,000 17 405 0
2021-10-05 02:43:20 GMT 41.793457 -2.478728 40,000 17 406 0
2021-10-05 02:43:14 GMT 41.783432 -2.483035 40,000 17 407 0
2021-10-05 02:43:11 GMT 41.776245 -2.486094 40,000 17 408 0
2021-10-05 02:43:05 GMT 41.765442 -2.490775 40,000 17 408 -64
2021-10-05 02:43:02 GMT 41.760757 -2.492747 40,000 17 409 -64
2021-10-05 02:43:00 GMT 41.757523 -2.494146 40,000 17 409 0
2021-10-05 02:42:55 GMT 41.745255 -2.499452 40,000 17 409 64
2021-10-05 02:42:51 GMT 41.739155 -2.502072 40,000 17 409 0
2021-10-05 02:42:46 GMT 41.731194 -2.505458 40,000 17 409 0
2021-10-05 02:42:42 GMT 41.724911 -2.508204 40,000 17 409 64
2021-10-05 02:42:40 GMT 41.720394 -2.510120 40,000 17 409 64
2021-10-05 02:42:36 GMT 41.712620 -2.513442 40,000 17 409 0
2021-10-05 02:42:34 GMT 41.709961 -2.514621 40,000 17 408 0
2021-10-05 02:42:30 GMT 41.702728 -2.517679 40,000 17 408 64
2021-10-05 02:42:24 GMT 41.690506 -2.522923 40,000 17 407 64
2021-10-05 02:42:20 GMT 41.684551 -2.525450 40,000 17 407 64
2021-10-05 02:42:15 GMT 41.677242 -2.528580 40,000 17 407 -64
2021-10-05 02:42:12 GMT 41.670212 -2.531582 40,000 17 406 -64
2021-10-05 02:42:09 GMT 41.666676 -2.533115 40,000 17 406 0
2021-10-05 02:42:05 GMT 41.658966 -2.536406 40,000 17 406 0
2021-10-05 02:42:02 GMT 41.652195 -2.539311 40,000 17 406 -64
2021-10-05 02:42:00 GMT 41.648609 -2.540844 40,000 17 405 0
2021-10-05 02:41:55 GMT 41.640743 -2.544229 40,000 17 405 64
2021-10-05 02:41:51 GMT 41.633240 -2.547392 40,000 17 404 64
2021-10-05 02:41:44 GMT 41.621841 -2.552261 40,000 17 404 0
2021-10-05 02:41:41 GMT 41.615433 -2.555008 40,000 17 404 0
2021-10-05 02:41:39 GMT 41.612255 -2.556365 40,000 17 404 64
2021-10-05 02:41:35 GMT 41.605831 -2.559112 40,000 17 403 64
2021-10-05 02:41:31 GMT 41.597626 -2.562623 40,000 17 403 64
2021-10-05 02:41:28 GMT 41.590885 -2.565499 40,000 17 403 64
2021-10-05 02:41:24 GMT 41.587006 -2.567180 40,000 17 403 64
2021-10-05 02:41:22 GMT 41.581623 -2.569459 40,000 17 403 0
2021-10-05 02:41:20 GMT 41.578445 -2.570801 40,000 17 403 -64
2021-10-05 02:41:18 GMT 41.574875 -2.572361 40,000 17 404 -64
2021-10-05 02:41:15 GMT 41.569931 -2.574421 40,000 17 403 0
2021-10-05 02:41:11 GMT 41.562195 -2.577730 40,000 17 402 0
2021-10-05 02:41:09 GMT 41.558624 -2.579228 40,000 17 402 0
2021-10-05 02:41:04 GMT 41.551132 -2.582426 40,000 17 402 -64
2021-10-05 02:41:02 GMT 41.545589 -2.584853 40,000 17 402 0
2021-10-05 02:41:00 GMT 41.542969 -2.585907 40,000 17 402 -64
2021-10-05 02:40:55 GMT 41.534233 -2.589644 40,000 17 402 0
2021-10-05 02:40:52 GMT 41.528461 -2.592135 40,000 17 402 0
2021-10-05 02:40:49 GMT 41.523880 -2.594084 40,000 17 402 64
2021-10-05 02:40:45 GMT 41.516449 -2.597245 40,000 17 402 64
2021-10-05 02:40:41 GMT 41.507721 -2.600951 40,000 17 402 0
2021-10-05 02:40:34 GMT 41.498062 -2.605101 40,000 17 402 -64
2021-10-05 02:40:31 GMT 41.489868 -2.608566 40,000 17 403 -64
2021-10-05 02:40:28 GMT 41.485958 -2.610211 40,000 17 404 -64
2021-10-05 02:40:24 GMT 41.480419 -2.612574 40,000 17 403 -64
2021-10-05 02:40:22 GMT 41.475296 -2.614810 40,000 17 403 -64
2021-10-05 02:40:20 GMT 41.467850 -2.617992 40,000 17 404 -64
2021-10-05 02:40:18 GMT 41.463593 -2.619740 40,000 17 404 -64
2021-10-05 02:40:15 GMT 41.463593 -2.619740 40,000 17 404 -64
2021-10-05 02:40:12 GMT 41.457138 -2.622486 40,000 17 405 -64
2021-10-05 02:40:09 GMT 41.449997 -2.625545 40,000 17 405 -64
2021-10-05 02:40:05 GMT 41.445457 -2.627457 40,000 17 406 0
2021-10-05 02:40:01 GMT 41.437496 -2.630906 40,000 17 407 -64
2021-10-05 02:39:58 GMT 41.432098 -2.633161 40,000 17 407 -64
2021-10-05 02:39:55 GMT 41.427933 -2.634909 40,000 17 407 -64
2021-10-05 02:39:52 GMT 41.421062 -2.637868 40,000 17 408 -64
2021-10-05 02:39:49 GMT 41.415619 -2.640152 40,000 17 408 0
2021-10-05 02:39:45 GMT 41.409473 -2.642787 40,000 17 408 64
2021-10-05 02:39:39 GMT 41.391861 -2.650264 40,000 17 408 0
2021-10-05 02:39:35 GMT 41.391861 -2.650264 40,000 17 408 0
2021-10-05 02:39:30 GMT 41.381195 -2.654785 40,000 17 407 64
2021-10-05 02:39:28 GMT 41.378220 -2.656067 40,000 17 407 64
2021-10-05 02:39:25 GMT 41.373184 -2.658203 40,000 17 407 64
2021-10-05 02:39:22 GMT 41.367462 -2.660583 40,000 17 407 64
2021-10-05 02:39:20 GMT 41.363846 -2.662109 40,000 17 407 0
2021-10-05 02:39:17 GMT 41.359940 -2.663810 40,000 17 407 0
2021-10-05 02:39:14 GMT 41.354912 -2.665932 40,000 17 407 64
2021-10-05 02:39:11 GMT 41.347504 -2.669067 40,000 17 407 64
2021-10-05 02:39:08 GMT 41.340912 -2.671875 40,000 17 407 64
2021-10-05 02:39:04 GMT 41.336246 -2.673860 40,000 17 407 64
2021-10-05 02:39:02 GMT 41.331665 -2.675781 40,000 17 407 0
2021-10-05 02:38:58 GMT 41.325630 -2.678354 40,000 17 407 -64
2021-10-05 02:38:55 GMT 41.319397 -2.680969 40,000 17 407 64
2021-10-05 02:38:52 GMT 41.313995 -2.683286 40,000 17 407 -64
2021-10-05 02:38:50 GMT 41.311108 -2.684472 40,000 17 407 0
2021-10-05 02:38:48 GMT 41.301937 -2.688342 40,000 17 407 64
2021-10-05 02:38:45 GMT 41.301937 -2.688342 40,000 17 407 64
2021-10-05 02:38:42 GMT 41.295868 -2.690918 40,000 17 407 0
2021-10-05 02:38:40 GMT 41.293579 -2.691895 40,000 17 407 -64
2021-10-05 02:38:38 GMT 41.288727 -2.693970 40,000 17 407 64
2021-10-05 02:38:35 GMT 41.283508 -2.696167 40,000 17 407 0
2021-10-05 02:38:32 GMT 41.277451 -2.698704 40,000 17 407 0
2021-10-05 02:38:27 GMT 41.269180 -2.702209 40,000 17 407 0
2021-10-05 02:38:24 GMT 41.264877 -2.704041 40,000 17 407 -64
2021-10-05 02:38:22 GMT 41.260227 -2.706008 40,000 17 407 0
2021-10-05 02:38:17 GMT 41.250309 -2.710190 40,000 17 408 -64
2021-10-05 02:38:14 GMT 41.246201 -2.711914 40,000 17 408 -64
2021-10-05 02:38:12 GMT 41.241699 -2.713873 40,000 17 408 0
2021-10-05 02:38:10 GMT 41.239746 -2.714661 40,000 17 408 0
2021-10-05 02:38:08 GMT 41.234711 -2.716797 40,000 17 408 0
2021-10-05 02:38:05 GMT 41.229630 -2.718933 40,000 17 408 0
2021-10-05 02:38:02 GMT 41.223175 -2.721680 40,000 17 408 0
2021-10-05 02:37:58 GMT 41.217770 -2.723923 40,000 17 408 64
2021-10-05 02:37:55 GMT 41.211391 -2.726607 40,000 17 408 -64
2021-10-05 02:37:52 GMT 41.205917 -2.728943 40,000 17 408 -64
2021-10-05 02:37:48 GMT 41.197266 -2.732605 40,000 17 407 0
2021-10-05 02:37:45 GMT 41.193470 -2.734160 40,000 17 407 64
2021-10-05 02:37:42 GMT 41.187603 -2.736657 40,000 17 406 64
2021-10-05 02:37:38 GMT 41.181320 -2.739279 40,000 17 406 0
2021-10-05 02:37:35 GMT 41.175247 -2.741821 40,000 17 405 0
2021-10-05 02:37:32 GMT 41.169868 -2.744085 40,000 17 405 64
2021-10-05 02:37:30 GMT 41.167923 -2.744934 40,000 17 405 -64
2021-10-05 02:37:28 GMT 41.163666 -2.746704 40,000 17 405 0
2021-10-05 02:37:25 GMT 41.158081 -2.749084 40,000 17 405 -64
2021-10-05 02:37:22 GMT 41.151489 -2.751831 40,000 17 405 -64
2021-10-05 02:37:18 GMT 41.144730 -2.754697 40,000 17 405 -64
2021-10-05 02:37:15 GMT 41.139359 -2.756958 40,000 17 405 -64
2021-10-05 02:37:11 GMT 41.133278 -2.759503 40,000 17 405 0
2021-10-05 02:37:09 GMT 41.130798 -2.760559 40,000 17 405 0
2021-10-05 02:37:05 GMT 41.122013 -2.764248 40,000 17 405 0
2021-10-05 02:37:02 GMT 41.115784 -2.766907 40,000 17 405 0
2021-10-05 02:36:59 GMT 41.113262 -2.767930 40,000 17 405 0
2021-10-05 02:36:55 GMT 41.103607 -2.772034 40,000 17 405 -64
2021-10-05 02:36:52 GMT 41.098366 -2.774235 40,000 17 405 -64
2021-10-05 02:36:48 GMT 41.091660 -2.777039 40,000 17 405 64
2021-10-05 02:36:44 GMT 41.082916 -2.780762 40,000 17 405 128
2021-10-05 02:36:41 GMT 41.079987 -2.781921 40,000 17 405 64
2021-10-05 02:36:39 GMT 41.077507 -2.782974 40,000 17 405 64
2021-10-05 02:36:37 GMT 41.072983 -2.784912 40,000 17 405 0
2021-10-05 02:36:34 GMT 41.066437 -2.787659 40,000 17 405 0
2021-10-05 02:36:32 GMT 41.062866 -2.789124 40,000 17 405 0
2021-10-05 02:36:28 GMT 41.053951 -2.792899 40,000 17 404 64
2021-10-05 02:36:24 GMT 41.049717 -2.794647 40,000 17 404 64
2021-10-05 02:36:21 GMT 41.045059 -2.796631 40,000 17 404 0
2021-10-05 02:36:19 GMT 41.041149 -2.798268 40,000 17 404 0
2021-10-05 02:36:17 GMT 41.036869 -2.800078 40,000 17 404 0
2021-10-05 02:36:14 GMT 41.032585 -2.801826 40,000 17 404 64
2021-10-05 02:36:10 GMT 41.024368 -2.805298 40,000 17 405 64
2021-10-05 02:36:07 GMT 41.019131 -2.807506 40,000 17 405 -64
2021-10-05 02:36:04 GMT 41.014481 -2.809448 40,000 17 405 -64
2021-10-05 02:36:01 GMT 41.008667 -2.811890 40,000 17 406 -64
2021-10-05 02:35:59 GMT 41.006191 -2.812937 40,000 17 406 -64
2021-10-05 02:35:57 GMT 41.000153 -2.815491 40,000 17 407 -64
2021-10-05 02:35:54 GMT 40.996628 -2.816956 40,000 17 407 -64
2021-10-05 02:35:50 GMT 40.988617 -2.820312 40,000 17 408 -128
2021-10-05 02:35:47 GMT 40.982590 -2.822800 40,000 17 408 -64
2021-10-05 02:35:44 GMT 40.978863 -2.824360 40,000 17 409 64
2021-10-05 02:35:40 GMT 40.970951 -2.827731 40,000 17 409 64
2021-10-05 02:35:37 GMT 40.964859 -2.830261 40,000 17 409 64
2021-10-05 02:35:33 GMT 40.959404 -2.832538 40,000 17 409 128
2021-10-05 02:35:30 GMT 40.952545 -2.835388 40,000 17 409 64
2021-10-05 02:35:28 GMT 40.946465 -2.837968 40,000 17 409 -64
2021-10-05 02:35:25 GMT 40.942787 -2.839466 40,000 17 409 -64
2021-10-05 02:35:22 GMT 40.938904 -2.841125 40,000 17 409 -64
2021-10-05 02:35:20 GMT 40.934464 -2.842957 40,000 17 409 -64
2021-10-05 02:35:18 GMT 40.930161 -2.844788 40,000 17 409 -64
2021-10-05 02:35:14 GMT 40.924393 -2.847168 40,000 17 409 64
2021-10-05 02:35:11 GMT 40.918953 -2.849454 40,000 17 409 64
2021-10-05 02:35:09 GMT 40.914623 -2.851264 40,000 17 409 0
2021-10-05 02:35:06 GMT 40.908463 -2.853821 40,000 17 410 -64
2021-10-05 02:35:03 GMT 40.903126 -2.856071 40,000 17 410 -64
2021-10-05 02:35:00 GMT 40.898003 -2.858193 40,000 17 410 0
2021-10-05 02:34:58 GMT 40.894180 -2.859802 40,000 17 410 0
2021-10-05 02:34:54 GMT 40.888275 -2.862244 40,000 17 408 64
2021-10-05 02:34:49 GMT 40.877800 -2.866620 40,000 17 409 64
2021-10-05 02:34:46 GMT 40.872028 -2.869055 40,000 17 408 64
2021-10-05 02:34:43 GMT 40.868820 -2.870361 40,000 17 408 64
2021-10-05 02:34:40 GMT 40.862274 -2.873108 40,000 17 407 64
2021-10-05 02:34:36 GMT 40.854012 -2.876545 40,000 17 407 64
2021-10-05 02:34:33 GMT 40.850521 -2.878043 40,000 17 407 64
2021-10-05 02:34:30 GMT 40.844330 -2.880615 40,000 17 408 64
2021-10-05 02:34:28 GMT 40.840668 -2.882080 40,000 17 408 0
2021-10-05 02:34:24 GMT 40.832748 -2.885437 40,000 17 408 -64
2021-10-05 02:34:19 GMT 40.820480 -2.890503 40,000 17 409 -64
2021-10-05 02:34:17 GMT 40.820480 -2.890503 40,000 17 409 0
2021-10-05 02:34:14 GMT 40.815792 -2.892463 40,000 17 410 -64
2021-10-05 02:34:10 GMT 40.807480 -2.895935 40,000 17 410 -64
2021-10-05 02:34:07 GMT 40.801071 -2.898621 40,000 17 410 -64
2021-10-05 02:34:04 GMT 40.796631 -2.900452 40,000 17 411 0
2021-10-05 02:34:00 GMT 40.790176 -2.903137 40,000 17 411 64
2021-10-05 02:33:56 GMT 40.783951 -2.905759 40,000 17 411 64
2021-10-05 02:33:53 GMT 40.777431 -2.908443 40,000 17 411 64
2021-10-05 02:33:50 GMT 40.772003 -2.910706 40,000 17 411 -64
2021-10-05 02:33:47 GMT 40.760513 -2.915527 40,000 17 412 -64
2021-10-05 02:33:44 GMT 40.760513 -2.915527 40,000 17 412 -64
2021-10-05 02:33:40 GMT 40.753410 -2.918431 40,000 17 412 0
2021-10-05 02:33:36 GMT 40.745773 -2.921631 40,000 17 413 -64
2021-10-05 02:33:33 GMT 40.741028 -2.923612 40,000 17 414 -64
2021-10-05 02:33:29 GMT 40.734100 -2.926514 40,000 17 414 -64
2021-10-05 02:33:26 GMT 40.727554 -2.929199 40,000 17 415 -64
2021-10-05 02:33:23 GMT 40.723160 -2.931030 40,000 17 415 -64
2021-10-05 02:33:20 GMT 40.715473 -2.934224 40,000 17 415 0
2021-10-05 02:33:17 GMT 40.709698 -2.936658 40,000 17 416 64
2021-10-05 02:33:14 GMT 40.704437 -2.938843 40,000 17 416 64
2021-10-05 02:33:10 GMT 40.698944 -2.941101 40,000 17 416 64
2021-10-05 02:33:06 GMT 40.690842 -2.944458 40,000 17 416 64
2021-10-05 02:33:03 GMT 40.685352 -2.946708 40,000 17 416 64
2021-10-05 02:32:59 GMT 40.679077 -2.949341 40,000 17 416 0
2021-10-05 02:32:56 GMT 40.672485 -2.952087 40,000 17 417 -64
2021-10-05 02:32:53 GMT 40.667496 -2.954163 40,000 17 417 -64
2021-10-05 02:32:50 GMT 40.661842 -2.956508 40,000 17 417 0
2021-10-05 02:32:46 GMT 40.653351 -2.960022 40,000 17 417 -64
2021-10-05 02:32:43 GMT 40.648575 -2.962001 40,000 17 417 -64
2021-10-05 02:32:40 GMT 40.643051 -2.964294 40,000 17 417 -64
2021-10-05 02:32:36 GMT 40.636799 -2.966870 40,000 17 417 -64
2021-10-05 02:32:33 GMT 40.630188 -2.969617 40,000 17 416 0
2021-10-05 02:32:29 GMT 40.622452 -2.972839 40,000 17 416 0
2021-10-05 02:32:26 GMT 40.617325 -2.974976 40,000 17 416 0
2021-10-05 02:32:23 GMT 40.611801 -2.977232 40,000 17 416 64
2021-10-05 02:32:20 GMT 40.607025 -2.979187 40,000 17 416 128
2021-10-05 02:32:16 GMT 40.598236 -2.982849 40,000 17 415 64
2021-10-05 02:32:13 GMT 40.593643 -2.984723 40,000 17 415 64
2021-10-05 02:32:08 GMT 40.583961 -2.988718 40,000 17 415 0
2021-10-05 02:32:04 GMT 40.577728 -2.991333 40,000 17 415 0
2021-10-05 02:32:00 GMT 40.570404 -2.994385 40,000 17 415 0
2021-10-05 02:31:58 GMT 40.566833 -2.995850 40,000 17 416 0
2021-10-05 02:31:53 GMT 40.556442 -3.000122 40,000 17 416 -64
2021-10-05 02:31:50 GMT 40.551655 -3.002077 40,000 17 416 -64
2021-10-05 02:31:48 GMT 40.547279 -3.003949 40,000 17 416 -64
2021-10-05 02:31:44 GMT 40.540283 -3.006836 40,000 17 416 0
2021-10-05 02:31:40 GMT 40.532959 -3.009827 40,000 17 416 0
2021-10-05 02:31:38 GMT 40.529297 -3.011353 40,000 17 416 0
2021-10-05 02:31:34 GMT 40.522327 -3.014187 40,000 17 415 0
2021-10-05 02:31:32 GMT 40.518833 -3.015685 40,000 17 414 -64
2021-10-05 02:31:29 GMT 40.514275 -3.017557 40,000 17 415 -64
2021-10-05 02:31:24 GMT 40.503662 -3.021912 40,000 17 414 0
2021-10-05 02:31:22 GMT 40.501099 -3.022988 40,000 17 414 0
2021-10-05 02:31:19 GMT 40.495605 -3.025208 40,000 17 414 64
2021-10-05 02:31:17 GMT 40.491989 -3.026733 40,000 17 413 0
2021-10-05 02:31:13 GMT 40.484665 -3.029724 40,000 17 413 64
2021-10-05 02:31:10 GMT 40.478119 -3.032410 40,000 17 413 64
2021-10-05 02:31:08 GMT 40.474098 -3.034099 40,000 17 413 64
2021-10-05 02:31:03 GMT 40.464249 -3.038147 40,000 17 413 0
2021-10-05 02:31:00 GMT 40.459667 -3.040029 40,000 17 414 0
2021-10-05 02:30:56 GMT 40.454178 -3.042297 40,000 17 414 0
2021-10-05 02:30:53 GMT 40.448181 -3.044739 40,000 17 414 -64
2021-10-05 02:30:50 GMT 40.441231 -3.047645 40,000 17 415 -64
2021-10-05 02:30:47 GMT 40.436646 -3.049500 40,000 17 415 -64
2021-10-05 02:30:43 GMT 40.429501 -3.052451 40,000 17 415 -64
2021-10-05 02:30:39 GMT 40.422890 -3.055198 40,000 17 416 -64
2021-10-05 02:30:37 GMT 40.417770 -3.057320 40,000 17 416 -64
2021-10-05 02:30:34 GMT 40.411949 -3.059692 40,000 17 417 -64
2021-10-05 02:30:32 GMT 40.408180 -3.061253 40,000 17 417 -64
2021-10-05 02:30:29 GMT 40.405247 -3.062439 40,000 17 417 0
2021-10-05 02:30:26 GMT 40.399109 -3.065002 40,000 17 417 0
2021-10-05 02:30:23 GMT 40.393112 -3.067444 40,000 17 417 0
2021-10-05 02:30:19 GMT 40.385509 -3.070554 40,000 17 418 0
2021-10-05 02:30:16 GMT 40.379196 -3.073181 40,000 17 418 0
2021-10-05 02:30:13 GMT 40.373638 -3.075485 40,000 17 418 0
2021-10-05 02:30:09 GMT 40.366653 -3.078369 40,000 17 417 64
2021-10-05 02:30:04 GMT 40.356995 -3.082336 40,000 17 417 0
2021-10-05 02:30:02 GMT 40.354111 -3.083496 40,000 17 417 -64
2021-10-05 02:29:59 GMT 40.347851 -3.086097 40,000 17 417 -64
2021-10-05 02:29:54 GMT 40.338730 -3.089783 40,000 17 417 64
2021-10-05 02:29:52 GMT 40.331223 -3.092896 40,000 17 417 64
2021-10-05 02:29:49 GMT 40.331223 -3.092896 40,000 17 417 64
2021-10-05 02:29:46 GMT 40.323456 -3.096022 40,000 17 417 0
2021-10-05 02:29:43 GMT 40.317589 -3.098457 40,000 17 417 64
2021-10-05 02:29:39 GMT 40.310978 -3.101141 40,000 17 417 64
2021-10-05 02:29:34 GMT 40.301529 -3.105073 40,000 17 417 -64
2021-10-05 02:29:32 GMT 40.298813 -3.106140 40,000 17 417 -64
2021-10-05 02:29:28 GMT 40.291489 -3.109131 40,000 17 420 0
2021-10-05 02:29:24 GMT 40.283340 -3.112488 40,000 17 417 0
2021-10-05 02:29:21 GMT 40.273411 -3.116559 40,000 17 417 0
2021-10-05 02:29:18 GMT 40.273411 -3.116559 40,000 17 418 64
2021-10-05 02:29:14 GMT 40.264938 -3.120056 40,000 17 418 64
2021-10-05 02:29:12 GMT 40.262054 -3.121216 40,000 17 418 -64
2021-10-05 02:29:09 GMT 40.254978 -3.124112 40,000 17 418 -64
2021-10-05 02:29:06 GMT 40.250153 -3.126099 40,000 17 419 -64
2021-10-05 02:29:03 GMT 40.244595 -3.128357 40,000 17 419 -64
2021-10-05 02:29:00 GMT 40.239429 -3.130479 40,000 17 419 -64
2021-10-05 02:28:57 GMT 40.234261 -3.132602 40,000 17 419 0
2021-10-05 02:28:54 GMT 40.227951 -3.135193 40,000 17 420 0
2021-10-05 02:28:52 GMT 40.224335 -3.136658 40,000 17 420 0
2021-10-05 02:28:49 GMT 40.220158 -3.138407 40,000 17 420 0
2021-10-05 02:28:46 GMT 40.212387 -3.141541 40,000 17 420 0
2021-10-05 02:28:41 GMT 40.204700 -3.144712 40,000 17 420 64
2021-10-05 02:28:38 GMT 40.193481 -3.149268 40,000 17 420 64
2021-10-05 02:28:35 GMT 40.193481 -3.149268 40,000 17 420 0
2021-10-05 02:28:31 GMT 40.186432 -3.152161 40,000 17 420 0
2021-10-05 02:28:28 GMT 40.177933 -3.155635 40,000 17 420 -64
2021-10-05 02:28:25 GMT 40.174713 -3.156982 40,000 17 420 -64
2021-10-05 02:28:22 GMT 40.167892 -3.159729 40,000 17 420 0
2021-10-05 02:28:19 GMT 40.164917 -3.160950 40,000 17 420 0
2021-10-05 02:28:15 GMT 40.156425 -3.164437 40,000 17 420 0
2021-10-05 02:28:11 GMT 40.149025 -3.167433 40,000 17 420 64
2021-10-05 02:28:08 GMT 40.142715 -3.169983 40,000 17 419 -64
2021-10-05 02:28:05 GMT 40.137154 -3.172302 40,000 17 419 -64
2021-10-05 02:28:02 GMT 40.132732 -3.174112 40,000 17 419 -64
2021-10-05 02:27:59 GMT 40.127289 -3.176270 40,000 17 419 -64
2021-10-05 02:27:57 GMT 40.121605 -3.178607 40,000 17 419 -64
2021-10-05 02:27:52 GMT 40.107498 -3.184350 40,000 17 419 -64
2021-10-05 02:27:49 GMT 40.107498 -3.184350 40,000 17 419 64
2021-10-05 02:27:46 GMT 40.101929 -3.186646 40,000 17 419 64
2021-10-05 02:27:42 GMT 40.094559 -3.189636 40,000 17 419 64
2021-10-05 02:27:39 GMT 40.089386 -3.191772 40,000 17 419 0
2021-10-05 02:27:35 GMT 40.080688 -3.195312 40,000 17 419 64
2021-10-05 02:27:32 GMT 40.076202 -3.197144 40,000 17 419 64
2021-10-05 02:27:29 GMT 40.069141 -3.200018 40,000 17 419 0
2021-10-05 02:27:25 GMT 40.062389 -3.202764 40,000 17 419 0
2021-10-05 02:27:22 GMT 40.058304 -3.204407 40,000 17 419 -64
2021-10-05 02:27:19 GMT 40.053131 -3.206482 40,000 17 419 64
2021-10-05 02:27:17 GMT 40.048424 -3.208445 40,000 17 419 64
2021-10-05 02:27:12 GMT 40.039261 -3.212158 40,000 17 419 -64
2021-10-05 02:27:09 GMT 40.034225 -3.214188 40,000 17 419 -64
2021-10-05 02:27:07 GMT 40.030643 -3.215623 40,000 17 419 -64
2021-10-05 02:27:02 GMT 40.020538 -3.219788 40,000 17 420 -64
2021-10-05 02:26:59 GMT 40.016628 -3.221366 40,000 17 420 0
2021-10-05 02:26:56 GMT 40.010880 -3.223694 40,000 17 420 0
2021-10-05 02:26:52 GMT 40.002731 -3.226990 40,000 17 420 0
2021-10-05 02:26:49 GMT 39.997169 -3.229294 40,000 17 420 0
2021-10-05 02:26:47 GMT 39.992748 -3.231104 40,000 17 420 0
2021-10-05 02:26:43 GMT 39.986435 -3.233643 40,000 17 420 0
2021-10-05 02:26:39 GMT 39.979202 -3.236572 40,000 17 419 0
2021-10-05 02:26:36 GMT 39.972382 -3.239319 40,000 17 419 0
2021-10-05 02:26:32 GMT 39.964966 -3.242371 40,000 17 419 -64
2021-10-05 02:26:29 GMT 39.954620 -3.246521 40,000 17 419 -64
2021-10-05 02:26:27 GMT 39.954620 -3.246521 40,000 17 419 -64
2021-10-05 02:26:22 GMT 39.946472 -3.249817 40,000 17 417 64
2021-10-05 02:26:19 GMT 39.942516 -3.251454 40,000 17 417 64
2021-10-05 02:26:16 GMT 39.935394 -3.254333 40,000 17 417 -64
2021-10-05 02:26:13 GMT 39.930954 -3.256104 40,000 17 418 -64
2021-10-05 02:26:09 GMT 39.918034 -3.261353 40,000 17 417 64
2021-10-05 02:26:06 GMT 39.918034 -3.261353 40,000 17 417 64
2021-10-05 02:26:03 GMT 39.912121 -3.263733 40,000 17 417 64
2021-10-05 02:25:59 GMT 39.905136 -3.266582 40,000 17 417 64
2021-10-05 02:25:56 GMT 39.898499 -3.269269 40,000 17 417 64
2021-10-05 02:25:52 GMT 39.892242 -3.271790 40,000 17 417 64
2021-10-05 02:25:49 GMT 39.886688 -3.274045 40,000 17 417 64
2021-10-05 02:25:46 GMT 39.880417 -3.276550 40,000 17 417 0
2021-10-05 02:25:42 GMT 39.874508 -3.278931 40,000 17 417 0
2021-10-05 02:25:39 GMT 39.867847 -3.281677 40,000 17 417 0
2021-10-05 02:25:36 GMT 39.861286 -3.284302 40,000 17 417 64
2021-10-05 02:25:31 GMT 39.852348 -3.287903 40,000 17 419 0
2021-10-05 02:25:28 GMT 39.846390 -3.290344 40,000 17 419 -64
2021-10-05 02:25:25 GMT 39.842060 -3.292053 40,000 17 419 -64
2021-10-05 02:25:22 GMT 39.836800 -3.294189 40,000 17 419 -64
2021-10-05 02:25:19 GMT 39.831585 -3.296326 40,000 17 419 0
2021-10-05 02:25:16 GMT 39.823837 -3.299481 40,000 17 420 -64
2021-10-05 02:25:11 GMT 39.815292 -3.302917 40,000 17 420 0
2021-10-05 02:25:08 GMT 39.811611 -3.304382 40,000 17 420 0
2021-10-05 02:25:05 GMT 39.803879 -3.307542 40,000 17 420 0
2021-10-05 02:25:01 GMT 39.796017 -3.310730 40,000 17 420 -64
2021-10-05 02:24:58 GMT 39.792664 -3.312079 40,000 17 420 -64
2021-10-05 02:24:55 GMT 39.785728 -3.314819 40,000 17 420 -64
2021-10-05 02:24:52 GMT 39.780212 -3.317095 40,000 17 420 0
2021-10-05 02:24:48 GMT 39.773861 -3.319641 40,000 17 420 -64
2021-10-05 02:24:45 GMT 39.768265 -3.321872 40,000 17 419 -64
2021-10-05 02:24:42 GMT 39.761246 -3.324768 40,000 17 419 0
2021-10-05 02:24:38 GMT 39.755238 -3.327148 40,000 17 418 64
2021-10-05 02:24:35 GMT 39.746750 -3.330589 40,000 17 418 0
2021-10-05 02:24:29 GMT 39.738247 -3.333984 40,000 17 417 0
2021-10-05 02:24:27 GMT 39.734161 -3.335664 40,000 17 417 0
2021-10-05 02:24:24 GMT 39.728348 -3.337993 40,000 17 417 64
2021-10-05 02:24:21 GMT 39.723583 -3.339905 40,000 17 417 64
2021-10-05 02:24:18 GMT 39.718094 -3.342113 40,000 17 417 64
2021-10-05 02:24:14 GMT 39.709900 -3.345397 40,000 17 416 0
2021-10-05 02:24:09 GMT 39.700974 -3.348979 40,000 17 416 0
2021-10-05 02:24:07 GMT 39.696957 -3.350647 40,000 17 416 0
2021-10-05 02:24:04 GMT 39.691406 -3.352860 40,000 17 416 0
2021-10-05 02:24:01 GMT 39.685921 -3.355042 40,000 17 416 0
2021-10-05 02:23:57 GMT 39.680374 -3.357279 40,000 17 416 64
2021-10-05 02:23:54 GMT 39.672318 -3.360503 40,000 17 416 0
2021-10-05 02:23:49 GMT 39.663952 -3.363892 40,000 17 416 0
2021-10-05 02:23:47 GMT 39.659042 -3.365877 40,000 17 415 0
2021-10-05 02:23:43 GMT 39.653183 -3.368205 40,000 17 415 0
2021-10-05 02:23:38 GMT 39.642582 -3.372498 40,000 17 415 0
2021-10-05 02:23:34 GMT 39.637024 -3.374713 40,000 17 415 0
2021-10-05 02:23:31 GMT 39.630013 -3.377502 40,000 17 415 0
2021-10-05 02:23:28 GMT 39.620865 -3.381222 40,000 17 415 0
2021-10-05 02:23:25 GMT 39.620865 -3.381222 40,000 17 415 0
2021-10-05 02:23:22 GMT 39.615692 -3.383252 40,000 17 415 -64
2021-10-05 02:23:19 GMT 39.609436 -3.385803 40,000 17 415 -64
2021-10-05 02:23:16 GMT 39.603928 -3.388028 40,000 17 416 -64
2021-10-05 02:23:13 GMT 39.596558 -3.390954 40,000 17 416 0
2021-10-05 02:23:08 GMT 39.587769 -3.394477 40,000 17 416 64
2021-10-05 02:23:05 GMT 39.577827 -3.398499 40,000 17 416 0
2021-10-05 02:23:02 GMT 39.577827 -3.398499 40,000 17 416 0
2021-10-05 02:22:59 GMT 39.571964 -3.400818 40,000 17 416 -64
2021-10-05 02:22:57 GMT 39.568237 -3.402344 40,000 17 416 0
2021-10-05 02:22:53 GMT 39.562820 -3.404508 40,000 17 416 0
2021-10-05 02:22:49 GMT 39.553528 -3.408203 40,000 17 416 0
2021-10-05 02:22:46 GMT 39.547989 -3.410419 40,000 17 416 0
2021-10-05 02:22:43 GMT 39.544029 -3.412048 40,000 17 416 0
2021-10-05 02:22:39 GMT 39.535046 -3.415649 40,000 17 416 0
2021-10-05 02:22:35 GMT 39.528809 -3.418121 40,000 17 416 0
2021-10-05 02:22:32 GMT 39.521439 -3.421107 40,000 17 416 0
2021-10-05 02:22:29 GMT 39.516998 -3.422898 40,000 17 416 64
2021-10-05 02:22:26 GMT 39.511826 -3.424928 40,000 17 416 64
2021-10-05 02:22:23 GMT 39.504089 -3.428040 40,000 17 416 0
2021-10-05 02:22:19 GMT 39.498222 -3.430420 40,000 17 416 -64
2021-10-05 02:22:17 GMT 39.495667 -3.431436 40,000 17 416 0
2021-10-05 02:22:13 GMT 39.487934 -3.434570 40,000 17 416 64
2021-10-05 02:22:09 GMT 39.480194 -3.437646 40,000 17 416 0
2021-10-05 02:22:07 GMT 39.476299 -3.439209 40,000 17 416 -64
2021-10-05 02:22:03 GMT 39.469894 -3.441766 40,000 17 416 0
2021-10-05 02:22:00 GMT 39.464520 -3.443909 40,000 17 416 64
2021-10-05 02:21:57 GMT 39.458469 -3.446350 40,000 17 415 64
2021-10-05 02:21:54 GMT 39.445248 -3.451660 40,000 17 415 0
2021-10-05 02:21:51 GMT 39.445248 -3.451660 40,000 17 415 -64
2021-10-05 02:21:47 GMT 39.438637 -3.454285 40,000 17 415 0
2021-10-05 02:21:43 GMT 39.433136 -3.456454 40,000 16 415 64
2021-10-05 02:21:40 GMT 39.426952 -3.458801 40,000 15 415 0
2021-10-05 02:21:37 GMT 39.422791 -3.460275 40,000 14 415 0
2021-10-05 02:21:35 GMT 39.417362 -3.462097 40,000 13 413 0
2021-10-05 02:21:32 GMT 39.412754 -3.463501 40,000 12 413 -64
2021-10-05 02:21:28 GMT 39.406006 -3.465393 40,000 11 413 -64
2021-10-05 02:21:25 GMT 39.398510 -3.467224 40,000 9 412 0
2021-10-05 02:21:22 GMT 39.394924 -3.468018 40,000 8 411 0
2021-10-05 02:21:18 GMT 39.387241 -3.469543 40,000 7 411 0
2021-10-05 02:21:16 GMT 39.382729 -3.470337 40,000 6 410 -64
2021-10-05 02:21:12 GMT 39.374535 -3.471558 40,000 4 409 0
2021-10-05 02:21:09 GMT 39.362686 -3.472695 40,000 4 409 0
2021-10-05 02:21:06 GMT 39.362686 -3.472695 40,000 3 408 64
2021-10-05 02:21:02 GMT 39.356094 -3.473113 40,000 1 408 0
2021-10-05 02:20:58 GMT 39.348743 -3.473328 40,000 0 408 0
2021-10-05 02:20:55 GMT 39.340805 -3.473531 40,000 0 408 0
2021-10-05 02:20:51 GMT 39.335152 -3.473694 40,000 0 408 0
2021-10-05 02:20:48 GMT 39.330231 -3.473769 40,000 0 408 0
2021-10-05 02:20:44 GMT 39.321167 -3.473949 40,000 0 408 64
2021-10-05 02:20:41 GMT 39.316437 -3.474060 40,000 0 408 64
2021-10-05 02:20:37 GMT 39.308304 -3.474247 40,000 0 409 0
2021-10-05 02:20:34 GMT 39.303772 -3.474367 40,000 0 409 0
2021-10-05 02:20:31 GMT 39.298840 -3.474487 40,000 0 409 0
2021-10-05 02:20:27 GMT 39.289017 -3.474670 40,000 0 409 0
2021-10-05 02:20:24 GMT 39.283356 -3.474785 40,000 0 410 -64
2021-10-05 02:20:21 GMT 39.279556 -3.474904 40,000 0 410 -64
2021-10-05 02:20:17 GMT 39.271957 -3.475023 40,000 0 410 -64
2021-10-05 02:20:15 GMT 39.267426 -3.475143 40,000 0 410 -64
2021-10-05 02:20:11 GMT 39.259827 -3.475322 40,000 0 410 0
2021-10-05 02:20:07 GMT 39.253006 -3.475441 40,000 0 410 64
2021-10-05 02:20:04 GMT 39.246185 -3.475620 40,000 0 410 64
2021-10-05 02:20:01 GMT 39.240875 -3.475740 40,000 0 410 64
2021-10-05 02:19:58 GMT 39.234055 -3.475859 40,000 0 411 0
2021-10-05 02:19:55 GMT 39.228546 -3.476013 40,000 0 411 -64
2021-10-05 02:19:51 GMT 39.221237 -3.476158 40,000 0 411 -64
2021-10-05 02:19:48 GMT 39.214676 -3.476318 40,000 0 411 -64
2021-10-05 02:19:44 GMT 39.207458 -3.476456 40,000 0 411 64
2021-10-05 02:19:40 GMT 39.200245 -3.476624 40,000 0 411 64
2021-10-05 02:19:37 GMT 39.188461 -3.476874 40,000 0 411 -64
2021-10-05 02:19:34 GMT 39.188461 -3.476874 40,000 0 411 -64
2021-10-05 02:19:30 GMT 39.181595 -3.476994 40,000 0 411 64
2021-10-05 02:19:27 GMT 39.175896 -3.477112 40,000 0 411 64
2021-10-05 02:19:23 GMT 39.168686 -3.477292 40,000 0 411 0
2021-10-05 02:19:20 GMT 39.162735 -3.477412 40,000 0 411 0
2021-10-05 02:19:16 GMT 39.154575 -3.477600 40,000 0 411 0
2021-10-05 02:19:12 GMT 39.147308 -3.477770 40,000 0 411 0
2021-10-05 02:19:09 GMT 39.143124 -3.477844 40,000 0 411 -64
2021-10-05 02:19:05 GMT 39.133255 -3.478088 40,000 0 411 0
2021-10-05 02:19:01 GMT 39.126846 -3.478188 40,000 0 411 64
2021-10-05 02:18:57 GMT 39.117287 -3.478394 40,000 0 411 0
2021-10-05 02:18:54 GMT 39.113113 -3.478486 40,000 0 411 0
2021-10-05 02:18:50 GMT 39.106293 -3.478666 40,000 0 411 0
2021-10-05 02:18:47 GMT 39.099037 -3.478821 40,000 0 411 -64
2021-10-05 02:18:44 GMT 39.094070 -3.478904 40,000 0 411 0
2021-10-05 02:18:41 GMT 39.088379 -3.479004 40,000 0 411 64
2021-10-05 02:18:37 GMT 39.079605 -3.479203 40,000 0 412 -64
2021-10-05 02:18:33 GMT 39.072552 -3.479370 40,000 0 412 -64
2021-10-05 02:18:29 GMT 39.066311 -3.479492 40,000 0 412 -64
2021-10-05 02:18:26 GMT 39.059563 -3.479675 40,000 0 412 -64
2021-10-05 02:18:23 GMT 39.052917 -3.479800 40,000 0 412 -64
2021-10-05 02:18:19 GMT 39.046432 -3.479919 40,000 0 413 64
2021-10-05 02:18:14 GMT 39.036209 -3.480158 40,000 0 413 64
2021-10-05 02:18:11 GMT 39.031631 -3.480218 40,000 0 413 -64
2021-10-05 02:18:08 GMT 39.026604 -3.480347 40,000 0 413 -64
2021-10-05 02:18:05 GMT 39.018967 -3.480530 40,000 0 413 -64
2021-10-05 02:18:01 GMT 39.012451 -3.480636 40,000 0 414 0
2021-10-05 02:17:58 GMT 39.007469 -3.480774 40,000 0 414 64
2021-10-05 02:17:54 GMT 38.998032 -3.480934 40,000 0 414 0
2021-10-05 02:17:50 GMT 38.990250 -3.481114 40,000 0 414 0
2021-10-05 02:17:47 GMT 38.987183 -3.481173 40,000 0 414 0
2021-10-05 02:17:44 GMT 38.978119 -3.481412 40,000 0 414 0
2021-10-05 02:17:41 GMT 38.974960 -3.481472 40,000 0 413 0
2021-10-05 02:17:38 GMT 38.968460 -3.481628 40,000 0 413 0
2021-10-05 02:17:33 GMT 38.958496 -3.481812 40,000 0 413 64
2021-10-05 02:17:29 GMT 38.951653 -3.481995 40,000 0 413 0
2021-10-05 02:17:26 GMT 38.936432 -3.482300 40,000 0 413 -64
2021-10-05 02:17:21 GMT 38.936432 -3.482300 40,000 0 413 -64
2021-10-05 02:17:18 GMT 38.929825 -3.482427 40,000 0 413 0
2021-10-05 02:17:13 GMT 38.919983 -3.482666 40,000 0 413 0
2021-10-05 02:17:10 GMT 38.915314 -3.482785 40,000 0 413 0
2021-10-05 02:17:07 GMT 38.909573 -3.482910 40,000 0 413 64
2021-10-05 02:17:03 GMT 38.901981 -3.483032 40,000 0 413 0
2021-10-05 02:17:00 GMT 38.895493 -3.483203 40,000 0 413 -64
2021-10-05 02:16:57 GMT 38.890869 -3.483263 40,000 0 413 -64
2021-10-05 02:16:54 GMT 38.883316 -3.483442 40,000 0 413 0
2021-10-05 02:16:51 GMT 38.879471 -3.483502 40,000 0 413 0
2021-10-05 02:16:47 GMT 38.870747 -3.483704 40,000 0 413 -64
2021-10-05 02:16:42 GMT 38.858410 -3.484009 40,000 0 413 64
2021-10-05 02:16:37 GMT 38.851913 -3.484099 40,000 0 413 64
2021-10-05 02:16:34 GMT 38.847004 -3.484253 40,000 0 413 64
2021-10-05 02:16:31 GMT 38.840424 -3.484338 40,000 0 413 0
2021-10-05 02:16:27 GMT 38.833317 -3.484497 40,000 0 413 0
2021-10-05 02:16:23 GMT 38.822205 -3.484756 40,000 0 413 0
2021-10-05 02:16:19 GMT 38.817444 -3.484875 40,000 0 414 0
2021-10-05 02:16:16 GMT 38.812866 -3.484935 40,000 0 414 -64
2021-10-05 02:16:13 GMT 38.804829 -3.485107 40,000 0 414 0
2021-10-05 02:16:10 GMT 38.801010 -3.485229 40,000 0 414 0
2021-10-05 02:16:07 GMT 38.795242 -3.485353 40,000 0 414 0
2021-10-05 02:16:04 GMT 38.787598 -3.485532 40,000 0 414 -64
2021-10-05 02:16:00 GMT 38.782063 -3.485657 40,000 0 414 -64
2021-10-05 02:15:57 GMT 38.775082 -3.485779 40,000 0 414 0
2021-10-05 02:15:54 GMT 38.770157 -3.485890 40,000 0 414 64
2021-10-05 02:15:51 GMT 38.763489 -3.486023 40,000 0 410 0
2021-10-05 02:15:47 GMT 38.755997 -3.486206 40,000 0 413 0
2021-10-05 02:15:44 GMT 38.743610 -3.486450 40,000 0 413 0
2021-10-05 02:15:41 GMT 38.743610 -3.486450 40,000 0 413 0
2021-10-05 02:15:38 GMT 38.740173 -3.486487 40,000 0 413 0
2021-10-05 02:15:35 GMT 38.734440 -3.486633 40,000 0 413 -64
2021-10-05 02:15:32 GMT 38.724884 -3.486846 40,000 0 410 0
2021-10-05 02:15:28 GMT 38.720661 -3.486938 40,000 0 410 64
2021-10-05 02:15:25 GMT 38.715309 -3.487061 40,000 0 413 0
2021-10-05 02:15:21 GMT 38.705395 -3.487244 40,000 0 412 0
2021-10-05 02:15:16 GMT 38.696640 -3.487443 40,000 0 412 64
2021-10-05 02:15:13 GMT 38.690357 -3.487549 40,000 0 412 0
2021-10-05 02:15:09 GMT 38.684601 -3.487682 40,000 0 411 0
2021-10-05 02:15:06 GMT 38.677231 -3.487854 40,000 0 411 64
2021-10-05 02:15:03 GMT 38.669998 -3.488040 40,000 0 411 0
2021-10-05 02:14:58 GMT 38.662937 -3.488159 40,000 0 411 0
2021-10-05 02:14:55 GMT 38.657043 -3.488279 40,000 0 411 0
2021-10-05 02:14:52 GMT 38.650223 -3.488458 40,000 0 410 -64
2021-10-05 02:14:48 GMT 38.643402 -3.488577 40,000 0 410 -64
2021-10-05 02:14:43 GMT 38.633144 -3.488770 40,000 0 410 64
2021-10-05 02:14:37 GMT 38.623672 -3.488995 40,000 0 410 0
2021-10-05 02:14:33 GMT 38.614941 -3.489197 40,000 0 410 64
2021-10-05 02:14:30 GMT 38.608521 -3.489353 40,000 0 410 64
2021-10-05 02:14:27 GMT 38.604721 -3.489413 40,000 0 410 0
2021-10-05 02:14:23 GMT 38.591572 -3.489685 40,000 0 410 0
2021-10-05 02:14:20 GMT 38.591572 -3.489685 40,000 0 410 64
2021-10-05 02:14:17 GMT 38.585381 -3.489807 40,000 0 410 0
2021-10-05 02:14:13 GMT 38.578583 -3.489990 40,000 0 410 -64
2021-10-05 02:14:10 GMT 38.571739 -3.490112 40,000 0 410 -64
2021-10-05 02:14:07 GMT 38.566040 -3.490249 40,000 0 410 -64
2021-10-05 02:14:04 GMT 38.558578 -3.490368 40,000 0 410 0
2021-10-05 02:14:00 GMT 38.552795 -3.490540 40,000 0 410 64
2021-10-05 02:13:56 GMT 38.546741 -3.490662 40,000 0 410 64
2021-10-05 02:13:53 GMT 38.540451 -3.490786 40,000 0 410 64
2021-10-05 02:13:50 GMT 38.533848 -3.490906 40,000 0 410 64
2021-10-05 02:13:47 GMT 38.528183 -3.491025 40,000 0 410 64
2021-10-05 02:13:42 GMT 38.519852 -3.491204 40,000 0 410 -64
2021-10-05 02:13:39 GMT 38.514542 -3.491324 40,000 0 409 -64
2021-10-05 02:13:36 GMT 38.508453 -3.491503 40,000 0 409 -64
2021-10-05 02:13:32 GMT 38.499771 -3.491638 40,000 0 409 64
2021-10-05 02:13:29 GMT 38.495209 -3.491760 40,000 0 409 64
2021-10-05 02:13:26 GMT 38.489159 -3.491882 40,000 0 409 0
2021-10-05 02:13:22 GMT 38.481400 -3.492040 40,000 0 409 0
2021-10-05 02:13:19 GMT 38.475128 -3.492160 40,000 0 409 -64
2021-10-05 02:13:16 GMT 38.470257 -3.492249 40,000 0 409 -64
2021-10-05 02:13:13 GMT 38.463043 -3.492398 40,000 0 408 0
2021-10-05 02:13:09 GMT 38.456223 -3.492578 40,000 0 408 0
2021-10-05 02:13:06 GMT 38.450912 -3.492697 40,000 0 408 0
2021-10-05 02:13:01 GMT 38.441895 -3.492876 40,000 0 408 0
2021-10-05 02:12:58 GMT 38.435436 -3.492981 40,000 0 408 0
2021-10-05 02:12:55 GMT 38.430920 -3.493103 40,000 0 408 0
2021-10-05 02:12:51 GMT 38.422211 -3.493294 40,000 0 408 64
2021-10-05 02:12:48 GMT 38.417328 -3.493408 40,000 0 408 0
2021-10-05 02:12:45 GMT 38.412022 -3.493533 40,000 0 408 -64
2021-10-05 02:12:40 GMT 38.402573 -3.493711 40,000 0 408 -64
2021-10-05 02:12:35 GMT 38.392914 -3.493945 40,000 0 408 -64
2021-10-05 02:12:31 GMT 38.384445 -3.494120 40,000 0 408 0
2021-10-05 02:12:25 GMT 38.373871 -3.494354 40,000 0 408 64
2021-10-05 02:12:21 GMT 38.353878 -3.494727 40,000 0 408 64
2021-10-05 02:12:14 GMT 38.353878 -3.494727 40,000 0 408 -64
2021-10-05 02:12:10 GMT 38.345589 -3.494906 40,000 0 408 0
2021-10-05 02:12:07 GMT 38.339951 -3.495055 40,000 0 408 64
2021-10-05 02:12:04 GMT 38.334278 -3.495145 40,000 0 407 64
2021-10-05 02:12:01 GMT 38.321091 -3.495464 40,000 0 407 64
2021-10-05 02:11:58 GMT 38.321091 -3.495464 40,000 0 407 -64
2021-10-05 02:11:55 GMT 38.316559 -3.495522 40,000 0 407 -64
2021-10-05 02:11:50 GMT 38.308273 -3.495698 40,000 0 407 -64
2021-10-05 02:11:47 GMT 38.302624 -3.495802 40,000 0 407 -64
2021-10-05 02:11:44 GMT 38.296967 -3.495931 40,000 0 407 0
2021-10-05 02:11:41 GMT 38.290192 -3.496048 40,000 0 407 64
2021-10-05 02:11:38 GMT 38.283463 -3.496224 40,000 0 407 64
2021-10-05 02:11:34 GMT 38.277763 -3.496339 40,000 0 407 64
2021-10-05 02:11:29 GMT 38.268448 -3.496516 40,000 0 407 0
2021-10-05 02:11:24 GMT 38.259338 -3.496750 40,000 0 407 -64
2021-10-05 02:11:20 GMT 38.250809 -3.496877 40,000 0 407 0
2021-10-05 02:11:14 GMT 38.240288 -3.497115 40,000 0 407 64
2021-10-05 02:11:11 GMT 38.232609 -3.497295 40,000 0 407 64
2021-10-05 02:11:07 GMT 38.227348 -3.497414 40,000 0 407 0
2021-10-05 02:11:04 GMT 38.220596 -3.497533 40,000 0 408 -64
2021-10-05 02:10:58 GMT 38.210358 -3.497743 40,000 0 408 -64
2021-10-05 02:10:53 GMT 38.201294 -3.497977 40,000 0 408 0
2021-10-05 02:10:49 GMT 38.192276 -3.498152 40,000 0 408 64
2021-10-05 02:10:44 GMT 38.182842 -3.498369 40,000 0 408 64
2021-10-05 02:10:38 GMT 38.171219 -3.498561 40,000 0 408 0
2021-10-05 02:10:33 GMT 38.162979 -3.498736 40,000 0 408 -64
2021-10-05 02:10:29 GMT 38.155380 -3.498912 40,000 0 408 -64
2021-10-05 02:10:26 GMT 38.148861 -3.499026 40,000 0 408 0
2021-10-05 02:10:23 GMT 38.144714 -3.499146 40,000 0 408 0
2021-10-05 02:10:17 GMT 38.130753 -3.499444 40,000 0 407 0
2021-10-05 02:10:13 GMT 38.125446 -3.499563 40,000 0 407 64
2021-10-05 02:10:08 GMT 38.114925 -3.499743 40,000 0 407 0
2021-10-05 02:10:03 GMT 38.105988 -3.499922 40,000 0 407 64
2021-10-05 02:09:59 GMT 38.097561 -3.500101 40,000 0 408 64
2021-10-05 02:09:56 GMT 38.092850 -3.500197 40,000 0 408 0
2021-10-05 02:09:52 GMT 38.086246 -3.500340 40,000 0 408 -64
2021-10-05 02:09:47 GMT 38.076565 -3.500579 40,000 0 408 -64
2021-10-05 02:09:42 GMT 38.067394 -3.500758 40,000 0 408 -64
2021-10-05 02:09:37 GMT 38.056782 -3.500996 40,000 0 411 0
2021-10-05 02:09:32 GMT 38.048492 -3.501176 40,000 0 409 0
2021-10-05 02:09:27 GMT 38.037506 -3.501366 40,000 0 409 0
2021-10-05 02:09:22 GMT 38.028896 -3.501594 40,000 0 409 64
2021-10-05 02:09:17 GMT 38.018188 -3.501773 40,000 0 410 0
2021-10-05 02:09:12 GMT 38.010040 -3.501952 40,000 0 410 0
2021-10-05 02:09:06 GMT 37.998871 -3.502184 40,000 0 410 0
2021-10-05 02:09:02 GMT 37.990494 -3.502360 40,000 0 411 0
2021-10-05 02:08:58 GMT 37.981384 -3.502593 40,000 0 411 0
2021-10-05 02:08:55 GMT 37.977585 -3.502652 40,000 0 411 0
2021-10-05 02:08:51 GMT 37.970169 -3.502827 40,000 0 411 -64
2021-10-05 02:08:48 GMT 37.962570 -3.502944 40,000 0 411 0
2021-10-05 02:08:45 GMT 37.958183 -3.503086 40,000 0 412 0
2021-10-05 02:08:42 GMT 37.952591 -3.503178 40,000 0 412 0
2021-10-05 02:08:38 GMT 37.944077 -3.503353 40,000 0 412 64
2021-10-05 02:08:35 GMT 37.939281 -3.503445 40,000 0 412 0
2021-10-05 02:08:31 GMT 37.932632 -3.503587 40,000 0 412 0
2021-10-05 02:08:28 GMT 37.924759 -3.503743 40,000 0 412 0
2021-10-05 02:08:25 GMT 37.919678 -3.503879 40,000 0 412 0
2021-10-05 02:08:21 GMT 37.912422 -3.503982 40,000 0 412 0
2021-10-05 02:08:17 GMT 37.903015 -3.504230 40,000 0 412 -64
2021-10-05 02:08:11 GMT 37.894501 -3.504405 40,000 0 412 0
2021-10-05 02:08:05 GMT 37.882675 -3.504639 40,000 0 412 64
2021-10-05 02:08:01 GMT 37.874680 -3.504814 40,000 0 412 0
2021-10-05 02:07:55 GMT 37.862595 -3.505048 40,000 0 412 -64
2021-10-05 02:07:51 GMT 37.855255 -3.505236 40,000 0 412 0
2021-10-05 02:07:47 GMT 37.846828 -3.505415 40,000 0 411 0
2021-10-05 02:07:44 GMT 37.843060 -3.505475 40,000 0 411 -64
2021-10-05 02:07:41 GMT 37.835953 -3.505632 40,000 0 411 0
2021-10-05 02:07:34 GMT 37.823639 -3.505866 40,000 0 411 -64
2021-10-05 02:07:30 GMT 37.816040 -3.506041 40,000 0 410 0
2021-10-05 02:07:24 GMT 37.804642 -3.506275 40,000 0 410 0
2021-10-05 02:07:20 GMT 37.796265 -3.506450 40,000 0 410 0
2021-10-05 02:07:17 GMT 37.789848 -3.506549 40,000 0 410 64
2021-10-05 02:07:14 GMT 37.785290 -3.506669 40,000 0 409 64
2021-10-05 02:07:10 GMT 37.778584 -3.506788 40,000 0 409 0
2021-10-05 02:07:04 GMT 37.766052 -3.507035 40,000 0 409 0
2021-10-05 02:07:00 GMT 37.758408 -3.507210 40,000 0 409 0
2021-10-05 02:06:56 GMT 37.751209 -3.507385 40,000 0 409 0
2021-10-05 02:06:53 GMT 37.746277 -3.507444 40,000 0 409 64
2021-10-05 02:06:50 GMT 37.739853 -3.507624 40,000 0 409 64
2021-10-05 02:06:46 GMT 37.731567 -3.507803 40,000 0 409 64
2021-10-05 02:06:43 GMT 37.726959 -3.507863 40,000 0 409 -64
2021-10-05 02:06:39 GMT 37.719177 -3.508028 40,000 0 409 -64
2021-10-05 02:06:36 GMT 37.712952 -3.508145 40,000 0 410 0
2021-10-05 02:06:33 GMT 37.706863 -3.508320 40,000 0 410 0
2021-10-05 02:06:30 GMT 37.701553 -3.508379 40,000 0 410 0
2021-10-05 02:06:24 GMT 37.689514 -3.508671 40,000 0 410 -64
2021-10-05 02:06:20 GMT 37.682362 -3.508818 40,000 0 411 -64
2021-10-05 02:06:16 GMT 37.674026 -3.508997 40,000 0 412 0
2021-10-05 02:06:12 GMT 37.667000 -3.509117 40,000 0 411 0
2021-10-05 02:06:09 GMT 37.662483 -3.509236 40,000 0 412 0
2021-10-05 02:06:05 GMT 37.654896 -3.509356 40,000 0 412 0
2021-10-05 02:06:01 GMT 37.646072 -3.509606 40,000 0 412 0
2021-10-05 02:05:58 GMT 37.641861 -3.509654 40,000 0 412 0
2021-10-05 02:05:55 GMT 37.634365 -3.509833 40,000 0 412 64
2021-10-05 02:05:52 GMT 37.629662 -3.509953 40,000 0 412 64
2021-10-05 02:05:49 GMT 37.623566 -3.510072 40,000 0 412 0
2021-10-05 02:05:46 GMT 37.616024 -3.510192 40,000 0 412 64
2021-10-05 02:05:42 GMT 37.610275 -3.510307 40,000 0 412 64
2021-10-05 02:05:39 GMT 37.604481 -3.510430 40,000 0 412 0
2021-10-05 02:05:34 GMT 37.594254 -3.510658 40,000 0 411 0
2021-10-05 02:05:31 GMT 37.589630 -3.510775 40,000 0 411 0
2021-10-05 02:05:28 GMT 37.584740 -3.510848 40,000 0 411 0
2021-10-05 02:05:25 GMT 37.577454 -3.511008 40,000 0 410 0
2021-10-05 02:05:22 GMT 37.571754 -3.511087 40,000 0 411 -64
2021-10-05 02:05:19 GMT 37.566444 -3.511207 40,000 0 410 0
2021-10-05 02:05:15 GMT 37.557724 -3.511417 40,000 0 410 0
2021-10-05 02:05:12 GMT 37.553146 -3.511476 40,000 0 410 0
2021-10-05 02:05:09 GMT 37.546707 -3.511625 40,000 0 410 0
2021-10-05 02:05:04 GMT 37.537994 -3.511768 40,000 0 411 0
2021-10-05 02:05:01 GMT 37.532043 -3.511885 40,000 0 412 0
2021-10-05 02:04:58 GMT 37.527328 -3.512002 40,000 0 411 64
2021-10-05 02:04:54 GMT 37.518589 -3.512162 40,000 0 411 0
2021-10-05 02:04:51 GMT 37.513237 -3.512281 40,000 0 412 0
2021-10-05 02:04:48 GMT 37.508286 -3.512411 40,000 0 412 0
2021-10-05 02:04:42 GMT 37.494598 -3.512703 40,000 0 412 -64
2021-10-05 02:04:38 GMT 37.488647 -3.512820 40,000 0 412 -64
2021-10-05 02:04:31 GMT 37.469242 -3.513237 40,000 0 411 -64
2021-10-05 02:04:28 GMT 37.469242 -3.513237 40,000 0 411 -64
2021-10-05 02:04:24 GMT 37.461563 -3.513356 40,000 0 409 64
2021-10-05 02:04:20 GMT 37.454720 -3.513535 40,000 0 410 64
2021-10-05 02:04:18 GMT 37.450111 -3.513655 40,000 0 410 64
2021-10-05 02:04:14 GMT 37.442322 -3.513813 40,000 0 409 64
2021-10-05 02:04:10 GMT 37.436096 -3.513930 40,000 0 409 -64
2021-10-05 02:04:08 GMT 37.431164 -3.514013 40,000 0 409 0
2021-10-05 02:04:03 GMT 37.422832 -3.514192 40,000 0 408 -64
2021-10-05 02:04:00 GMT 37.411659 -3.514431 40,000 0 408 -64
2021-10-05 02:03:57 GMT 37.411659 -3.514431 40,000 0 408 -64
2021-10-05 02:03:54 GMT 37.404327 -3.514573 40,000 0 407 -64
2021-10-05 02:03:50 GMT 37.397690 -3.514748 40,000 0 407 0
2021-10-05 02:03:47 GMT 37.392380 -3.514807 40,000 0 406 0
2021-10-05 02:03:44 GMT 37.384735 -3.514982 40,000 0 406 0
2021-10-05 02:03:40 GMT 37.379471 -3.515099 40,000 0 405 64
2021-10-05 02:03:37 GMT 37.373859 -3.515207 40,000 0 404 64
2021-10-05 02:03:33 GMT 37.365665 -3.515386 40,000 0 403 0
2021-10-05 02:03:30 GMT 37.360062 -3.515508 40,000 0 402 0
2021-10-05 02:03:26 GMT 37.353333 -3.515625 40,000 0 402 64
2021-10-05 02:03:23 GMT 37.345917 -3.515800 40,000 1 401 64
2021-10-05 02:03:19 GMT 37.340744 -3.515917 40,000 1 400 0
2021-10-05 02:03:16 GMT 37.335175 -3.515983 40,000 1 399 0
2021-10-05 02:03:10 GMT 37.321907 -3.516282 40,000 0 397 0
2021-10-05 02:03:06 GMT 37.316391 -3.516385 40,000 0 397 0
2021-10-05 02:03:03 GMT 37.309067 -3.516560 40,000 0 396 0
2021-10-05 02:03:00 GMT 37.305405 -3.516618 40,000 1 395 0
2021-10-05 02:02:57 GMT 37.298859 -3.516735 40,000 1 394 0
2021-10-05 02:02:52 GMT 37.290623 -3.516939 40,000 1 393 -64
2021-10-05 02:02:49 GMT 37.284664 -3.517058 40,000 0 392 64
2021-10-05 02:02:46 GMT 37.279953 -3.517144 40,000 0 391 64
2021-10-05 02:02:43 GMT 37.272720 -3.517320 40,000 0 390 0
2021-10-05 02:02:39 GMT 37.266220 -3.517437 40,000 0 389 0
2021-10-05 02:02:36 GMT 37.261322 -3.517553 40,000 1 389 0
2021-10-05 02:02:30 GMT 37.250729 -3.517774 40,000 0 387 -128
2021-10-05 02:02:26 GMT 37.243607 -3.517894 40,000 0 386 128
2021-10-05 02:02:20 GMT 37.232529 -3.518138 39,975 0 385 512
2021-10-05 02:02:16 GMT 37.225433 -3.518255 39,925 0 384 704
2021-10-05 02:02:10 GMT 37.214951 -3.518488 39,875 0 385 704
2021-10-05 02:02:08 GMT 37.211533 -3.518551 39,850 0 385 704
2021-10-05 02:02:05 GMT 37.207294 -3.518610 39,825 0 385 640
2021-10-05 02:02:01 GMT 37.199429 -3.518790 39,775 0 385 512
2021-10-05 02:01:58 GMT 37.193390 -3.518898 39,750 0 385 512
2021-10-05 02:01:55 GMT 37.189270 -3.519014 39,725 0 385 448
2021-10-05 02:01:50 GMT 37.178944 -3.519207 39,700 0 385 576
2021-10-05 02:01:45 GMT 37.170982 -3.519387 39,650 0 384 704
2021-10-05 02:01:40 GMT 37.161346 -3.519540 39,575 0 385 896
2021-10-05 02:01:38 GMT 37.156879 -3.519685 39,525 0 385 960
2021-10-05 02:01:35 GMT 37.153015 -3.519716 39,500 0 385 1024
2021-10-05 02:01:30 GMT 37.143890 -3.519924 39,425 0 386 960
2021-10-05 02:01:27 GMT 37.138908 -3.520043 39,375 0 386 1024
2021-10-05 02:01:24 GMT 37.133698 -3.520125 39,325 0 386 1024
2021-10-05 02:01:20 GMT 37.126156 -3.520282 39,250 0 387 1024
2021-10-05 02:01:15 GMT 37.116703 -3.520461 39,150 0 388 1088
2021-10-05 02:01:09 GMT 37.107010 -3.520709 39,050 0 389 1088
2021-10-05 02:01:04 GMT 37.098358 -3.520884 38,975 1 390 1152
2021-10-05 02:01:00 GMT 37.089378 -3.521058 38,875 1 391 1152
2021-10-05 02:00:54 GMT 37.079544 -3.521235 38,775 1 391 1216
2021-10-05 02:00:49 GMT 37.071175 -3.521417 38,700 1 392 1280
2021-10-05 02:00:44 GMT 37.061028 -3.521656 38,575 0 393 1280
2021-10-05 02:00:40 GMT 37.053360 -3.521819 38,475 0 394 1280
2021-10-05 02:00:34 GMT 37.042778 -3.522014 38,350 0 395 1152
2021-10-05 02:00:30 GMT 37.035095 -3.522170 38,300 0 395 1088
2021-10-05 02:00:24 GMT 37.024155 -3.522404 38,200 0 395 896
2021-10-05 02:00:20 GMT 37.016430 -3.522551 38,125 0 395 832
2021-10-05 02:00:16 GMT 37.008518 -3.522671 38,075 1 395 960
2021-10-05 02:00:13 GMT 37.004745 -3.522790 38,025 1 395 960
2021-10-05 02:00:08 GMT 36.995296 -3.522969 37,950 1 395 1088
2021-10-05 02:00:04 GMT 36.987534 -3.523105 37,850 1 396 1152
2021-10-05 02:00:00 GMT 36.979614 -3.523280 37,775 1 396 1280
2021-10-05 01:59:53 GMT 36.968491 -3.523514 37,650 0 397 1344
2021-10-05 01:59:49 GMT 36.960480 -3.523689 37,550 1 398 1344
2021-10-05 01:59:43 GMT 36.949448 -3.523923 37,425 1 398 1216
2021-10-05 01:59:39 GMT 36.941574 -3.524104 37,350 1 399 1152
2021-10-05 01:59:33 GMT 36.930908 -3.524332 37,225 1 399 1024
2021-10-05 01:59:30 GMT 36.923584 -3.524449 36,500 1 400 1344
2021-10-05 01:59:23 GMT 36.912460 -3.524683 37,075 0 399 1024
2021-10-05 01:59:19 GMT 36.904705 -3.524820 37,000 1 399 1088
2021-10-05 01:59:13 GMT 36.893719 -3.525059 36,875 1 399 1216
2021-10-05 01:59:09 GMT 36.886597 -3.525209 36,800 1 399 1216
2021-10-05 01:59:03 GMT 36.874786 -3.525443 36,675 0 400 1216
2021-10-05 01:58:59 GMT 36.867744 -3.525596 36,600 0 400 1152
2021-10-05 01:58:52 GMT 36.855515 -3.525852 36,475 0 400 1216
2021-10-05 01:58:49 GMT 36.848877 -3.525982 36,375 1 400 1344
2021-10-05 01:58:43 GMT 36.837753 -3.526211 36,250 0 401 1344
2021-10-05 01:58:40 GMT 36.832226 -3.526319 36,200 0 401 1344
2021-10-05 01:58:33 GMT 36.819656 -3.526553 36,050 1 400 1024
2021-10-05 01:58:30 GMT 36.813648 -3.526670 36,025 0 400 1024
2021-10-05 01:58:28 GMT 36.810810 -3.526728 36,000 0 400 1024
2021-10-05 01:58:22 GMT 36.799683 -3.526962 35,875 0 399 1152
2021-10-05 01:58:19 GMT 36.791840 -3.527126 35,800 0 399 1088
2021-10-05 01:58:13 GMT 36.782227 -3.527298 35,700 1 398 1088
2021-10-05 01:58:10 GMT 36.776688 -3.527429 35,650 1 398 1024
2021-10-05 01:58:08 GMT 36.773800 -3.527488 35,650 0 398 1024
2021-10-05 01:58:03 GMT 36.762768 -3.527722 35,525 0 397 1152
2021-10-05 01:58:00 GMT 36.758438 -3.527780 35,475 0 397 1152
2021-10-05 01:57:58 GMT 36.754990 -3.527870 35,450 0 397 1216
2021-10-05 01:57:50 GMT 36.740250 -3.528156 35,275 0 397 1536
2021-10-05 01:57:48 GMT 36.735992 -3.528214 35,200 0 397 1664
2021-10-05 01:57:40 GMT 36.721661 -3.528540 34,975 0 398 1728
2021-10-05 01:57:38 GMT 36.718185 -3.528614 34,925 0 398 1728
2021-10-05 01:57:30 GMT 36.703445 -3.528900 34,700 0 400 1728
2021-10-05 01:57:27 GMT 36.698620 -3.528949 34,625 0 400 1728
2021-10-05 01:57:20 GMT 36.680042 -3.529358 34,375 0 402 1856
2021-10-05 01:57:17 GMT 36.680042 -3.529358 34,325 0 402 1856
2021-10-05 01:57:10 GMT 36.666275 -3.529644 34,100 0 404 1920
2021-10-05 01:57:08 GMT 36.660679 -3.529767 34,000 0 404 1920
2021-10-05 01:56:59 GMT 36.645039 -3.530059 33,750 0 406 1792
2021-10-05 01:56:57 GMT 36.642288 -3.530102 33,725 0 406 1728
2021-10-05 01:56:50 GMT 36.623112 -3.530527 33,425 0 407 1664
2021-10-05 01:56:47 GMT 36.623112 -3.530527 33,425 0 407 1664
2021-10-05 01:56:40 GMT 36.604256 -3.530877 33,150 0 408 1664
2021-10-05 01:56:37 GMT 36.604256 -3.530877 33,150 0 408 1664
2021-10-05 01:56:30 GMT 36.590286 -3.531189 32,950 0 408 1728
2021-10-05 01:56:27 GMT 36.584614 -3.531286 32,850 0 408 1728
2021-10-05 01:56:19 GMT 36.569485 -3.531579 32,650 0 408 1536
2021-10-05 01:56:16 GMT 36.565521 -3.531647 32,600 0 408 1600
2021-10-05 01:56:10 GMT 36.553253 -3.531876 32,400 0 408 1664
2021-10-05 01:56:07 GMT 36.546951 -3.532046 32,325 0 408 1664
2021-10-05 01:56:00 GMT 36.534149 -3.532280 32,125 0 408 1600
2021-10-05 01:55:57 GMT 36.527573 -3.532391 32,025 0 408 1600
2021-10-05 01:55:50 GMT 36.515297 -3.532630 31,850 0 408 1856
2021-10-05 01:55:46 GMT 36.508713 -3.532791 31,750 0 408 2048
2021-10-05 01:55:40 GMT 36.495850 -3.533077 31,500 0 409 2112
2021-10-05 01:55:36 GMT 36.489414 -3.533156 31,400 0 410 1984
2021-10-05 01:55:29 GMT 36.476517 -3.533449 31,200 0 410 1792
2021-10-05 01:55:26 GMT 36.470032 -3.533592 31,075 0 410 1664
2021-10-05 01:55:19 GMT 36.457478 -3.533799 30,925 0 410 1408
2021-10-05 01:55:16 GMT 36.450302 -3.533993 30,825 0 409 1280
2021-10-05 01:55:09 GMT 36.437927 -3.534208 30,700 0 408 1280
2021-10-05 01:55:05 GMT 36.431396 -3.534393 30,625 0 407 1408
2021-10-05 01:54:59 GMT 36.419312 -3.534622 30,375 0 406 1472
2021-10-05 01:54:55 GMT 36.412323 -3.534734 30,375 0 406 1472
2021-10-05 01:54:49 GMT 36.400127 -3.534968 30,225 0 404 1472
2021-10-05 01:54:45 GMT 36.393036 -3.535137 30,125 0 404 1536
2021-10-05 01:54:39 GMT 36.381088 -3.535366 29,950 0 403 1600
2021-10-05 01:54:35 GMT 36.374008 -3.535494 29,850 0 402 1664
2021-10-05 01:54:30 GMT 36.363968 -3.535709 29,700 0 402 1792
2021-10-05 01:54:28 GMT 36.362095 -3.535728 29,675 0 402 1856
2021-10-05 01:54:25 GMT 36.356228 -3.535845 29,575 0 402 1856
2021-10-05 01:54:20 GMT 36.345798 -3.536078 29,400 1 401 1856
2021-10-05 01:54:18 GMT 36.343277 -3.536110 29,350 1 401 1856
2021-10-05 01:54:15 GMT 36.336815 -3.536254 29,250 1 401 1728
2021-10-05 01:54:10 GMT 36.326843 -3.536453 29,100 1 400 1472
2021-10-05 01:54:08 GMT 36.323822 -3.536510 29,075 0 400 1344
2021-10-05 01:54:05 GMT 36.317543 -3.536663 29,000 0 399 1088
2021-10-05 01:54:00 GMT 36.307953 -3.536838 28,900 0 398 1088
2021-10-05 01:53:55 GMT 36.299850 -3.537013 28,825 0 397 1152
2021-10-05 01:53:50 GMT 36.289948 -3.537197 28,725 0 396 1152
2021-10-05 01:53:48 GMT 36.287155 -3.537254 28,700 0 396 1152
2021-10-05 01:53:44 GMT 36.280766 -3.537364 28,625 0 395 1088
2021-10-05 01:53:40 GMT 36.271969 -3.537539 28,550 0 394 1088
2021-10-05 01:53:37 GMT 36.268337 -3.537598 28,500 0 394 1152
2021-10-05 01:53:34 GMT 36.261772 -3.537773 28,425 0 393 1344
2021-10-05 01:53:29 GMT 36.253418 -3.537941 28,325 0 392 1344
2021-10-05 01:53:25 GMT 36.244080 -3.538113 28,200 0 391 1472
2021-10-05 01:53:19 GMT 36.235291 -3.538284 28,100 0 391 1472
2021-10-05 01:53:17 GMT 36.231674 -3.538342 28,050 0 390 1536
2021-10-05 01:53:14 GMT 36.225174 -3.538456 27,950 0 390 1536
2021-10-05 01:53:09 GMT 36.216988 -3.538650 27,825 0 390 1600
2021-10-05 01:53:07 GMT 36.212612 -3.538708 27,775 0 390 1600
2021-10-05 01:53:04 GMT 36.206749 -3.538825 27,675 0 390 1600
2021-10-05 01:52:59 GMT 36.198788 -3.539000 27,550 0 389 1728
2021-10-05 01:52:54 GMT 36.189056 -3.539200 27,400 0 389 1792
2021-10-05 01:52:49 GMT 36.180958 -3.539351 27,275 0 389 1856
2021-10-05 01:52:43 GMT 36.170334 -3.539543 27,100 0 389 1792
2021-10-05 01:52:39 GMT 36.162849 -3.539701 26,975 0 389 1792
2021-10-05 01:52:36 GMT 36.157379 -3.539829 26,875 0 389 1792
2021-10-05 01:52:33 GMT 36.151955 -3.539935 26,800 0 389 1728
2021-10-05 01:52:29 GMT 36.145157 -3.540058 26,700 0 389 1664
2021-10-05 01:52:24 GMT 36.134308 -3.540287 26,525 0 388 1600
2021-10-05 01:52:19 GMT 36.127167 -3.540401 26,425 0 388 1600
2021-10-05 01:52:16 GMT 36.121044 -3.540578 26,325 0 387 1600
2021-10-05 01:52:13 GMT 36.115677 -3.540688 26,250 0 387 1600
2021-10-05 01:52:08 GMT 36.108150 -3.540812 26,150 0 387 1664
2021-10-05 01:52:06 GMT 36.102905 -3.540916 26,050 0 386 1664
2021-10-05 01:52:03 GMT 36.097488 -3.541045 25,975 0 386 1664
2021-10-05 01:51:59 GMT 36.091671 -3.541162 25,875 0 386 1664
2021-10-05 01:51:52 GMT 36.078823 -3.541396 25,675 0 385 1664
2021-10-05 01:51:49 GMT 36.073235 -3.541513 25,600 0 385 1600
2021-10-05 01:51:42 GMT 36.060745 -3.541775 25,450 0 383 1344
2021-10-05 01:51:39 GMT 36.055359 -3.541864 25,375 0 382 1280
2021-10-05 01:51:35 GMT 36.048332 -3.542039 25,300 0 380 1216
2021-10-05 01:51:32 GMT 36.043350 -3.542097 25,250 0 379 1152
2021-10-05 01:51:29 GMT 36.038086 -3.542233 25,200 0 378 1088
2021-10-05 01:51:23 GMT 36.025288 -3.542448 25,050 0 375 1088
2021-10-05 01:51:18 GMT 36.019958 -3.542576 25,000 0 373 1216
2021-10-05 01:51:15 GMT 36.013557 -3.542682 24,925 0 372 1280
2021-10-05 01:51:12 GMT 36.008240 -3.542805 24,850 0 371 1408
2021-10-05 01:51:08 GMT 36.002747 -3.542919 24,775 0 370 1536
2021-10-05 01:51:05 GMT 35.995377 -3.543034 24,650 0 369 1664
2021-10-05 01:51:02 GMT 35.991119 -3.543148 24,600 0 368 1664
2021-10-05 01:50:59 GMT 35.985996 -3.543266 24,500 0 368 1664
2021-10-05 01:50:55 GMT 35.979198 -3.543383 24,400 0 367 1664
2021-10-05 01:50:52 GMT 35.973587 -3.543491 24,300 0 366 1728
2021-10-05 01:50:49 GMT 35.969376 -3.543606 24,225 0 366 1728
2021-10-05 01:50:45 GMT 35.962051 -3.543720 24,100 0 365 1792
2021-10-05 01:50:42 GMT 35.956512 -3.543835 24,000 0 365 1792
2021-10-05 01:50:39 GMT 35.952106 -3.543909 23,925 0 364 1728
2021-10-05 01:50:34 GMT 35.943695 -3.544121 23,800 0 363 1792
2021-10-05 01:50:29 GMT 35.935593 -3.544235 23,650 0 363 1856
2021-10-05 01:50:24 GMT 35.927200 -3.544435 23,500 0 359 1664
2021-10-05 01:50:19 GMT 35.918495 -3.544552 23,350 0 361 1728
2021-10-05 01:50:09 GMT 35.901970 -3.544902 23,050 0 358 1664
2021-10-05 01:50:04 GMT 35.893871 -3.545078 22,925 0 357 1664
2021-10-05 01:49:59 GMT 35.885101 -3.545265 22,775 0 356 1728
2021-10-05 01:49:53 GMT 35.875435 -3.545428 22,600 0 354 1792
2021-10-05 01:49:49 GMT 35.868713 -3.545551 22,475 0 353 1856
2021-10-05 01:49:44 GMT 35.860703 -3.545723 22,325 0 352 1856
2021-10-05 01:49:39 GMT 35.852577 -3.545896 22,175 0 351 1856
2021-10-05 01:49:34 GMT 35.843594 -3.546071 22,000 0 350 1856
2021-10-05 01:49:28 GMT 35.835983 -3.546238 21,850 0 349 1920
2021-10-05 01:49:21 GMT 35.821793 -3.546524 21,575 0 348 1984
2021-10-05 01:49:18 GMT 35.819321 -3.546524 21,525 0 347 2048
2021-10-05 01:49:09 GMT 35.804115 -3.546831 21,175 0 346 2304
2021-10-05 01:48:59 GMT 35.787918 -3.547153 20,750 0 346 2560
2021-10-05 01:48:49 GMT 35.772041 -3.547474 20,350 0 347 2624
2021-10-05 01:48:39 GMT 35.755981 -3.547824 19,900 0 348 2816
2021-10-05 01:48:29 GMT 35.739780 -3.548116 19,425 0 350 2688
2021-10-05 01:48:19 GMT 35.723629 -3.548467 19,025 0 351 2240
2021-10-05 01:48:09 GMT 35.707428 -3.548759 18,700 0 348 1984
2021-10-05 01:47:59 GMT 35.691322 -3.549051 18,350 0 346 2240
2021-10-05 01:47:48 GMT 35.674301 -3.549385 17,950 0 344 2112
2021-10-05 01:47:39 GMT 35.659103 -3.549671 17,600 0 342 2304
2021-10-05 01:47:28 GMT 35.642906 -3.549928 17,200 0 341 2496
2021-10-05 01:47:17 GMT 35.624660 -3.550220 16,750 0 340 2176
2021-10-05 01:47:06 GMT 35.608063 -3.550472 16,400 0 337 2112
2021-10-05 01:46:59 GMT 35.596497 -3.550571 16,125 0 335 1984
2021-10-05 01:46:49 GMT 35.581131 -3.550746 15,825 0 332 2048
2021-10-05 01:46:39 GMT 35.565723 -3.550863 15,500 0 328 1856
2021-10-05 01:46:28 GMT 35.549385 -3.551272 15,150 2 325 1920
2021-10-05 01:46:19 GMT 35.535557 -3.552324 14,775 6 324 2624
2021-10-05 01:46:09 GMT 35.520584 -3.556309 14,350 18 327 2496
2021-10-05 01:45:57 GMT 35.504322 -3.565589 13,825 29 329 2752

Making use of Plane Finder data

You are free to use the raw flight data, aircraft information and images provided in this report for your own purposes provided the data is correctly attributed to Plane Finder. We ask that you please credit Plane Finder and link to planefinder.net in close proximity to the content.

Optionally one of the following logos (no smaller then 150x24px) can be used and must link to planefinder.net

Embedding the Plane Finder map

You are welcome to embed the Plane Finder playback map on your website to offer visitors a more interactive experience. We suggest using the following HTML code:

<iframe src="//planefinder.net/data/report/TB1572-OO-JEM-7700-squawk-2021-10-05/map" width="800" height="600" seamless="seamless"></iframe>

Where our data comes from

Plane Finder has a global network of data feeds and antenna radars that receive data broadcast directly from aircraft. The primary technologies used are ADS-B and MLAT. We also show feeds from the FAA and a FLARM glider feed.

Click here to find out more about the Plane Finder network.

How we collect our data